<?xml version="1.0" encoding="UTF-8" standalone="no" ?><gpx xmlns="http://www.topografix.com/GPX/1/1" xmlns:gpxx="http://www.garmin.com/xmlschemas/GpxExtensions/v3" xmlns:wptx1="http://www.garmin.com/xmlschemas/WaypointExtension/v1" xmlns:gpxtpx="http://www.garmin.com/xmlschemas/TrackPointExtension/v1" creator="Alpha 100 EMEA/APAC" version="1.1" xmlns:xsi="http://www.w3.org/2001/XMLSchema-instance" xsi:schemaLocation="http://www.topografix.com/GPX/1/1 http://www.topografix.com/GPX/1/1/gpx.xsd http://www.garmin.com/xmlschemas/GpxExtensions/v3 http://www8.garmin.com/xmlschemas/GpxExtensionsv3.xsd http://www.garmin.com/xmlschemas/WaypointExtension/v1 http://www8.garmin.com/xmlschemas/WaypointExtensionv1.xsd http://www.garmin.com/xmlschemas/TrackPointExtension/v1 http://www.garmin.com/xmlschemas/TrackPointExtensionv1.xsd"><metadata><link href="http://www.garmin.com"><text>Garmin International</text></link><time>2026-04-25T21:20:30Z</time></metadata><trk><name>2026-04-25 15:20:28</name><extensions><gpxx:TrackExtension><gpxx:DisplayColor>White</gpxx:DisplayColor></gpxx:TrackExtension></extensions><trkseg><trkpt lat="59.0636438783" lon="30.0308720302"><ele>85.21</ele><time>2026-04-25T15:55:02Z</time></trkpt><trkpt lat="59.0636508353" lon="30.0308405142"><ele>85.21</ele><time>2026-04-25T15:55:23Z</time></trkpt><trkpt lat="59.0636852849" lon="30.0308089145"><ele>85.21</ele><time>2026-04-25T15:55:36Z</time></trkpt><trkpt lat="59.0637219977" lon="30.0307404343"><ele>85.21</ele><time>2026-04-25T15:55:49Z</time></trkpt><trkpt lat="59.0637494903" lon="30.0306853652"><ele>85.21</ele><time>2026-04-25T15:56:00Z</time></trkpt><trkpt lat="59.0637856163" lon="30.0306198187"><ele>84.73</ele><time>2026-04-25T15:56:14Z</time></trkpt><trkpt lat="59.0638383385" lon="30.0306129456"><ele>84.73</ele><time>2026-04-25T15:56:23Z</time></trkpt><trkpt lat="59.0639289469" lon="30.0306659192"><ele>84.73</ele><time>2026-04-25T15:56:34Z</time></trkpt><trkpt lat="59.0639820881" lon="30.0307052303"><ele>84.73</ele><time>2026-04-25T15:56:48Z</time></trkpt><trkpt lat="59.0640387498" lon="30.0307049789"><ele>84.73</ele><time>2026-04-25T15:57:00Z</time></trkpt><trkpt lat="59.0641224850" lon="30.0307395123"><ele>84.73</ele><time>2026-04-25T15:57:12Z</time></trkpt><trkpt lat="59.0642332099" lon="30.0306732114"><ele>84.25</ele><time>2026-04-25T15:57:26Z</time></trkpt><trkpt lat="59.0643044561" lon="30.0305872969"><ele>84.25</ele><time>2026-04-25T15:57:38Z</time></trkpt><trkpt lat="59.0644549113" lon="30.0305152126"><ele>84.25</ele><time>2026-04-25T15:57:54Z</time></trkpt><trkpt lat="59.0645723417" lon="30.0304930843"><ele>83.77</ele><time>2026-04-25T15:58:11Z</time></trkpt><trkpt lat="59.0645822324" lon="30.0304962695"><ele>83.77</ele><time>2026-04-25T15:58:28Z</time></trkpt><trkpt lat="59.0646566637" lon="30.0304805953"><ele>83.29</ele><time>2026-04-25T15:58:41Z</time></trkpt><trkpt lat="59.0647777822" lon="30.0304368418"><ele>82.81</ele><time>2026-04-25T15:58:54Z</time></trkpt><trkpt lat="59.0649326798" lon="30.0304049067"><ele>82.81</ele><time>2026-04-25T15:59:07Z</time></trkpt><trkpt lat="59.0650791954" lon="30.0303200819"><ele>82.81</ele><time>2026-04-25T15:59:21Z</time></trkpt><trkpt lat="59.0652426425" lon="30.0302914158"><ele>82.81</ele><time>2026-04-25T15:59:35Z</time></trkpt><trkpt lat="59.0653131343" lon="30.0303087663"><ele>82.33</ele><time>2026-04-25T15:59:52Z</time></trkpt><trkpt lat="59.0653679520" lon="30.0303126220"><ele>83.29</ele><time>2026-04-25T16:00:28Z</time></trkpt><trkpt lat="59.0653901640" lon="30.0303228479"><ele>82.33</ele><time>2026-04-25T16:00:56Z</time></trkpt><trkpt lat="59.0654989611" lon="30.0302759092"><ele>81.37</ele><time>2026-04-25T16:01:16Z</time></trkpt><trkpt lat="59.0655956883" lon="30.0302896556"><ele>81.37</ele><time>2026-04-25T16:01:29Z</time></trkpt><trkpt lat="59.0656694490" lon="30.0302843750"><ele>82.81</ele><time>2026-04-25T16:01:40Z</time></trkpt><trkpt lat="59.0656748135" lon="30.0302729756"><ele>82.81</ele><time>2026-04-25T16:01:41Z</time></trkpt><trkpt lat="59.0657351632" lon="30.0302716345"><ele>82.81</ele><time>2026-04-25T16:01:56Z</time></trkpt><trkpt lat="59.0657929145" lon="30.0302155595"><ele>82.81</ele><time>2026-04-25T16:02:08Z</time></trkpt><trkpt lat="59.0658422839" lon="30.0301215984"><ele>81.37</ele><time>2026-04-25T16:02:19Z</time></trkpt><trkpt lat="59.0659112670" lon="30.0300947763"><ele>81.37</ele><time>2026-04-25T16:02:31Z</time></trkpt><trkpt lat="59.0659582894" lon="30.0300594885"><ele>81.37</ele><time>2026-04-25T16:02:41Z</time></trkpt><trkpt lat="59.0660334751" lon="30.0299983006"><ele>81.37</ele><time>2026-04-25T16:02:53Z</time></trkpt><trkpt lat="59.0661258437" lon="30.0299138110"><ele>81.37</ele><time>2026-04-25T16:03:09Z</time></trkpt><trkpt lat="59.0661706869" lon="30.0298817921"><ele>80.89</ele><time>2026-04-25T16:03:22Z</time></trkpt><trkpt lat="59.0662251692" lon="30.0298150722"><ele>80.89</ele><time>2026-04-25T16:03:33Z</time></trkpt><trkpt lat="59.0662922245" lon="30.0298118033"><ele>80.89</ele><time>2026-04-25T16:03:46Z</time></trkpt><trkpt lat="59.0664004348" lon="30.0298589934"><ele>80.89</ele><time>2026-04-25T16:03:57Z</time></trkpt><trkpt lat="59.0664819069" lon="30.0298506953"><ele>80.89</ele><time>2026-04-25T16:04:14Z</time></trkpt><trkpt lat="59.0665788855" lon="30.0298331771"><ele>80.89</ele><time>2026-04-25T16:04:25Z</time></trkpt><trkpt lat="59.0667350404" lon="30.0297584105"><ele>80.89</ele><time>2026-04-25T16:04:39Z</time></trkpt><trkpt lat="59.0668059513" lon="30.0296828058"><ele>80.89</ele><time>2026-04-25T16:04:51Z</time></trkpt><trkpt lat="59.0669200290" lon="30.0296755135"><ele>80.89</ele><time>2026-04-25T16:05:04Z</time></trkpt><trkpt lat="59.0670328494" lon="30.0296833925"><ele>80.89</ele><time>2026-04-25T16:05:18Z</time></trkpt><trkpt lat="59.0671667922" lon="30.0296465121"><ele>80.89</ele><time>2026-04-25T16:05:30Z</time></trkpt><trkpt lat="59.0672755893" lon="30.0295818876"><ele>80.89</ele><time>2026-04-25T16:05:40Z</time></trkpt><trkpt lat="59.0674039163" lon="30.0295581669"><ele>80.89</ele><time>2026-04-25T16:05:50Z</time></trkpt><trkpt lat="59.0675657708" lon="30.0294724200"><ele>80.89</ele><time>2026-04-25T16:06:06Z</time></trkpt><trkpt lat="59.0676290542" lon="30.0294091366"><ele>80.89</ele><time>2026-04-25T16:06:16Z</time></trkpt><trkpt lat="59.0677379351" lon="30.0293503795"><ele>80.89</ele><time>2026-04-25T16:06:30Z</time></trkpt><trkpt lat="59.0679214988" lon="30.0293434225"><ele>80.89</ele><time>2026-04-25T16:06:44Z</time></trkpt><trkpt lat="59.0681311302" lon="30.0292922091"><ele>80.89</ele><time>2026-04-25T16:07:01Z</time></trkpt><trkpt lat="59.0682490636" lon="30.0292636268"><ele>80.89</ele><time>2026-04-25T16:07:13Z</time></trkpt><trkpt lat="59.0683084913" lon="30.0292357150"><ele>80.41</ele><time>2026-04-25T16:07:25Z</time></trkpt><trkpt lat="59.0684944857" lon="30.0291475374"><ele>80.41</ele><time>2026-04-25T16:07:41Z</time></trkpt><trkpt lat="59.0686883591" lon="30.0290892832"><ele>80.41</ele><time>2026-04-25T16:07:56Z</time></trkpt><trkpt lat="59.0688685700" lon="30.0290000159"><ele>80.41</ele><time>2026-04-25T16:08:11Z</time></trkpt><trkpt lat="59.0690319333" lon="30.0289593637"><ele>80.41</ele><time>2026-04-25T16:08:25Z</time></trkpt><trkpt lat="59.0691725817" lon="30.0289168674"><ele>80.41</ele><time>2026-04-25T16:08:39Z</time></trkpt><trkpt lat="59.0694008209" lon="30.0288275164"><ele>80.41</ele><time>2026-04-25T16:08:56Z</time></trkpt><trkpt lat="59.0694544651" lon="30.0288132671"><ele>80.41</ele><time>2026-04-25T16:09:00Z</time></trkpt><trkpt lat="59.0695524495" lon="30.0288011134"><ele>80.41</ele><time>2026-04-25T16:09:07Z</time></trkpt><trkpt lat="59.0697362646" lon="30.0286981836"><ele>80.41</ele><time>2026-04-25T16:09:24Z</time></trkpt><trkpt lat="59.0697801858" lon="30.0286280271"><ele>81.37</ele><time>2026-04-25T16:09:30Z</time></trkpt><trkpt lat="59.0699392743" lon="30.0286843535"><ele>81.37</ele><time>2026-04-25T16:09:44Z</time></trkpt><trkpt lat="59.0700654220" lon="30.0286807492"><ele>81.37</ele><time>2026-04-25T16:09:57Z</time></trkpt><trkpt lat="59.0701197367" lon="30.0286484789"><ele>81.37</ele><time>2026-04-25T16:10:02Z</time></trkpt><trkpt lat="59.0701776557" lon="30.0286219083"><ele>81.37</ele><time>2026-04-25T16:10:07Z</time></trkpt><trkpt lat="59.0702924039" lon="30.0285700243"><ele>81.37</ele><time>2026-04-25T16:10:18Z</time></trkpt><trkpt lat="59.0704770572" lon="30.0285337307"><ele>81.37</ele><time>2026-04-25T16:10:33Z</time></trkpt><trkpt lat="59.0704889596" lon="30.0285401009"><ele>81.37</ele><time>2026-04-25T16:10:34Z</time></trkpt><trkpt lat="59.0705255046" lon="30.0285395142"><ele>81.37</ele><time>2026-04-25T16:10:37Z</time></trkpt><trkpt lat="59.0705882013" lon="30.0285314675"><ele>81.37</ele><time>2026-04-25T16:10:43Z</time></trkpt><trkpt lat="59.0707293525" lon="30.0284390152"><ele>80.41</ele><time>2026-04-25T16:10:57Z</time></trkpt><trkpt lat="59.0707713459" lon="30.0284345727"><ele>80.41</ele><time>2026-04-25T16:11:01Z</time></trkpt><trkpt lat="59.0709639620" lon="30.0283558667"><ele>80.41</ele><time>2026-04-25T16:11:17Z</time></trkpt><trkpt lat="59.0711428318" lon="30.0282564573"><ele>78.97</ele><time>2026-04-25T16:11:32Z</time></trkpt><trkpt lat="59.0711940452" lon="30.0282349996"><ele>78.97</ele><time>2026-04-25T16:11:36Z</time></trkpt><trkpt lat="59.0713740885" lon="30.0281954370"><ele>78.97</ele><time>2026-04-25T16:11:51Z</time></trkpt><trkpt lat="59.0715236217" lon="30.0281696208"><ele>78.97</ele><time>2026-04-25T16:12:05Z</time></trkpt><trkpt lat="59.0715891682" lon="30.0281441398"><ele>78.97</ele><time>2026-04-25T16:12:12Z</time></trkpt><trkpt lat="59.0716782678" lon="30.0281343330"><ele>78.97</ele><time>2026-04-25T16:12:20Z</time></trkpt><trkpt lat="59.0717008989" lon="30.0281315669"><ele>78.97</ele><time>2026-04-25T16:12:22Z</time></trkpt><trkpt lat="59.0718521085" lon="30.0281029847"><ele>78.97</ele><time>2026-04-25T16:12:37Z</time></trkpt><trkpt lat="59.0719611570" lon="30.0280452333"><ele>78.97</ele><time>2026-04-25T16:12:50Z</time></trkpt><trkpt lat="59.0720590577" lon="30.0280307326"><ele>78.97</ele><time>2026-04-25T16:13:02Z</time></trkpt><trkpt lat="59.0721479058" lon="30.0280218478"><ele>78.97</ele><time>2026-04-25T16:13:16Z</time></trkpt><trkpt lat="59.0722440463" lon="30.0279528648"><ele>79.93</ele><time>2026-04-25T16:13:27Z</time></trkpt><trkpt lat="59.0722721256" lon="30.0279348437"><ele>78.48</ele><time>2026-04-25T16:13:30Z</time></trkpt><trkpt lat="59.0724116005" lon="30.0278677884"><ele>78.48</ele><time>2026-04-25T16:13:45Z</time></trkpt><trkpt lat="59.0726366546" lon="30.0277771801"><ele>78.48</ele><time>2026-04-25T16:14:01Z</time></trkpt><trkpt lat="59.0726509038" lon="30.0277693011"><ele>78.48</ele><time>2026-04-25T16:14:02Z</time></trkpt><trkpt lat="59.0726965014" lon="30.0277463347"><ele>79.93</ele><time>2026-04-25T16:14:05Z</time></trkpt><trkpt lat="59.0728245769" lon="30.0276924390"><ele>79.93</ele><time>2026-04-25T16:14:15Z</time></trkpt><trkpt lat="59.0730030276" lon="30.0276025850"><ele>78.48</ele><time>2026-04-25T16:14:30Z</time></trkpt><trkpt lat="59.0730444342" lon="30.0274838973"><ele>78.48</ele><time>2026-04-25T16:14:46Z</time></trkpt><trkpt lat="59.0730667301" lon="30.0273336936"><ele>78.48</ele><time>2026-04-25T16:15:00Z</time></trkpt><trkpt lat="59.0730453562" lon="30.0270979945"><ele>78.48</ele><time>2026-04-25T16:15:17Z</time></trkpt><trkpt lat="59.0730036143" lon="30.0267041288"><ele>78.48</ele><time>2026-04-25T16:15:33Z</time></trkpt><trkpt lat="59.0729570109" lon="30.0263736304"><ele>78.48</ele><time>2026-04-25T16:15:46Z</time></trkpt><trkpt lat="59.0729101561" lon="30.0260292180"><ele>78.48</ele><time>2026-04-25T16:16:01Z</time></trkpt><trkpt lat="59.0728716832" lon="30.0256680418"><ele>78.48</ele><time>2026-04-25T16:16:15Z</time></trkpt><trkpt lat="59.0728292707" lon="30.0252910238"><ele>77.52</ele><time>2026-04-25T16:16:31Z</time></trkpt><trkpt lat="59.0728197992" lon="30.0252543110"><ele>77.52</ele><time>2026-04-25T16:16:33Z</time></trkpt><trkpt lat="59.0728066396" lon="30.0252151676"><ele>77.52</ele><time>2026-04-25T16:16:35Z</time></trkpt><trkpt lat="59.0727281012" lon="30.0247857627"><ele>77.52</ele><time>2026-04-25T16:16:51Z</time></trkpt><trkpt lat="59.0727070626" lon="30.0246440247"><ele>78.97</ele><time>2026-04-25T16:16:56Z</time></trkpt><trkpt lat="59.0726629738" lon="30.0243035518"><ele>78.97</ele><time>2026-04-25T16:17:10Z</time></trkpt><trkpt lat="59.0726374928" lon="30.0240676012"><ele>77.52</ele><time>2026-04-25T16:17:20Z</time></trkpt><trkpt lat="59.0725897159" lon="30.0237495918"><ele>77.52</ele><time>2026-04-25T16:17:35Z</time></trkpt><trkpt lat="59.0726018697" lon="30.0237355940"><ele>77.52</ele><time>2026-04-25T16:17:48Z</time></trkpt><trkpt lat="59.0726043843" lon="30.0237419643"><ele>77.52</ele><time>2026-04-25T16:18:09Z</time></trkpt><trkpt lat="59.0726071503" lon="30.0237412099"><ele>77.52</ele><time>2026-04-25T16:18:34Z</time></trkpt><trkpt lat="59.0726083238" lon="30.0237495080"><ele>77.52</ele><time>2026-04-25T16:18:52Z</time></trkpt><trkpt lat="59.0726241656" lon="30.0237219315"><ele>77.52</ele><time>2026-04-25T16:19:08Z</time></trkpt><trkpt lat="59.0726332180" lon="30.0236976240"><ele>77.52</ele><time>2026-04-25T16:19:11Z</time></trkpt><trkpt lat="59.0727055538" lon="30.0236685388"><ele>78.97</ele><time>2026-04-25T16:19:21Z</time></trkpt><trkpt lat="59.0727506485" lon="30.0236324128"><ele>78.97</ele><time>2026-04-25T16:19:31Z</time></trkpt><trkpt lat="59.0727756266" lon="30.0236242823"><ele>78.97</ele><time>2026-04-25T16:19:34Z</time></trkpt><trkpt lat="59.0728200506" lon="30.0235982984"><ele>78.97</ele><time>2026-04-25T16:19:54Z</time></trkpt><trkpt lat="59.0728467889" lon="30.0235963706"><ele>78.97</ele><time>2026-04-25T16:20:07Z</time></trkpt><trkpt lat="59.0728749521" lon="30.0235881563"><ele>78.97</ele><time>2026-04-25T16:20:10Z</time></trkpt><trkpt lat="59.0729042049" lon="30.0235712249"><ele>78.97</ele><time>2026-04-25T16:20:27Z</time></trkpt><trkpt lat="59.0729265846" lon="30.0235635974"><ele>78.97</ele><time>2026-04-25T16:20:42Z</time></trkpt><trkpt lat="59.0729945619" lon="30.0235249568"><ele>78.97</ele><time>2026-04-25T16:20:50Z</time></trkpt><trkpt lat="59.0730392374" lon="30.0235029124"><ele>78.97</ele><time>2026-04-25T16:20:54Z</time></trkpt><trkpt lat="59.0730620362" lon="30.0234992243"><ele>77.52</ele><time>2026-04-25T16:20:56Z</time></trkpt><trkpt lat="59.0730727650" lon="30.0234983023"><ele>77.52</ele><time>2026-04-25T16:20:57Z</time></trkpt><trkpt lat="59.0731881838" lon="30.0234604999"><ele>77.52</ele><time>2026-04-25T16:21:11Z</time></trkpt><trkpt lat="59.0732159279" lon="30.0234486815"><ele>77.52</ele><time>2026-04-25T16:21:14Z</time></trkpt><trkpt lat="59.0733220428" lon="30.0233696401"><ele>77.52</ele><time>2026-04-25T16:21:28Z</time></trkpt><trkpt lat="59.0733441710" lon="30.0233589113"><ele>77.52</ele><time>2026-04-25T16:21:30Z</time></trkpt><trkpt lat="59.0733806323" lon="30.0233439077"><ele>77.52</ele><time>2026-04-25T16:21:34Z</time></trkpt><trkpt lat="59.0734094661" lon="30.0233320892"><ele>77.52</ele><time>2026-04-25T16:21:52Z</time></trkpt><trkpt lat="59.0734546445" lon="30.0233050156"><ele>77.52</ele><time>2026-04-25T16:22:05Z</time></trkpt><trkpt lat="59.0735333506" lon="30.0232527126"><ele>77.52</ele><time>2026-04-25T16:22:17Z</time></trkpt><trkpt lat="59.0735352784" lon="30.0232341047"><ele>77.52</ele><time>2026-04-25T16:22:33Z</time></trkpt><trkpt lat="59.0735372063" lon="30.0232258067"><ele>77.04</ele><time>2026-04-25T16:23:03Z</time></trkpt><trkpt lat="59.0735417325" lon="30.0232113060"><ele>78.48</ele><time>2026-04-25T16:23:23Z</time></trkpt><trkpt lat="59.0735919401" lon="30.0232067797"><ele>78.48</ele><time>2026-04-25T16:23:28Z</time></trkpt><trkpt lat="59.0736406390" lon="30.0231753476"><ele>78.48</ele><time>2026-04-25T16:23:36Z</time></trkpt><trkpt lat="59.0737538785" lon="30.0231064484"><ele>78.48</ele><time>2026-04-25T16:23:48Z</time></trkpt><trkpt lat="59.0738116298" lon="30.0230698194"><ele>78.48</ele><time>2026-04-25T16:24:02Z</time></trkpt><trkpt lat="59.0738080256" lon="30.0230717473"><ele>78.48</ele><time>2026-04-25T16:24:23Z</time></trkpt><trkpt lat="59.0738268849" lon="30.0230470207"><ele>77.52</ele><time>2026-04-25T16:24:34Z</time></trkpt><trkpt lat="59.0738635976" lon="30.0230124034"><ele>77.52</ele><time>2026-04-25T16:24:39Z</time></trkpt><trkpt lat="59.0739663597" lon="30.0230187736"><ele>77.52</ele><time>2026-04-25T16:24:52Z</time></trkpt><trkpt lat="59.0740666911" lon="30.0229375530"><ele>77.52</ele><time>2026-04-25T16:25:06Z</time></trkpt><trkpt lat="59.0741240233" lon="30.0229065400"><ele>77.52</ele><time>2026-04-25T16:25:19Z</time></trkpt><trkpt lat="59.0741784219" lon="30.0228315219"><ele>77.52</ele><time>2026-04-25T16:25:30Z</time></trkpt><trkpt lat="59.0742533561" lon="30.0227673166"><ele>77.52</ele><time>2026-04-25T16:25:45Z</time></trkpt><trkpt lat="59.0743454732" lon="30.0226808153"><ele>77.52</ele><time>2026-04-25T16:25:57Z</time></trkpt><trkpt lat="59.0744163841" lon="30.0226819888"><ele>77.52</ele><time>2026-04-25T16:26:04Z</time></trkpt><trkpt lat="59.0745416936" lon="30.0226379000"><ele>78.48</ele><time>2026-04-25T16:26:20Z</time></trkpt><trkpt lat="59.0745738801" lon="30.0226024445"><ele>78.48</ele><time>2026-04-25T16:26:24Z</time></trkpt><trkpt lat="59.0746344812" lon="30.0225845072"><ele>77.52</ele><time>2026-04-25T16:26:31Z</time></trkpt><trkpt lat="59.0747520793" lon="30.0225363951"><ele>77.52</ele><time>2026-04-25T16:26:44Z</time></trkpt><trkpt lat="59.0748002753" lon="30.0225464534"><ele>77.52</ele><time>2026-04-25T16:26:55Z</time></trkpt><trkpt lat="59.0748241637" lon="30.0225139316"><ele>77.52</ele><time>2026-04-25T16:26:59Z</time></trkpt><trkpt lat="59.0749115869" lon="30.0224596169"><ele>77.52</ele><time>2026-04-25T16:27:13Z</time></trkpt><trkpt lat="59.0749873593" lon="30.0224007759"><ele>77.52</ele><time>2026-04-25T16:27:25Z</time></trkpt><trkpt lat="59.0750092361" lon="30.0224012788"><ele>77.52</ele><time>2026-04-25T16:27:35Z</time></trkpt><trkpt lat="59.0750143491" lon="30.0223777257"><ele>77.52</ele><time>2026-04-25T16:27:52Z</time></trkpt><trkpt lat="59.0750546660" lon="30.0223682541"><ele>77.52</ele><time>2026-04-25T16:28:20Z</time></trkpt><trkpt lat="59.0750834160" lon="30.0223971717"><ele>77.52</ele><time>2026-04-25T16:28:25Z</time></trkpt><trkpt lat="59.0751910396" lon="30.0223990995"><ele>76.56</ele><time>2026-04-25T16:28:39Z</time></trkpt><trkpt lat="59.0752283391" lon="30.0223881193"><ele>76.56</ele><time>2026-04-25T16:28:44Z</time></trkpt><trkpt lat="59.0752668120" lon="30.0223842636"><ele>76.56</ele><time>2026-04-25T16:28:48Z</time></trkpt><trkpt lat="59.0753863379" lon="30.0223674159"><ele>76.56</ele><time>2026-04-25T16:29:02Z</time></trkpt><trkpt lat="59.0754582547" lon="30.0223514065"><ele>76.56</ele><time>2026-04-25T16:29:10Z</time></trkpt><trkpt lat="59.0755685605" lon="30.0222855248"><ele>77.52</ele><time>2026-04-25T16:29:24Z</time></trkpt><trkpt lat="59.0756485239" lon="30.0222284440"><ele>76.08</ele><time>2026-04-25T16:29:35Z</time></trkpt><trkpt lat="59.0757278167" lon="30.0221608020"><ele>76.08</ele><time>2026-04-25T16:29:47Z</time></trkpt><trkpt lat="59.0757784434" lon="30.0221354887"><ele>76.08</ele><time>2026-04-25T16:29:54Z</time></trkpt><trkpt lat="59.0759004001" lon="30.0220109336"><ele>76.08</ele><time>2026-04-25T16:30:09Z</time></trkpt><trkpt lat="59.0759382024" lon="30.0220040604"><ele>76.08</ele><time>2026-04-25T16:30:14Z</time></trkpt><trkpt lat="59.0760501008" lon="30.0219834410"><ele>76.08</ele><time>2026-04-25T16:30:27Z</time></trkpt><trkpt lat="59.0761197545" lon="30.0219895598"><ele>76.08</ele><time>2026-04-25T16:30:40Z</time></trkpt><trkpt lat="59.0762060881" lon="30.0219752267"><ele>75.60</ele><time>2026-04-25T16:30:53Z</time></trkpt><trkpt lat="59.0762583911" lon="30.0220001210"><ele>75.60</ele><time>2026-04-25T16:31:06Z</time></trkpt><trkpt lat="59.0763308946" lon="30.0219587982"><ele>75.12</ele><time>2026-04-25T16:31:21Z</time></trkpt><trkpt lat="59.0763854608" lon="30.0219271984"><ele>75.12</ele><time>2026-04-25T16:31:36Z</time></trkpt><trkpt lat="59.0764510073" lon="30.0218966044"><ele>75.12</ele><time>2026-04-25T16:31:49Z</time></trkpt><trkpt lat="59.0765465610" lon="30.0218810979"><ele>75.12</ele><time>2026-04-25T16:32:11Z</time></trkpt><trkpt lat="59.0765359160" lon="30.0217274576"><ele>75.12</ele><time>2026-04-25T16:32:24Z</time></trkpt><trkpt lat="59.0765334014" lon="30.0215673633"><ele>75.12</ele><time>2026-04-25T16:32:39Z</time></trkpt><trkpt lat="59.0765301324" lon="30.0215573888"><ele>75.12</ele><time>2026-04-25T16:32:42Z</time></trkpt><trkpt lat="59.0764895640" lon="30.0213424768"><ele>75.12</ele><time>2026-04-25T16:32:53Z</time></trkpt><trkpt lat="59.0764603950" lon="30.0211443286"><ele>75.12</ele><time>2026-04-25T16:33:04Z</time></trkpt><trkpt lat="59.0764505882" lon="30.0210704003"><ele>76.08</ele><time>2026-04-25T16:33:09Z</time></trkpt><trkpt lat="59.0764469840" lon="30.0210071169"><ele>76.08</ele><time>2026-04-25T16:33:24Z</time></trkpt><trkpt lat="59.0764455590" lon="30.0209372118"><ele>76.08</ele><time>2026-04-25T16:33:37Z</time></trkpt><trkpt lat="59.0764450561" lon="30.0208621100"><ele>76.08</ele><time>2026-04-25T16:33:52Z</time></trkpt><trkpt lat="59.0764365066" lon="30.0208169315"><ele>76.08</ele><time>2026-04-25T16:34:16Z</time></trkpt><trkpt lat="59.0764316451" lon="30.0207968149"><ele>75.12</ele><time>2026-04-25T16:34:21Z</time></trkpt><trkpt lat="59.0764266998" lon="30.0207435898"><ele>75.12</ele><time>2026-04-25T16:34:36Z</time></trkpt><trkpt lat="59.0764223412" lon="30.0206146762"><ele>75.12</ele><time>2026-04-25T16:34:50Z</time></trkpt><trkpt lat="59.0764089301" lon="30.0204572640"><ele>75.12</ele><time>2026-04-25T16:35:04Z</time></trkpt><trkpt lat="59.0763799287" lon="30.0203184597"><ele>75.12</ele><time>2026-04-25T16:35:19Z</time></trkpt><trkpt lat="59.0763668530" lon="30.0202349760"><ele>75.12</ele><time>2026-04-25T16:35:33Z</time></trkpt><trkpt lat="59.0763417911" lon="30.0201111753"><ele>75.12</ele><time>2026-04-25T16:35:44Z</time></trkpt><trkpt lat="59.0763358399" lon="30.0200369954"><ele>75.12</ele><time>2026-04-25T16:35:57Z</time></trkpt><trkpt lat="59.0763158072" lon="30.0199288689"><ele>75.12</ele><time>2026-04-25T16:36:11Z</time></trkpt><trkpt lat="59.0763024800" lon="30.0198785774"><ele>76.08</ele><time>2026-04-25T16:36:23Z</time></trkpt><trkpt lat="59.0762902424" lon="30.0198012125"><ele>76.08</ele><time>2026-04-25T16:36:38Z</time></trkpt><trkpt lat="59.0762462374" lon="30.0196351670"><ele>76.08</ele><time>2026-04-25T16:36:51Z</time></trkpt><trkpt lat="59.0762430523" lon="30.0195873063"><ele>76.08</ele><time>2026-04-25T16:37:08Z</time></trkpt><trkpt lat="59.0762260370" lon="30.0194158126"><ele>76.56</ele><time>2026-04-25T16:37:21Z</time></trkpt><trkpt lat="59.0762214269" lon="30.0193982944"><ele>76.56</ele><time>2026-04-25T16:37:40Z</time></trkpt><trkpt lat="59.0762210079" lon="30.0193834584"><ele>76.56</ele><time>2026-04-25T16:38:07Z</time></trkpt><trkpt lat="59.0762184095" lon="30.0193694606"><ele>76.56</ele><time>2026-04-25T16:38:28Z</time></trkpt><trkpt lat="59.0762125421" lon="30.0193673652"><ele>76.56</ele><time>2026-04-25T16:38:50Z</time></trkpt><trkpt lat="59.0762048308" lon="30.0193728134"><ele>75.60</ele><time>2026-04-25T16:39:12Z</time></trkpt><trkpt lat="59.0761603229" lon="30.0193928462"><ele>75.60</ele><time>2026-04-25T16:39:26Z</time></trkpt><trkpt lat="59.0761541203" lon="30.0193913374"><ele>76.56</ele><time>2026-04-25T16:39:47Z</time></trkpt><trkpt lat="59.0761553776" lon="30.0194001384"><ele>75.60</ele><time>2026-04-25T16:40:13Z</time></trkpt><trkpt lat="59.0761408769" lon="30.0194098614"><ele>75.60</ele><time>2026-04-25T16:40:27Z</time></trkpt><trkpt lat="59.0760498494" lon="30.0194868911"><ele>75.60</ele><time>2026-04-25T16:40:41Z</time></trkpt><trkpt lat="59.0760149807" lon="30.0194777548"><ele>75.60</ele><time>2026-04-25T16:40:58Z</time></trkpt><trkpt lat="59.0759905055" lon="30.0194543693"><ele>75.60</ele><time>2026-04-25T16:41:10Z</time></trkpt><trkpt lat="59.0758819599" lon="30.0194899924"><ele>76.56</ele><time>2026-04-25T16:41:23Z</time></trkpt><trkpt lat="59.0757952072" lon="30.0195544492"><ele>76.56</ele><time>2026-04-25T16:41:35Z</time></trkpt><trkpt lat="59.0757887531" lon="30.0195586402"><ele>76.56</ele><time>2026-04-25T16:41:55Z</time></trkpt><trkpt lat="59.0757767670" lon="30.0196665153"><ele>76.56</ele><time>2026-04-25T16:42:17Z</time></trkpt><trkpt lat="59.0757603385" lon="30.0198971014"><ele>76.56</ele><time>2026-04-25T16:42:29Z</time></trkpt><trkpt lat="59.0757708997" lon="30.0201658253"><ele>76.56</ele><time>2026-04-25T16:42:44Z</time></trkpt><trkpt lat="59.0757752582" lon="30.0204124209"><ele>76.56</ele><time>2026-04-25T16:42:58Z</time></trkpt><trkpt lat="59.0757910162" lon="30.0205421727"><ele>76.56</ele><time>2026-04-25T16:43:05Z</time></trkpt><trkpt lat="59.0758051816" lon="30.0207143370"><ele>76.56</ele><time>2026-04-25T16:43:18Z</time></trkpt><trkpt lat="59.0758040082" lon="30.0207512174"><ele>76.56</ele><time>2026-04-25T16:43:34Z</time></trkpt><trkpt lat="59.0758003201" lon="30.0207652152"><ele>76.56</ele><time>2026-04-25T16:43:46Z</time></trkpt><trkpt lat="59.0758148208" lon="30.0208848249"><ele>76.56</ele><time>2026-04-25T16:44:03Z</time></trkpt><trkpt lat="59.0758157428" lon="30.0209813844"><ele>76.56</ele><time>2026-04-25T16:44:08Z</time></trkpt><trkpt lat="59.0758218616" lon="30.0212033372"><ele>76.56</ele><time>2026-04-25T16:44:21Z</time></trkpt><trkpt lat="59.0758606698" lon="30.0213539600"><ele>76.56</ele><time>2026-04-25T16:44:34Z</time></trkpt><trkpt lat="59.0758870728" lon="30.0214508548"><ele>76.56</ele><time>2026-04-25T16:44:41Z</time></trkpt><trkpt lat="59.0759148169" lon="30.0216298923"><ele>76.56</ele><time>2026-04-25T16:44:54Z</time></trkpt><trkpt lat="59.0759164933" lon="30.0217021443"><ele>76.56</ele><time>2026-04-25T16:45:08Z</time></trkpt><trkpt lat="59.0758879948" lon="30.0217192434"><ele>76.56</ele><time>2026-04-25T16:45:22Z</time></trkpt><trkpt lat="59.0758458339" lon="30.0217075087"><ele>76.56</ele><time>2026-04-25T16:45:27Z</time></trkpt><trkpt lat="59.0757992305" lon="30.0217066705"><ele>76.56</ele><time>2026-04-25T16:45:33Z</time></trkpt><trkpt lat="59.0757226199" lon="30.0217270385"><ele>75.12</ele><time>2026-04-25T16:45:42Z</time></trkpt><trkpt lat="59.0755962208" lon="30.0217799284"><ele>75.12</ele><time>2026-04-25T16:45:57Z</time></trkpt><trkpt lat="59.0755312610" lon="30.0217966083"><ele>75.12</ele><time>2026-04-25T16:46:04Z</time></trkpt><trkpt lat="59.0754838195" lon="30.0218228437"><ele>75.12</ele><time>2026-04-25T16:46:18Z</time></trkpt><trkpt lat="59.0754493698" lon="30.0217492506"><ele>76.56</ele><time>2026-04-25T16:46:33Z</time></trkpt><trkpt lat="59.0754017606" lon="30.0214878190"><ele>76.56</ele><time>2026-04-25T16:46:48Z</time></trkpt><trkpt lat="59.0753712505" lon="30.0213857275"><ele>77.04</ele><time>2026-04-25T16:46:55Z</time></trkpt><trkpt lat="59.0753437579" lon="30.0212193467"><ele>77.04</ele><time>2026-04-25T16:47:05Z</time></trkpt><trkpt lat="59.0753274970" lon="30.0211263914"><ele>76.08</ele><time>2026-04-25T16:47:19Z</time></trkpt><trkpt lat="59.0753092244" lon="30.0209926162"><ele>76.08</ele><time>2026-04-25T16:47:31Z</time></trkpt><trkpt lat="59.0752620343" lon="30.0208445918"><ele>76.08</ele><time>2026-04-25T16:47:43Z</time></trkpt><trkpt lat="59.0752455220" lon="30.0206749421"><ele>76.08</ele><time>2026-04-25T16:47:56Z</time></trkpt><trkpt lat="59.0752254054" lon="30.0205038674"><ele>76.08</ele><time>2026-04-25T16:48:09Z</time></trkpt><trkpt lat="59.0751892794" lon="30.0203505624"><ele>77.04</ele><time>2026-04-25T16:48:20Z</time></trkpt><trkpt lat="59.0751838312" lon="30.0203365646"><ele>77.04</ele><time>2026-04-25T16:48:21Z</time></trkpt><trkpt lat="59.0751653910" lon="30.0202089082"><ele>77.04</ele><time>2026-04-25T16:48:31Z</time></trkpt><trkpt lat="59.0751359705" lon="30.0200955849"><ele>76.08</ele><time>2026-04-25T16:48:38Z</time></trkpt><trkpt lat="59.0751155186" lon="30.0199377537"><ele>77.04</ele><time>2026-04-25T16:48:47Z</time></trkpt><trkpt lat="59.0750771295" lon="30.0199108478"><ele>77.04</ele><time>2026-04-25T16:48:59Z</time></trkpt><trkpt lat="59.0750533249" lon="30.0199380890"><ele>77.04</ele><time>2026-04-25T16:49:15Z</time></trkpt><trkpt lat="59.0750175342" lon="30.0199640729"><ele>77.04</ele><time>2026-04-25T16:49:25Z</time></trkpt><trkpt lat="59.0749162808" lon="30.0199826807"><ele>77.04</ele><time>2026-04-25T16:49:38Z</time></trkpt><trkpt lat="59.0748224873" lon="30.0200511608"><ele>77.52</ele><time>2026-04-25T16:49:50Z</time></trkpt><trkpt lat="59.0747954138" lon="30.0200713612"><ele>77.52</ele><time>2026-04-25T16:49:53Z</time></trkpt><trkpt lat="59.0747025423" lon="30.0202529971"><ele>77.52</ele><time>2026-04-25T16:50:07Z</time></trkpt><trkpt lat="59.0746711940" lon="30.0203066412"><ele>77.52</ele><time>2026-04-25T16:50:18Z</time></trkpt><trkpt lat="59.0746745467" lon="30.0203095749"><ele>77.52</ele><time>2026-04-25T16:50:40Z</time></trkpt><trkpt lat="59.0746755525" lon="30.0203146040"><ele>77.52</ele><time>2026-04-25T16:51:14Z</time></trkpt><trkpt lat="59.0747009497" lon="30.0204322021"><ele>77.52</ele><time>2026-04-25T16:51:29Z</time></trkpt><trkpt lat="59.0747006144" lon="30.0204299390"><ele>76.08</ele><time>2026-04-25T16:51:32Z</time></trkpt><trkpt lat="59.0747217368" lon="30.0205924641"><ele>76.08</ele><time>2026-04-25T16:51:46Z</time></trkpt><trkpt lat="59.0747277718" lon="30.0206366368"><ele>76.08</ele><time>2026-04-25T16:51:48Z</time></trkpt><trkpt lat="59.0747535881" lon="30.0208670553"><ele>76.08</ele><time>2026-04-25T16:52:01Z</time></trkpt><trkpt lat="59.0747870319" lon="30.0209890958"><ele>76.08</ele><time>2026-04-25T16:52:08Z</time></trkpt><trkpt lat="59.0748096630" lon="30.0211157463"><ele>76.08</ele><time>2026-04-25T16:52:19Z</time></trkpt><trkpt lat="59.0748235770" lon="30.0212764274"><ele>76.08</ele><time>2026-04-25T16:52:30Z</time></trkpt><trkpt lat="59.0748602059" lon="30.0214828737"><ele>76.08</ele><time>2026-04-25T16:52:44Z</time></trkpt><trkpt lat="59.0748641454" lon="30.0216570497"><ele>75.60</ele><time>2026-04-25T16:52:56Z</time></trkpt><trkpt lat="59.0748821665" lon="30.0218841154"><ele>75.60</ele><time>2026-04-25T16:53:09Z</time></trkpt><trkpt lat="59.0748892911" lon="30.0219324790"><ele>75.60</ele><time>2026-04-25T16:53:24Z</time></trkpt><trkpt lat="59.0748640615" lon="30.0219763163"><ele>77.04</ele><time>2026-04-25T16:53:42Z</time></trkpt><trkpt lat="59.0748214815" lon="30.0219922420"><ele>77.04</ele><time>2026-04-25T16:53:47Z</time></trkpt><trkpt lat="59.0747845173" lon="30.0220400188"><ele>77.04</ele><time>2026-04-25T16:53:52Z</time></trkpt><trkpt lat="59.0747162048" lon="30.0221028831"><ele>77.04</ele><time>2026-04-25T16:54:05Z</time></trkpt><trkpt lat="59.0746643208" lon="30.0220996141"><ele>77.04</ele><time>2026-04-25T16:54:14Z</time></trkpt><trkpt lat="59.0745736286" lon="30.0221831817"><ele>77.04</ele><time>2026-04-25T16:54:25Z</time></trkpt><trkpt lat="59.0745662525" lon="30.0221872889"><ele>77.04</ele><time>2026-04-25T16:54:26Z</time></trkpt><trkpt lat="59.0745090041" lon="30.0222405139"><ele>77.04</ele><time>2026-04-25T16:54:33Z</time></trkpt><trkpt lat="59.0744537674" lon="30.0222847704"><ele>77.04</ele><time>2026-04-25T16:54:40Z</time></trkpt><trkpt lat="59.0743988659" lon="30.0223048870"><ele>76.08</ele><time>2026-04-25T16:54:56Z</time></trkpt><trkpt lat="59.0742894821" lon="30.0223720260"><ele>76.08</ele><time>2026-04-25T16:55:09Z</time></trkpt><trkpt lat="59.0742340777" lon="30.0223514903"><ele>76.08</ele><time>2026-04-25T16:55:22Z</time></trkpt><trkpt lat="59.0742156375" lon="30.0222229958"><ele>76.08</ele><time>2026-04-25T16:55:38Z</time></trkpt><trkpt lat="59.0741770808" lon="30.0221051462"><ele>76.08</ele><time>2026-04-25T16:55:49Z</time></trkpt><trkpt lat="59.0742246900" lon="30.0221001171"><ele>76.08</ele><time>2026-04-25T16:55:57Z</time></trkpt><trkpt lat="59.0742406156" lon="30.0220402703"><ele>76.08</ele><time>2026-04-25T16:56:01Z</time></trkpt><trkpt lat="59.0742455609" lon="30.0218260288"><ele>76.08</ele><time>2026-04-25T16:56:13Z</time></trkpt><trkpt lat="59.0742439684" lon="30.0217756536"><ele>76.08</ele><time>2026-04-25T16:56:16Z</time></trkpt><trkpt lat="59.0742485784" lon="30.0217028148"><ele>76.08</ele><time>2026-04-25T16:56:20Z</time></trkpt><trkpt lat="59.0742434654" lon="30.0216318201"><ele>76.08</ele><time>2026-04-25T16:56:24Z</time></trkpt><trkpt lat="59.0742097702" lon="30.0214774255"><ele>76.08</ele><time>2026-04-25T16:56:36Z</time></trkpt><trkpt lat="59.0742097702" lon="30.0213318318"><ele>76.08</ele><time>2026-04-25T16:56:49Z</time></trkpt><trkpt lat="59.0742168110" lon="30.0211538002"><ele>76.08</ele><time>2026-04-25T16:56:58Z</time></trkpt><trkpt lat="59.0742247738" lon="30.0210586656"><ele>77.52</ele><time>2026-04-25T16:57:03Z</time></trkpt><trkpt lat="59.0742427949" lon="30.0208667200"><ele>77.52</ele><time>2026-04-25T16:57:15Z</time></trkpt><trkpt lat="59.0742471535" lon="30.0206852518"><ele>76.56</ele><time>2026-04-25T16:57:28Z</time></trkpt><trkpt lat="59.0741920006" lon="30.0205167755"><ele>76.56</ele><time>2026-04-25T16:57:43Z</time></trkpt><trkpt lat="59.0741256997" lon="30.0203907955"><ele>77.52</ele><time>2026-04-25T16:58:00Z</time></trkpt><trkpt lat="59.0740920044" lon="30.0203930587"><ele>76.56</ele><time>2026-04-25T16:58:08Z</time></trkpt><trkpt lat="59.0739705507" lon="30.0204198807"><ele>76.56</ele><time>2026-04-25T16:58:21Z</time></trkpt><trkpt lat="59.0739713050" lon="30.0204207189"><ele>78.00</ele><time>2026-04-25T16:58:28Z</time></trkpt><trkpt lat="59.0739238635" lon="30.0204622932"><ele>76.56</ele><time>2026-04-25T16:58:41Z</time></trkpt><trkpt lat="59.0738125518" lon="30.0205362216"><ele>76.56</ele><time>2026-04-25T16:58:52Z</time></trkpt><trkpt lat="59.0736990608" lon="30.0206515566"><ele>76.56</ele><time>2026-04-25T16:59:05Z</time></trkpt><trkpt lat="59.0736679640" lon="30.0206641294"><ele>76.56</ele><time>2026-04-25T16:59:13Z</time></trkpt><trkpt lat="59.0735595021" lon="30.0208056998"><ele>76.56</ele><time>2026-04-25T16:59:27Z</time></trkpt><trkpt lat="59.0735919401" lon="30.0208940450"><ele>76.56</ele><time>2026-04-25T16:59:46Z</time></trkpt><trkpt lat="59.0735876653" lon="30.0210141577"><ele>76.56</ele><time>2026-04-25T16:59:56Z</time></trkpt><trkpt lat="59.0735936165" lon="30.0211330969"><ele>76.56</ele><time>2026-04-25T17:00:09Z</time></trkpt><trkpt lat="59.0735875815" lon="30.0212283153"><ele>76.56</ele><time>2026-04-25T17:00:21Z</time></trkpt><trkpt lat="59.0735905152" lon="30.0212236214"><ele>78.00</ele><time>2026-04-25T17:00:48Z</time></trkpt><trkpt lat="59.0736006573" lon="30.0212893356"><ele>78.00</ele><time>2026-04-25T17:01:00Z</time></trkpt><trkpt lat="59.0736050997" lon="30.0214376952"><ele>78.00</ele><time>2026-04-25T17:01:11Z</time></trkpt><trkpt lat="59.0736100450" lon="30.0215229392"><ele>76.56</ele><time>2026-04-25T17:01:22Z</time></trkpt><trkpt lat="59.0736351907" lon="30.0216948520"><ele>76.56</ele><time>2026-04-25T17:01:33Z</time></trkpt><trkpt lat="59.0736140683" lon="30.0218386855"><ele>76.56</ele><time>2026-04-25T17:01:43Z</time></trkpt><trkpt lat="59.0736397170" lon="30.0220536813"><ele>76.56</ele><time>2026-04-25T17:01:57Z</time></trkpt><trkpt lat="59.0736599173" lon="30.0222595409"><ele>76.56</ele><time>2026-04-25T17:02:12Z</time></trkpt><trkpt lat="59.0736730769" lon="30.0223941542"><ele>76.56</ele><time>2026-04-25T17:02:23Z</time></trkpt><trkpt lat="59.0737066045" lon="30.0224720221"><ele>78.00</ele><time>2026-04-25T17:02:39Z</time></trkpt><trkpt lat="59.0737081971" lon="30.0224739499"><ele>78.00</ele><time>2026-04-25T17:02:42Z</time></trkpt><trkpt lat="59.0736750886" lon="30.0224836729"><ele>78.00</ele><time>2026-04-25T17:02:46Z</time></trkpt><trkpt lat="59.0736594982" lon="30.0224902108"><ele>78.00</ele><time>2026-04-25T17:02:48Z</time></trkpt><trkpt lat="59.0736351907" lon="30.0224756263"><ele>78.00</ele><time>2026-04-25T17:02:51Z</time></trkpt><trkpt lat="59.0735221189" lon="30.0224799849"><ele>76.56</ele><time>2026-04-25T17:03:05Z</time></trkpt><trkpt lat="59.0735144075" lon="30.0224751234"><ele>76.56</ele><time>2026-04-25T17:03:06Z</time></trkpt><trkpt lat="59.0734725818" lon="30.0224644784"><ele>76.56</ele><time>2026-04-25T17:03:11Z</time></trkpt><trkpt lat="59.0734206140" lon="30.0224811584"><ele>76.56</ele><time>2026-04-25T17:03:18Z</time></trkpt><trkpt lat="59.0733385552" lon="30.0226363074"><ele>77.52</ele><time>2026-04-25T17:03:32Z</time></trkpt><trkpt lat="59.0732591785" lon="30.0226783007"><ele>77.52</ele><time>2026-04-25T17:03:45Z</time></trkpt><trkpt lat="59.0732238069" lon="30.0227052905"><ele>77.52</ele><time>2026-04-25T17:03:58Z</time></trkpt><trkpt lat="59.0732088871" lon="30.0226988364"><ele>77.52</ele><time>2026-04-25T17:04:03Z</time></trkpt><trkpt lat="59.0731782094" lon="30.0227270834"><ele>77.52</ele><time>2026-04-25T17:04:13Z</time></trkpt><trkpt lat="59.0731476154" lon="30.0226898678"><ele>77.52</ele><time>2026-04-25T17:04:24Z</time></trkpt><trkpt lat="59.0731477831" lon="30.0226923823"><ele>77.52</ele><time>2026-04-25T17:04:34Z</time></trkpt><trkpt lat="59.0731430892" lon="30.0225288514"><ele>77.52</ele><time>2026-04-25T17:04:45Z</time></trkpt><trkpt lat="59.0731250681" lon="30.0224254187"><ele>77.52</ele><time>2026-04-25T17:04:53Z</time></trkpt><trkpt lat="59.0730920434" lon="30.0222364906"><ele>77.52</ele><time>2026-04-25T17:05:06Z</time></trkpt><trkpt lat="59.0731038619" lon="30.0220067427"><ele>77.52</ele><time>2026-04-25T17:05:20Z</time></trkpt><trkpt lat="59.0730982460" lon="30.0219764840"><ele>77.52</ele><time>2026-04-25T17:05:22Z</time></trkpt><trkpt lat="59.0730875172" lon="30.0219248515"><ele>77.52</ele><time>2026-04-25T17:05:25Z</time></trkpt><trkpt lat="59.0730453562" lon="30.0217342470"><ele>78.48</ele><time>2026-04-25T17:05:38Z</time></trkpt><trkpt lat="59.0730436798" lon="30.0217005517"><ele>78.48</ele><time>2026-04-25T17:05:40Z</time></trkpt><trkpt lat="59.0730300173" lon="30.0214749109"><ele>78.48</ele><time>2026-04-25T17:05:53Z</time></trkpt><trkpt lat="59.0730228927" lon="30.0214088615"><ele>78.48</ele><time>2026-04-25T17:05:57Z</time></trkpt><trkpt lat="59.0730081405" lon="30.0213496014"><ele>78.48</ele><time>2026-04-25T17:06:01Z</time></trkpt><trkpt lat="59.0729850903" lon="30.0212499406"><ele>78.48</ele><time>2026-04-25T17:06:08Z</time></trkpt><trkpt lat="59.0729342960" lon="30.0210947916"><ele>78.48</ele><time>2026-04-25T17:06:20Z</time></trkpt><trkpt lat="59.0729306079" lon="30.0210817996"><ele>78.48</ele><time>2026-04-25T17:06:21Z</time></trkpt><trkpt lat="59.0729268361" lon="30.0210054405"><ele>78.48</ele><time>2026-04-25T17:06:25Z</time></trkpt><trkpt lat="59.0729243215" lon="30.0209647883"><ele>78.48</ele><time>2026-04-25T17:06:27Z</time></trkpt><trkpt lat="59.0728917997" lon="30.0208748505"><ele>78.48</ele><time>2026-04-25T17:06:39Z</time></trkpt><trkpt lat="59.0728473756" lon="30.0209122337"><ele>78.48</ele><time>2026-04-25T17:06:45Z</time></trkpt><trkpt lat="59.0728207212" lon="30.0209114794"><ele>78.48</ele><time>2026-04-25T17:06:48Z</time></trkpt><trkpt lat="59.0727876965" lon="30.0209016725"><ele>78.48</ele><time>2026-04-25T17:06:51Z</time></trkpt><trkpt lat="59.0727378242" lon="30.0209265668"><ele>78.48</ele><time>2026-04-25T17:06:57Z</time></trkpt><trkpt lat="59.0726882871" lon="30.0209118146"><ele>78.48</ele><time>2026-04-25T17:07:02Z</time></trkpt><trkpt lat="59.0726662427" lon="30.0209234655"><ele>78.48</ele><time>2026-04-25T17:07:04Z</time></trkpt><trkpt lat="59.0726250876" lon="30.0209155027"><ele>78.48</ele><time>2026-04-25T17:07:20Z</time></trkpt><trkpt lat="59.0726305358" lon="30.0208907761"><ele>77.04</ele><time>2026-04-25T17:07:42Z</time></trkpt><trkpt lat="59.0726307873" lon="30.0208930392"><ele>77.04</ele><time>2026-04-25T17:08:14Z</time></trkpt><trkpt lat="59.0726234112" lon="30.0208781194"><ele>77.04</ele><time>2026-04-25T17:08:40Z</time></trkpt><trkpt lat="59.0726229921" lon="30.0208810531"><ele>77.04</ele><time>2026-04-25T17:09:12Z</time></trkpt><trkpt lat="59.0726249199" lon="30.0208873395"><ele>77.04</ele><time>2026-04-25T17:09:38Z</time></trkpt><trkpt lat="59.0726282727" lon="30.0208730903"><ele>78.00</ele><time>2026-04-25T17:09:50Z</time></trkpt><trkpt lat="59.0726216510" lon="30.0207157619"><ele>78.00</ele><time>2026-04-25T17:09:58Z</time></trkpt><trkpt lat="59.0725751314" lon="30.0203966629"><ele>78.00</ele><time>2026-04-25T17:10:14Z</time></trkpt><trkpt lat="59.0725245886" lon="30.0200570282"><ele>78.00</ele><time>2026-04-25T17:10:31Z</time></trkpt><trkpt lat="59.0724950004" lon="30.0197747257"><ele>78.00</ele><time>2026-04-25T17:10:46Z</time></trkpt><trkpt lat="59.0724168811" lon="30.0194814429"><ele>78.48</ele><time>2026-04-25T17:11:03Z</time></trkpt><trkpt lat="59.0723229200" lon="30.0191815384"><ele>78.48</ele><time>2026-04-25T17:11:21Z</time></trkpt><trkpt lat="59.0722401906" lon="30.0188273191"><ele>78.48</ele><time>2026-04-25T17:11:40Z</time></trkpt><trkpt lat="59.0721924137" lon="30.0185012631"><ele>78.97</ele><time>2026-04-25T17:11:55Z</time></trkpt><trkpt lat="59.0721590538" lon="30.0182038732"><ele>78.97</ele><time>2026-04-25T17:12:13Z</time></trkpt><trkpt lat="59.0721568745" lon="30.0181022007"><ele>78.97</ele><time>2026-04-25T17:12:25Z</time></trkpt><trkpt lat="59.0721417870" lon="30.0179054774"><ele>78.97</ele><time>2026-04-25T17:12:35Z</time></trkpt><trkpt lat="59.0721385181" lon="30.0174624100"><ele>78.97</ele><time>2026-04-25T17:12:54Z</time></trkpt><trkpt lat="59.0721348301" lon="30.0172104500"><ele>79.45</ele><time>2026-04-25T17:13:09Z</time></trkpt><trkpt lat="59.0721351653" lon="30.0171983801"><ele>79.45</ele><time>2026-04-25T17:13:36Z</time></trkpt><trkpt lat="59.0721441340" lon="30.0172062591"><ele>79.45</ele><time>2026-04-25T17:13:46Z</time></trkpt><trkpt lat="59.0721728001" lon="30.0172305666"><ele>78.00</ele><time>2026-04-25T17:13:49Z</time></trkpt><trkpt lat="59.0722840279" lon="30.0171936024"><ele>78.00</ele><time>2026-04-25T17:14:02Z</time></trkpt><trkpt lat="59.0723210759" lon="30.0171808619"><ele>78.00</ele><time>2026-04-25T17:14:16Z</time></trkpt><trkpt lat="59.0723375045" lon="30.0171036646"><ele>78.00</ele><time>2026-04-25T17:14:31Z</time></trkpt><trkpt lat="59.0723344870" lon="30.0170179177"><ele>78.00</ele><time>2026-04-25T17:14:36Z</time></trkpt><trkpt lat="59.0723375883" lon="30.0169278122"><ele>78.00</ele><time>2026-04-25T17:14:41Z</time></trkpt><trkpt lat="59.0723336488" lon="30.0168702286"><ele>78.00</ele><time>2026-04-25T17:14:57Z</time></trkpt><trkpt lat="59.0723857842" lon="30.0168794487"><ele>78.00</ele><time>2026-04-25T17:15:16Z</time></trkpt><trkpt lat="59.0724256821" lon="30.0168612599"><ele>78.00</ele><time>2026-04-25T17:15:24Z</time></trkpt><trkpt lat="59.0724658314" lon="30.0168661214"><ele>78.00</ele><time>2026-04-25T17:15:28Z</time></trkpt><trkpt lat="59.0725688450" lon="30.0168472622"><ele>78.00</ele><time>2026-04-25T17:15:42Z</time></trkpt><trkpt lat="59.0726278536" lon="30.0168457534"><ele>78.00</ele><time>2026-04-25T17:15:55Z</time></trkpt><trkpt lat="59.0727150254" lon="30.0168085378"><ele>77.52</ele><time>2026-04-25T17:16:06Z</time></trkpt><trkpt lat="59.0727810748" lon="30.0167981442"><ele>77.04</ele><time>2026-04-25T17:16:14Z</time></trkpt><trkpt lat="59.0729208011" lon="30.0167664606"><ele>77.04</ele><time>2026-04-25T17:16:30Z</time></trkpt><trkpt lat="59.0730440151" lon="30.0167448353"><ele>77.04</ele><time>2026-04-25T17:16:44Z</time></trkpt><trkpt lat="59.0731591824" lon="30.0167224556"><ele>77.04</ele><time>2026-04-25T17:16:59Z</time></trkpt><trkpt lat="59.0732760262" lon="30.0166792888"><ele>77.04</ele><time>2026-04-25T17:17:12Z</time></trkpt><trkpt lat="59.0732986573" lon="30.0166645367"><ele>77.04</ele><time>2026-04-25T17:17:15Z</time></trkpt><trkpt lat="59.0733813867" lon="30.0165953860"><ele>77.04</ele><time>2026-04-25T17:17:28Z</time></trkpt><trkpt lat="59.0734650381" lon="30.0166032650"><ele>77.04</ele><time>2026-04-25T17:17:41Z</time></trkpt><trkpt lat="59.0735442471" lon="30.0165328570"><ele>77.04</ele><time>2026-04-25T17:17:55Z</time></trkpt><trkpt lat="59.0736522898" lon="30.0165077951"><ele>77.04</ele><time>2026-04-25T17:18:04Z</time></trkpt><trkpt lat="59.0737476759" lon="30.0164779555"><ele>77.04</ele><time>2026-04-25T17:18:13Z</time></trkpt><trkpt lat="59.0738391224" lon="30.0164344534"><ele>77.04</ele><time>2026-04-25T17:18:25Z</time></trkpt><trkpt lat="59.0738811158" lon="30.0163986627"><ele>77.04</ele><time>2026-04-25T17:18:30Z</time></trkpt><trkpt lat="59.0739501826" lon="30.0163648836"><ele>77.04</ele><time>2026-04-25T17:18:45Z</time></trkpt><trkpt lat="59.0740567166" lon="30.0162854232"><ele>76.56</ele><time>2026-04-25T17:18:58Z</time></trkpt><trkpt lat="59.0740887355" lon="30.0162631273"><ele>76.56</ele><time>2026-04-25T17:19:03Z</time></trkpt><trkpt lat="59.0741691180" lon="30.0162570924"><ele>76.56</ele><time>2026-04-25T17:19:15Z</time></trkpt><trkpt lat="59.0741775837" lon="30.0162565894"><ele>76.56</ele><time>2026-04-25T17:19:16Z</time></trkpt><trkpt lat="59.0742623247" lon="30.0162669830"><ele>76.56</ele><time>2026-04-25T17:19:26Z</time></trkpt><trkpt lat="59.0743350796" lon="30.0162757840"><ele>77.52</ele><time>2026-04-25T17:19:38Z</time></trkpt><trkpt lat="59.0743989497" lon="30.0162526499"><ele>77.52</ele><time>2026-04-25T17:19:51Z</time></trkpt><trkpt lat="59.0744435415" lon="30.0162503868"><ele>77.52</ele><time>2026-04-25T17:19:56Z</time></trkpt><trkpt lat="59.0744615626" lon="30.0162328687"><ele>77.52</ele><time>2026-04-25T17:19:58Z</time></trkpt><trkpt lat="59.0745553561" lon="30.0161925517"><ele>76.56</ele><time>2026-04-25T17:20:08Z</time></trkpt><trkpt lat="59.0746374149" lon="30.0161987543"><ele>76.08</ele><time>2026-04-25T17:20:19Z</time></trkpt><trkpt lat="59.0747119300" lon="30.0161722675"><ele>76.08</ele><time>2026-04-25T17:20:30Z</time></trkpt><trkpt lat="59.0747385006" lon="30.0161467027"><ele>76.08</ele><time>2026-04-25T17:20:42Z</time></trkpt><trkpt lat="59.0747368243" lon="30.0161435176"><ele>76.08</ele><time>2026-04-25T17:21:06Z</time></trkpt><trkpt lat="59.0747379139" lon="30.0161467027"><ele>76.08</ele><time>2026-04-25T17:21:24Z</time></trkpt><trkpt lat="59.0747264307" lon="30.0161390752"><ele>76.08</ele><time>2026-04-25T17:21:39Z</time></trkpt><trkpt lat="59.0747230779" lon="30.0161439367"><ele>76.08</ele><time>2026-04-25T17:21:52Z</time></trkpt><trkpt lat="59.0747212339" lon="30.0161355548"><ele>76.08</ele><time>2026-04-25T17:22:18Z</time></trkpt><trkpt lat="59.0747193061" lon="30.0161376502"><ele>76.08</ele><time>2026-04-25T17:22:45Z</time></trkpt><trkpt lat="59.0747154504" lon="30.0161333755"><ele>76.08</ele><time>2026-04-25T17:23:04Z</time></trkpt><trkpt lat="59.0747196414" lon="30.0161213893"><ele>75.12</ele><time>2026-04-25T17:23:14Z</time></trkpt><trkpt lat="59.0747212339" lon="30.0161266699"><ele>75.12</ele><time>2026-04-25T17:23:46Z</time></trkpt><trkpt lat="59.0747275203" lon="30.0161311962"><ele>75.12</ele><time>2026-04-25T17:24:17Z</time></trkpt><trkpt lat="59.0747290291" lon="30.0161285978"><ele>75.12</ele><time>2026-04-25T17:24:48Z</time></trkpt><trkpt lat="59.0747285262" lon="30.0161317829"><ele>76.56</ele><time>2026-04-25T17:24:51Z</time></trkpt><trkpt lat="59.0747276042" lon="30.0161300227"><ele>76.56</ele><time>2026-04-25T17:24:53Z</time></trkpt><trkpt lat="59.0747286938" lon="30.0161291845"><ele>77.52</ele><time>2026-04-25T17:25:02Z</time></trkpt><trkpt lat="59.0747280233" lon="30.0161230657"><ele>76.08</ele><time>2026-04-25T17:25:21Z</time></trkpt><trkpt lat="59.0747264307" lon="30.0161231495"><ele>77.52</ele><time>2026-04-25T17:25:43Z</time></trkpt><trkpt lat="59.0747197252" lon="30.0161326211"><ele>76.08</ele><time>2026-04-25T17:26:09Z</time></trkpt><trkpt lat="59.0747286938" lon="30.0161436852"><ele>76.08</ele><time>2026-04-25T17:26:35Z</time></trkpt><trkpt lat="59.0747359022" lon="30.0161438528"><ele>77.52</ele><time>2026-04-25T17:27:04Z</time></trkpt><trkpt lat="59.0747357346" lon="30.0161402486"><ele>77.52</ele><time>2026-04-25T17:27:29Z</time></trkpt><trkpt lat="59.0747393388" lon="30.0161388237"><ele>77.52</ele><time>2026-04-25T17:27:56Z</time></trkpt><trkpt lat="59.0747495648" lon="30.0161443558"><ele>77.52</ele><time>2026-04-25T17:28:23Z</time></trkpt><trkpt lat="59.0748140216" lon="30.0161293522"><ele>77.52</ele><time>2026-04-25T17:28:44Z</time></trkpt><trkpt lat="59.0749425162" lon="30.0161612872"><ele>77.52</ele><time>2026-04-25T17:28:59Z</time></trkpt><trkpt lat="59.0750504751" lon="30.0161224790"><ele>77.52</ele><time>2026-04-25T17:29:11Z</time></trkpt><trkpt lat="59.0750575159" lon="30.0161267538"><ele>77.52</ele><time>2026-04-25T17:29:12Z</time></trkpt><trkpt lat="59.0750895347" lon="30.0161280949"><ele>77.52</ele><time>2026-04-25T17:29:15Z</time></trkpt><trkpt lat="59.0752285905" lon="30.0161367282"><ele>77.52</ele><time>2026-04-25T17:29:28Z</time></trkpt><trkpt lat="59.0752377268" lon="30.0161451939"><ele>77.52</ele><time>2026-04-25T17:29:29Z</time></trkpt><trkpt lat="59.0753595997" lon="30.0161526538"><ele>77.52</ele><time>2026-04-25T17:29:44Z</time></trkpt><trkpt lat="59.0753968153" lon="30.0161690824"><ele>76.08</ele><time>2026-04-25T17:29:53Z</time></trkpt><trkpt lat="59.0754923690" lon="30.0161617901"><ele>76.08</ele><time>2026-04-25T17:30:05Z</time></trkpt><trkpt lat="59.0755227115" lon="30.0161206350"><ele>76.08</ele><time>2026-04-25T17:30:10Z</time></trkpt><trkpt lat="59.0756242163" lon="30.0160272606"><ele>76.08</ele><time>2026-04-25T17:30:24Z</time></trkpt><trkpt lat="59.0756613482" lon="30.0158196408"><ele>76.08</ele><time>2026-04-25T17:30:38Z</time></trkpt><trkpt lat="59.0757461730" lon="30.0156393461"><ele>76.08</ele><time>2026-04-25T17:30:53Z</time></trkpt><trkpt lat="59.0757854003" lon="30.0155746378"><ele>76.08</ele><time>2026-04-25T17:31:07Z</time></trkpt><trkpt lat="59.0758089535" lon="30.0155603047"><ele>76.08</ele><time>2026-04-25T17:31:25Z</time></trkpt><trkpt lat="59.0758578200" lon="30.0155209098"><ele>75.60</ele><time>2026-04-25T17:31:38Z</time></trkpt><trkpt lat="59.0759075247" lon="30.0154967699"><ele>75.60</ele><time>2026-04-25T17:31:53Z</time></trkpt><trkpt lat="59.0759450756" lon="30.0155063253"><ele>75.60</ele><time>2026-04-25T17:32:00Z</time></trkpt><trkpt lat="59.0759680420" lon="30.0154874660"><ele>75.60</ele><time>2026-04-25T17:32:03Z</time></trkpt><trkpt lat="59.0760097839" lon="30.0154864602"><ele>75.60</ele><time>2026-04-25T17:32:16Z</time></trkpt><trkpt lat="59.0760217700" lon="30.0154738873"><ele>77.04</ele><time>2026-04-25T17:32:29Z</time></trkpt><trkpt lat="59.0760394558" lon="30.0154585484"><ele>77.04</ele><time>2026-04-25T17:32:56Z</time></trkpt><trkpt lat="59.0761279687" lon="30.0154222548"><ele>77.04</ele><time>2026-04-25T17:33:09Z</time></trkpt><trkpt lat="59.0762153082" lon="30.0153762382"><ele>77.04</ele><time>2026-04-25T17:33:24Z</time></trkpt><trkpt lat="59.0762828663" lon="30.0153146312"><ele>77.04</ele><time>2026-04-25T17:33:35Z</time></trkpt><trkpt lat="59.0763236023" lon="30.0152932573"><ele>77.04</ele><time>2026-04-25T17:33:46Z</time></trkpt><trkpt lat="59.0763272066" lon="30.0152983703"><ele>77.04</ele><time>2026-04-25T17:33:47Z</time></trkpt><trkpt lat="59.0763747320" lon="30.0152953528"><ele>77.04</ele><time>2026-04-25T17:34:01Z</time></trkpt><trkpt lat="59.0763943456" lon="30.0152672734"><ele>77.04</ele><time>2026-04-25T17:34:13Z</time></trkpt><trkpt lat="59.0764561202" lon="30.0152751524"><ele>77.04</ele><time>2026-04-25T17:34:23Z</time></trkpt><trkpt lat="59.0765044000" lon="30.0152186584"><ele>77.04</ele><time>2026-04-25T17:34:31Z</time></trkpt><trkpt lat="59.0765729640" lon="30.0152066723"><ele>77.04</ele><time>2026-04-25T17:34:41Z</time></trkpt><trkpt lat="59.0765948407" lon="30.0151966140"><ele>77.04</ele><time>2026-04-25T17:34:47Z</time></trkpt><trkpt lat="59.0766430367" lon="30.0151707977"><ele>77.04</ele><time>2026-04-25T17:34:58Z</time></trkpt><trkpt lat="59.0766891371" lon="30.0151428860"><ele>77.04</ele><time>2026-04-25T17:35:11Z</time></trkpt><trkpt lat="59.0767367464" lon="30.0151193328"><ele>76.08</ele><time>2026-04-25T17:35:24Z</time></trkpt><trkpt lat="59.0768039692" lon="30.0150951929"><ele>76.08</ele><time>2026-04-25T17:35:38Z</time></trkpt><trkpt lat="59.0768841002" lon="30.0150098652"><ele>76.08</ele><time>2026-04-25T17:35:52Z</time></trkpt><trkpt lat="59.0769590344" lon="30.0150060933"><ele>76.08</ele><time>2026-04-25T17:36:04Z</time></trkpt><trkpt lat="59.0769828390" lon="30.0150308199"><ele>77.04</ele><time>2026-04-25T17:36:22Z</time></trkpt><trkpt lat="59.0770163666" lon="30.0150727294"><ele>77.04</ele><time>2026-04-25T17:36:33Z</time></trkpt><trkpt lat="59.0770742018" lon="30.0150298979"><ele>77.04</ele><time>2026-04-25T17:36:45Z</time></trkpt><trkpt lat="59.0771203861" lon="30.0149435643"><ele>77.04</ele><time>2026-04-25T17:37:01Z</time></trkpt><trkpt lat="59.0771453641" lon="30.0149383675"><ele>77.52</ele><time>2026-04-25T17:37:17Z</time></trkpt><trkpt lat="59.0771379042" lon="30.0149317458"><ele>76.56</ele><time>2026-04-25T17:37:46Z</time></trkpt><trkpt lat="59.0771404188" lon="30.0149290636"><ele>76.56</ele><time>2026-04-25T17:38:12Z</time></trkpt><trkpt lat="59.0771365631" lon="30.0149310753"><ele>76.56</ele><time>2026-04-25T17:38:39Z</time></trkpt><trkpt lat="59.0771427657" lon="30.0149176642"><ele>76.56</ele><time>2026-04-25T17:39:02Z</time></trkpt><trkpt lat="59.0771653131" lon="30.0148453284"><ele>76.56</ele><time>2026-04-25T17:39:18Z</time></trkpt><trkpt lat="59.0771838371" lon="30.0147380400"><ele>76.56</ele><time>2026-04-25T17:39:32Z</time></trkpt><trkpt lat="59.0771921352" lon="30.0147133972"><ele>76.56</ele><time>2026-04-25T17:39:47Z</time></trkpt><trkpt lat="59.0771934763" lon="30.0146517064"><ele>76.56</ele><time>2026-04-25T17:40:03Z</time></trkpt><trkpt lat="59.0771814901" lon="30.0146200228"><ele>76.56</ele><time>2026-04-25T17:40:23Z</time></trkpt><trkpt lat="59.0771837533" lon="30.0145430770"><ele>76.56</ele><time>2026-04-25T17:40:37Z</time></trkpt><trkpt lat="59.0771980025" lon="30.0144201983"><ele>76.56</ele><time>2026-04-25T17:40:49Z</time></trkpt><trkpt lat="59.0771660674" lon="30.0141842477"><ele>76.56</ele><time>2026-04-25T17:41:02Z</time></trkpt><trkpt lat="59.0771696717" lon="30.0140837487"><ele>76.56</ele><time>2026-04-25T17:41:13Z</time></trkpt><trkpt lat="59.0772029478" lon="30.0138951559"><ele>76.56</ele><time>2026-04-25T17:41:27Z</time></trkpt><trkpt lat="59.0772236511" lon="30.0137300324"><ele>76.56</ele><time>2026-04-25T17:41:40Z</time></trkpt><trkpt lat="59.0772298537" lon="30.0137312058"><ele>76.56</ele><time>2026-04-25T17:42:04Z</time></trkpt><trkpt lat="59.0771914646" lon="30.0136590376"><ele>76.56</ele><time>2026-04-25T17:42:17Z</time></trkpt><trkpt lat="59.0771468729" lon="30.0135679264"><ele>76.56</ele><time>2026-04-25T17:42:31Z</time></trkpt><trkpt lat="59.0771257505" lon="30.0133780763"><ele>76.56</ele><time>2026-04-25T17:42:44Z</time></trkpt><trkpt lat="59.0771318693" lon="30.0132368412"><ele>76.56</ele><time>2026-04-25T17:42:58Z</time></trkpt><trkpt lat="59.0771219786" lon="30.0131769944"><ele>76.56</ele><time>2026-04-25T17:43:13Z</time></trkpt><trkpt lat="59.0770638082" lon="30.0130064227"><ele>77.52</ele><time>2026-04-25T17:43:28Z</time></trkpt><trkpt lat="59.0770403389" lon="30.0128360186"><ele>78.00</ele><time>2026-04-25T17:43:41Z</time></trkpt><trkpt lat="59.0770087391" lon="30.0126798637"><ele>78.00</ele><time>2026-04-25T17:43:53Z</time></trkpt><trkpt lat="59.0770136006" lon="30.0125327613"><ele>78.00</ele><time>2026-04-25T17:44:06Z</time></trkpt><trkpt lat="59.0769920591" lon="30.0123360381"><ele>78.00</ele><time>2026-04-25T17:44:20Z</time></trkpt><trkpt lat="59.0769169573" lon="30.0122651272"><ele>78.00</ele><time>2026-04-25T17:44:33Z</time></trkpt><trkpt lat="59.0769066475" lon="30.0121674780"><ele>78.00</ele><time>2026-04-25T17:44:45Z</time></trkpt><trkpt lat="59.0769027080" lon="30.0120964833"><ele>78.00</ele><time>2026-04-25T17:45:00Z</time></trkpt><trkpt lat="59.0769022889" lon="30.0119347963"><ele>78.00</ele><time>2026-04-25T17:45:13Z</time></trkpt><trkpt lat="59.0768461302" lon="30.0118798111"><ele>77.04</ele><time>2026-04-25T17:45:25Z</time></trkpt><trkpt lat="59.0767697711" lon="30.0117765460"><ele>77.04</ele><time>2026-04-25T17:45:38Z</time></trkpt><trkpt lat="59.0767479781" lon="30.0116277672"><ele>78.48</ele><time>2026-04-25T17:45:54Z</time></trkpt><trkpt lat="59.0767579526" lon="30.0114637334"><ele>78.48</ele><time>2026-04-25T17:46:07Z</time></trkpt><trkpt lat="59.0767481457" lon="30.0114286970"><ele>78.48</ele><time>2026-04-25T17:46:09Z</time></trkpt><trkpt lat="59.0767199825" lon="30.0112128630"><ele>78.48</ele><time>2026-04-25T17:46:23Z</time></trkpt><trkpt lat="59.0766934957" lon="30.0109920837"><ele>78.48</ele><time>2026-04-25T17:46:35Z</time></trkpt><trkpt lat="59.0766810905" lon="30.0107891578"><ele>78.48</ele><time>2026-04-25T17:46:48Z</time></trkpt><trkpt lat="59.0766615607" lon="30.0105615053"><ele>78.48</ele><time>2026-04-25T17:47:02Z</time></trkpt><trkpt lat="59.0766586270" lon="30.0103680510"><ele>78.97</ele><time>2026-04-25T17:47:20Z</time></trkpt><trkpt lat="59.0766541008" lon="30.0102965534"><ele>78.97</ele><time>2026-04-25T17:47:35Z</time></trkpt><trkpt lat="59.0766771510" lon="30.0100688171"><ele>78.97</ele><time>2026-04-25T17:47:51Z</time></trkpt><trkpt lat="59.0766826831" lon="30.0098404102"><ele>78.97</ele><time>2026-04-25T17:48:05Z</time></trkpt><trkpt lat="59.0766808391" lon="30.0097279251"><ele>78.97</ele><time>2026-04-25T17:48:18Z</time></trkpt><trkpt lat="59.0766824316" lon="30.0096990075"><ele>79.45</ele><time>2026-04-25T17:48:44Z</time></trkpt><trkpt lat="59.0766782407" lon="30.0096824113"><ele>78.00</ele><time>2026-04-25T17:49:02Z</time></trkpt><trkpt lat="59.0766173042" lon="30.0097651407"><ele>78.00</ele><time>2026-04-25T17:49:20Z</time></trkpt><trkpt lat="59.0764761530" lon="30.0098130852"><ele>78.00</ele><time>2026-04-25T17:49:35Z</time></trkpt><trkpt lat="59.0763660986" lon="30.0098426733"><ele>78.00</ele><time>2026-04-25T17:49:47Z</time></trkpt><trkpt lat="59.0763040725" lon="30.0098549947"><ele>79.45</ele><time>2026-04-25T17:50:02Z</time></trkpt><trkpt lat="59.0762080997" lon="30.0098957308"><ele>79.45</ele><time>2026-04-25T17:50:16Z</time></trkpt><trkpt lat="59.0761741530" lon="30.0099236425"><ele>79.45</ele><time>2026-04-25T17:50:43Z</time></trkpt><trkpt lat="59.0761573054" lon="30.0099366345"><ele>79.45</ele><time>2026-04-25T17:51:08Z</time></trkpt><trkpt lat="59.0761469956" lon="30.0099426694"><ele>79.45</ele><time>2026-04-25T17:51:30Z</time></trkpt><trkpt lat="59.0761376079" lon="30.0099332817"><ele>79.45</ele><time>2026-04-25T17:51:52Z</time></trkpt><trkpt lat="59.0761356801" lon="30.0099274144"><ele>79.45</ele><time>2026-04-25T17:52:17Z</time></trkpt><trkpt lat="59.0761311539" lon="30.0099231396"><ele>78.97</ele><time>2026-04-25T17:52:41Z</time></trkpt><trkpt lat="59.0761196706" lon="30.0099033583"><ele>79.93</ele><time>2026-04-25T17:52:56Z</time></trkpt><trkpt lat="59.0761264600" lon="30.0098996703"><ele>79.93</ele><time>2026-04-25T17:53:22Z</time></trkpt><trkpt lat="59.0761307348" lon="30.0098991673"><ele>79.93</ele><time>2026-04-25T17:53:47Z</time></trkpt><trkpt lat="59.0761282202" lon="30.0099083036"><ele>79.93</ele><time>2026-04-25T17:54:12Z</time></trkpt><trkpt lat="59.0761335008" lon="30.0099178590"><ele>80.41</ele><time>2026-04-25T17:54:39Z</time></trkpt><trkpt lat="59.0761280525" lon="30.0099141710"><ele>80.41</ele><time>2026-04-25T17:54:59Z</time></trkpt><trkpt lat="59.0761313215" lon="30.0099005923"><ele>80.89</ele><time>2026-04-25T17:55:17Z</time></trkpt><trkpt lat="59.0761255380" lon="30.0099050347"><ele>79.93</ele><time>2026-04-25T17:55:48Z</time></trkpt><trkpt lat="59.0761259571" lon="30.0099122431"><ele>79.93</ele><time>2026-04-25T17:55:57Z</time></trkpt><trkpt lat="59.0761210117" lon="30.0099521410"><ele>79.93</ele><time>2026-04-25T17:56:00Z</time></trkpt><trkpt lat="59.0761140548" lon="30.0101398118"><ele>78.97</ele><time>2026-04-25T17:56:13Z</time></trkpt><trkpt lat="59.0761090256" lon="30.0103710685"><ele>80.41</ele><time>2026-04-25T17:56:25Z</time></trkpt><trkpt lat="59.0761350933" lon="30.0106387865"><ele>80.41</ele><time>2026-04-25T17:56:39Z</time></trkpt><trkpt lat="59.0761347581" lon="30.0107150618"><ele>80.41</ele><time>2026-04-25T17:56:43Z</time></trkpt><trkpt lat="59.0761692077" lon="30.0109677762"><ele>80.41</ele><time>2026-04-25T17:56:56Z</time></trkpt><trkpt lat="59.0761936828" lon="30.0112036429"><ele>80.41</ele><time>2026-04-25T17:57:08Z</time></trkpt><trkpt lat="59.0762049146" lon="30.0112569518"><ele>80.41</ele><time>2026-04-25T17:57:20Z</time></trkpt><trkpt lat="59.0762260370" lon="30.0113475602"><ele>80.41</ele><time>2026-04-25T17:57:27Z</time></trkpt><trkpt lat="59.0762235224" lon="30.0115142763"><ele>80.41</ele><time>2026-04-25T17:57:39Z</time></trkpt><trkpt lat="59.0762392804" lon="30.0116638094"><ele>78.97</ele><time>2026-04-25T17:57:48Z</time></trkpt><trkpt lat="59.0762392804" lon="30.0119194575"><ele>78.97</ele><time>2026-04-25T17:58:03Z</time></trkpt><trkpt lat="59.0762480814" lon="30.0120008457"><ele>78.97</ele><time>2026-04-25T17:58:07Z</time></trkpt><trkpt lat="59.0762565471" lon="30.0121036079"><ele>78.97</ele><time>2026-04-25T17:58:18Z</time></trkpt><trkpt lat="59.0763027314" lon="30.0122943800"><ele>78.97</ele><time>2026-04-25T17:58:31Z</time></trkpt><trkpt lat="59.0763400309" lon="30.0124473497"><ele>78.97</ele><time>2026-04-25T17:58:41Z</time></trkpt><trkpt lat="59.0763626620" lon="30.0126272254"><ele>78.97</ele><time>2026-04-25T17:58:53Z</time></trkpt><trkpt lat="59.0763702895" lon="30.0126962084"><ele>78.97</ele><time>2026-04-25T17:58:57Z</time></trkpt><trkpt lat="59.0764189884" lon="30.0129038282"><ele>78.97</ele><time>2026-04-25T17:59:11Z</time></trkpt><trkpt lat="59.0764441341" lon="30.0130915828"><ele>78.97</ele><time>2026-04-25T17:59:23Z</time></trkpt><trkpt lat="59.0764744766" lon="30.0133479852"><ele>78.97</ele><time>2026-04-25T17:59:38Z</time></trkpt><trkpt lat="59.0764674358" lon="30.0134904776"><ele>78.97</ele><time>2026-04-25T17:59:49Z</time></trkpt><trkpt lat="59.0764599759" lon="30.0135782361"><ele>78.97</ele><time>2026-04-25T17:59:56Z</time></trkpt><trkpt lat="59.0764543600" lon="30.0137594528"><ele>78.48</ele><time>2026-04-25T18:00:08Z</time></trkpt><trkpt lat="59.0764671005" lon="30.0139481295"><ele>78.48</ele><time>2026-04-25T18:00:20Z</time></trkpt><trkpt lat="59.0764695313" lon="30.0139499735"><ele>78.48</ele><time>2026-04-25T18:00:26Z</time></trkpt><trkpt lat="59.0764490794" lon="30.0140466169"><ele>78.48</ele><time>2026-04-25T18:00:40Z</time></trkpt><trkpt lat="59.0764489956" lon="30.0140860118"><ele>78.48</ele><time>2026-04-25T18:00:44Z</time></trkpt><trkpt lat="59.0764348302" lon="30.0142281689"><ele>78.48</ele><time>2026-04-25T18:00:53Z</time></trkpt><trkpt lat="59.0763993748" lon="30.0142471120"><ele>78.48</ele><time>2026-04-25T18:01:06Z</time></trkpt><trkpt lat="59.0763650928" lon="30.0142235588"><ele>79.45</ele><time>2026-04-25T18:01:22Z</time></trkpt><trkpt lat="59.0763653442" lon="30.0142239779"><ele>79.45</ele><time>2026-04-25T18:01:23Z</time></trkpt><trkpt lat="59.0763573814" lon="30.0142214634"><ele>78.48</ele><time>2026-04-25T18:01:59Z</time></trkpt><trkpt lat="59.0763148852" lon="30.0141928811"><ele>79.45</ele><time>2026-04-25T18:02:10Z</time></trkpt><trkpt lat="59.0762743168" lon="30.0141713396"><ele>79.45</ele><time>2026-04-25T18:02:21Z</time></trkpt><trkpt lat="59.0762313176" lon="30.0141494628"><ele>79.45</ele><time>2026-04-25T18:02:29Z</time></trkpt><trkpt lat="59.0762294736" lon="30.0141415838"><ele>79.45</ele><time>2026-04-25T18:02:56Z</time></trkpt><trkpt lat="59.0762313176" lon="30.0141447689"><ele>78.97</ele><time>2026-04-25T18:03:27Z</time></trkpt><trkpt lat="59.0762269590" lon="30.0141461939"><ele>79.45</ele><time>2026-04-25T18:03:55Z</time></trkpt><trkpt lat="59.0762260370" lon="30.0141485408"><ele>78.48</ele><time>2026-04-25T18:04:05Z</time></trkpt><trkpt lat="59.0762255341" lon="30.0141508039"><ele>79.45</ele><time>2026-04-25T18:04:34Z</time></trkpt><trkpt lat="59.0762251150" lon="30.0141540729"><ele>79.93</ele><time>2026-04-25T18:05:01Z</time></trkpt><trkpt lat="59.0762251988" lon="30.0141446851"><ele>79.93</ele><time>2026-04-25T18:05:25Z</time></trkpt><trkpt lat="59.0762261208" lon="30.0141468644"><ele>78.97</ele><time>2026-04-25T18:05:55Z</time></trkpt><trkpt lat="59.0761765838" lon="30.0141712558"><ele>78.97</ele><time>2026-04-25T18:06:07Z</time></trkpt><trkpt lat="59.0761545394" lon="30.0141888577"><ele>78.97</ele><time>2026-04-25T18:06:11Z</time></trkpt><trkpt lat="59.0761020686" lon="30.0142486207"><ele>78.97</ele><time>2026-04-25T18:06:18Z</time></trkpt><trkpt lat="59.0760664456" lon="30.0142534822"><ele>78.97</ele><time>2026-04-25T18:06:26Z</time></trkpt><trkpt lat="59.0760050900" lon="30.0142637920"><ele>78.97</ele><time>2026-04-25T18:06:37Z</time></trkpt><trkpt lat="59.0759564750" lon="30.0142709166"><ele>80.41</ele><time>2026-04-25T18:06:47Z</time></trkpt><trkpt lat="59.0759479254" lon="30.0142662227"><ele>80.41</ele><time>2026-04-25T18:06:48Z</time></trkpt><trkpt lat="59.0759417228" lon="30.0142626185"><ele>78.97</ele><time>2026-04-25T18:06:50Z</time></trkpt><trkpt lat="59.0759443212" lon="30.0142689049"><ele>79.45</ele><time>2026-04-25T18:06:56Z</time></trkpt><trkpt lat="59.0759228636" lon="30.0142540690"><ele>80.41</ele><time>2026-04-25T18:07:08Z</time></trkpt><trkpt lat="59.0759207681" lon="30.0142590143"><ele>80.41</ele><time>2026-04-25T18:07:13Z</time></trkpt><trkpt lat="59.0758941136" lon="30.0143372174"><ele>80.41</ele><time>2026-04-25T18:07:24Z</time></trkpt><trkpt lat="59.0758768469" lon="30.0143295061"><ele>79.45</ele><time>2026-04-25T18:07:36Z</time></trkpt><trkpt lat="59.0758807026" lon="30.0143200345"><ele>79.45</ele><time>2026-04-25T18:07:50Z</time></trkpt><trkpt lat="59.0758785233" lon="30.0143157598"><ele>80.41</ele><time>2026-04-25T18:08:00Z</time></trkpt><trkpt lat="59.0758840553" lon="30.0143093895"><ele>80.41</ele><time>2026-04-25T18:08:19Z</time></trkpt><trkpt lat="59.0758854803" lon="30.0142129976"><ele>80.41</ele><time>2026-04-25T18:08:33Z</time></trkpt><trkpt lat="59.0758850612" lon="30.0141549110"><ele>80.41</ele><time>2026-04-25T18:08:37Z</time></trkpt><trkpt lat="59.0758737456" lon="30.0140223932"><ele>80.41</ele><time>2026-04-25T18:08:49Z</time></trkpt><trkpt lat="59.0758804511" lon="30.0138742849"><ele>79.45</ele><time>2026-04-25T18:09:02Z</time></trkpt><trkpt lat="59.0758850612" lon="30.0138633884"><ele>79.45</ele><time>2026-04-25T18:09:12Z</time></trkpt><trkpt lat="59.0758575685" lon="30.0137123466"><ele>79.45</ele><time>2026-04-25T18:09:24Z</time></trkpt><trkpt lat="59.0758282319" lon="30.0135613885"><ele>79.45</ele><time>2026-04-25T18:09:37Z</time></trkpt><trkpt lat="59.0758296568" lon="30.0135382544"><ele>79.45</ele><time>2026-04-25T18:09:39Z</time></trkpt><trkpt lat="59.0758187603" lon="30.0134998653"><ele>79.45</ele><time>2026-04-25T18:09:41Z</time></trkpt><trkpt lat="59.0758227836" lon="30.0134274457"><ele>80.89</ele><time>2026-04-25T18:09:46Z</time></trkpt><trkpt lat="59.0757854003" lon="30.0133194868"><ele>80.89</ele><time>2026-04-25T18:09:59Z</time></trkpt><trkpt lat="59.0757736657" lon="30.0132117793"><ele>79.45</ele><time>2026-04-25T18:10:12Z</time></trkpt><trkpt lat="59.0757702291" lon="30.0130619947"><ele>79.45</ele><time>2026-04-25T18:10:25Z</time></trkpt><trkpt lat="59.0757265594" lon="30.0129303150"><ele>79.45</ele><time>2026-04-25T18:10:38Z</time></trkpt><trkpt lat="59.0757208597" lon="30.0128465798"><ele>79.45</ele><time>2026-04-25T18:10:48Z</time></trkpt><trkpt lat="59.0757244639" lon="30.0126688834"><ele>79.45</ele><time>2026-04-25T18:11:02Z</time></trkpt><trkpt lat="59.0757182613" lon="30.0124627724"><ele>79.45</ele><time>2026-04-25T18:11:15Z</time></trkpt><trkpt lat="59.0757417306" lon="30.0124048535"><ele>79.45</ele><time>2026-04-25T18:11:24Z</time></trkpt><trkpt lat="59.0757291578" lon="30.0123169273"><ele>79.45</ele><time>2026-04-25T18:11:32Z</time></trkpt><trkpt lat="59.0756816324" lon="30.0121624488"><ele>80.89</ele><time>2026-04-25T18:11:45Z</time></trkpt><trkpt lat="59.0756647009" lon="30.0120177772"><ele>80.89</ele><time>2026-04-25T18:11:57Z</time></trkpt><trkpt lat="59.0756605100" lon="30.0118845049"><ele>80.89</ele><time>2026-04-25T18:12:10Z</time></trkpt><trkpt lat="59.0756487753" lon="30.0117612071"><ele>80.89</ele><time>2026-04-25T18:12:20Z</time></trkpt><trkpt lat="59.0756295808" lon="30.0115752127"><ele>80.89</ele><time>2026-04-25T18:12:33Z</time></trkpt><trkpt lat="59.0755849890" lon="30.0114707742"><ele>80.89</ele><time>2026-04-25T18:12:43Z</time></trkpt><trkpt lat="59.0755515452" lon="30.0113593787"><ele>80.89</ele><time>2026-04-25T18:12:54Z</time></trkpt><trkpt lat="59.0755385533" lon="30.0113029685"><ele>80.89</ele><time>2026-04-25T18:12:59Z</time></trkpt><trkpt lat="59.0755210351" lon="30.0112401042"><ele>80.89</ele><time>2026-04-25T18:13:12Z</time></trkpt><trkpt lat="59.0755179338" lon="30.0112033915"><ele>79.93</ele><time>2026-04-25T18:13:19Z</time></trkpt><trkpt lat="59.0755473543" lon="30.0110415369"><ele>79.93</ele><time>2026-04-25T18:13:31Z</time></trkpt><trkpt lat="59.0755318478" lon="30.0109355897"><ele>81.37</ele><time>2026-04-25T18:13:43Z</time></trkpt><trkpt lat="59.0755315125" lon="30.0108672772"><ele>81.37</ele><time>2026-04-25T18:13:55Z</time></trkpt><trkpt lat="59.0755306743" lon="30.0107464939"><ele>81.37</ele><time>2026-04-25T18:14:08Z</time></trkpt><trkpt lat="59.0755227115" lon="30.0105913449"><ele>81.37</ele><time>2026-04-25T18:14:20Z</time></trkpt><trkpt lat="59.0755218733" lon="30.0104848109"><ele>81.37</ele><time>2026-04-25T18:14:30Z</time></trkpt><trkpt lat="59.0755165089" lon="30.0103703141"><ele>81.37</ele><time>2026-04-25T18:14:41Z</time></trkpt><trkpt lat="59.0755025949" lon="30.0102873333"><ele>79.93</ele><time>2026-04-25T18:14:53Z</time></trkpt><trkpt lat="59.0755118988" lon="30.0102638640"><ele>79.93</ele><time>2026-04-25T18:15:25Z</time></trkpt><trkpt lat="59.0755124018" lon="30.0102041010"><ele>79.93</ele><time>2026-04-25T18:15:53Z</time></trkpt><trkpt lat="59.0755197778" lon="30.0101933721"><ele>80.89</ele><time>2026-04-25T18:16:21Z</time></trkpt><trkpt lat="59.0755115636" lon="30.0101766922"><ele>84.25</ele><time>2026-04-25T18:16:42Z</time></trkpt><trkpt lat="59.0755099710" lon="30.0101771951"><ele>80.89</ele><time>2026-04-25T18:16:44Z</time></trkpt><trkpt lat="59.0754959732" lon="30.0101802964"><ele>82.33</ele><time>2026-04-25T18:17:10Z</time></trkpt><trkpt lat="59.0754932910" lon="30.0101825595"><ele>81.85</ele><time>2026-04-25T18:17:16Z</time></trkpt><trkpt lat="59.0754880942" lon="30.0101794582"><ele>80.89</ele><time>2026-04-25T18:17:42Z</time></trkpt><trkpt lat="59.0754870046" lon="30.0101921149"><ele>80.41</ele><time>2026-04-25T18:18:11Z</time></trkpt><trkpt lat="59.0754889324" lon="30.0101921149"><ele>81.85</ele><time>2026-04-25T18:18:31Z</time></trkpt><trkpt lat="59.0754885133" lon="30.0101892650"><ele>80.41</ele><time>2026-04-25T18:18:35Z</time></trkpt><trkpt lat="59.0754856635" lon="30.0101787038"><ele>80.41</ele><time>2026-04-25T18:18:46Z</time></trkpt><trkpt lat="59.0754787903" lon="30.0101796258"><ele>80.41</ele><time>2026-04-25T18:19:06Z</time></trkpt><trkpt lat="59.0754801314" lon="30.0101624429"><ele>80.41</ele><time>2026-04-25T18:19:22Z</time></trkpt><trkpt lat="59.0754772816" lon="30.0101576652"><ele>81.85</ele><time>2026-04-25T18:19:50Z</time></trkpt><trkpt lat="59.0754758567" lon="30.0101518817"><ele>81.37</ele><time>2026-04-25T18:20:17Z</time></trkpt><trkpt lat="59.0754749347" lon="30.0101452600"><ele>81.37</ele><time>2026-04-25T18:20:47Z</time></trkpt><trkpt lat="59.0754704922" lon="30.0101652090"><ele>81.37</ele><time>2026-04-25T18:21:14Z</time></trkpt><trkpt lat="59.0754746832" lon="30.0101582520"><ele>81.37</ele><time>2026-04-25T18:21:36Z</time></trkpt><trkpt lat="59.0754787903" lon="30.0101558212"><ele>81.37</ele><time>2026-04-25T18:22:00Z</time></trkpt><trkpt lat="59.0754681453" lon="30.0101523846"><ele>81.37</ele><time>2026-04-25T18:22:20Z</time></trkpt><trkpt lat="59.0754683968" lon="30.0101405662"><ele>81.37</ele><time>2026-04-25T18:22:41Z</time></trkpt><trkpt lat="59.0754717495" lon="30.0101340283"><ele>81.37</ele><time>2026-04-25T18:23:00Z</time></trkpt><trkpt lat="59.0754699893" lon="30.0101476070"><ele>81.85</ele><time>2026-04-25T18:23:25Z</time></trkpt><trkpt lat="59.0754491184" lon="30.0101513788"><ele>81.85</ele><time>2026-04-25T18:23:38Z</time></trkpt><trkpt lat="59.0754415747" lon="30.0101600122"><ele>82.81</ele><time>2026-04-25T18:23:52Z</time></trkpt><trkpt lat="59.0754264873" lon="30.0101526361"><ele>81.37</ele><time>2026-04-25T18:23:54Z</time></trkpt><trkpt lat="59.0753404051" lon="30.0101809669"><ele>81.37</ele><time>2026-04-25T18:24:09Z</time></trkpt><trkpt lat="59.0752757806" lon="30.0101845711"><ele>81.37</ele><time>2026-04-25T18:24:20Z</time></trkpt><trkpt lat="59.0752187837" lon="30.0101797935"><ele>81.37</ele><time>2026-04-25T18:24:32Z</time></trkpt><trkpt lat="59.0751461964" lon="30.0102066994"><ele>81.37</ele><time>2026-04-25T18:24:44Z</time></trkpt><trkpt lat="59.0751228109" lon="30.0102074537"><ele>82.81</ele><time>2026-04-25T18:25:01Z</time></trkpt><trkpt lat="59.0750275087" lon="30.0102912728"><ele>82.81</ele><time>2026-04-25T18:25:14Z</time></trkpt><trkpt lat="59.0749307815" lon="30.0103442464"><ele>81.37</ele><time>2026-04-25T18:25:29Z</time></trkpt><trkpt lat="59.0749094915" lon="30.0103494432"><ele>81.37</ele><time>2026-04-25T18:25:51Z</time></trkpt><trkpt lat="59.0749156103" lon="30.0103706494"><ele>81.37</ele><time>2026-04-25T18:26:08Z</time></trkpt><trkpt lat="59.0749424323" lon="30.0105561409"><ele>81.37</ele><time>2026-04-25T18:26:19Z</time></trkpt><trkpt lat="59.0750164445" lon="30.0107862242"><ele>81.37</ele><time>2026-04-25T18:26:33Z</time></trkpt><trkpt lat="59.0750292689" lon="30.0108196680"><ele>82.81</ele><time>2026-04-25T18:26:38Z</time></trkpt><trkpt lat="59.0750328731" lon="30.0108263735"><ele>81.37</ele><time>2026-04-25T18:26:51Z</time></trkpt><trkpt lat="59.0750280116" lon="30.0109148026"><ele>83.29</ele><time>2026-04-25T18:27:15Z</time></trkpt><trkpt lat="59.0750406682" lon="30.0110596418"><ele>81.85</ele><time>2026-04-25T18:27:24Z</time></trkpt><trkpt lat="59.0750433505" lon="30.0111465622"><ele>81.85</ele><time>2026-04-25T18:27:29Z</time></trkpt><trkpt lat="59.0750662331" lon="30.0113853626"><ele>81.85</ele><time>2026-04-25T18:27:43Z</time></trkpt><trkpt lat="59.0750689991" lon="30.0115899649"><ele>81.85</ele><time>2026-04-25T18:27:56Z</time></trkpt><trkpt lat="59.0750638023" lon="30.0118032005"><ele>81.85</ele><time>2026-04-25T18:28:09Z</time></trkpt><trkpt lat="59.0750506427" lon="30.0119912066"><ele>81.37</ele><time>2026-04-25T18:28:22Z</time></trkpt><trkpt lat="59.0750607010" lon="30.0121604372"><ele>80.89</ele><time>2026-04-25T18:28:36Z</time></trkpt><trkpt lat="59.0750608686" lon="30.0121604372"><ele>82.33</ele><time>2026-04-25T18:28:40Z</time></trkpt><trkpt lat="59.0750602819" lon="30.0122991577"><ele>82.33</ele><time>2026-04-25T18:28:52Z</time></trkpt><trkpt lat="59.0750788897" lon="30.0124943722"><ele>82.33</ele><time>2026-04-25T18:29:04Z</time></trkpt><trkpt lat="59.0750925522" lon="30.0126354396"><ele>81.37</ele><time>2026-04-25T18:29:15Z</time></trkpt><trkpt lat="59.0751166083" lon="30.0127870683"><ele>80.89</ele><time>2026-04-25T18:29:28Z</time></trkpt><trkpt lat="59.0751358029" lon="30.0128937699"><ele>82.33</ele><time>2026-04-25T18:29:40Z</time></trkpt><trkpt lat="59.0751360543" lon="30.0128954463"><ele>82.33</ele><time>2026-04-25T18:29:41Z</time></trkpt><trkpt lat="59.0751394909" lon="30.0129351765"><ele>82.33</ele><time>2026-04-25T18:29:44Z</time></trkpt><trkpt lat="59.0751653071" lon="30.0130856317"><ele>81.37</ele><time>2026-04-25T18:29:58Z</time></trkpt><trkpt lat="59.0752112400" lon="30.0131680258"><ele>81.37</ele><time>2026-04-25T18:30:09Z</time></trkpt><trkpt lat="59.0752401575" lon="30.0132676028"><ele>81.37</ele><time>2026-04-25T18:30:19Z</time></trkpt><trkpt lat="59.0752366371" lon="30.0133527629"><ele>81.37</ele><time>2026-04-25T18:30:30Z</time></trkpt><trkpt lat="59.0752673149" lon="30.0135376677"><ele>81.37</ele><time>2026-04-25T18:30:42Z</time></trkpt><trkpt lat="59.0752778761" lon="30.0137297809"><ele>81.37</ele><time>2026-04-25T18:30:54Z</time></trkpt><trkpt lat="59.0752917901" lon="30.0138764642"><ele>81.37</ele><time>2026-04-25T18:31:07Z</time></trkpt><trkpt lat="59.0753110684" lon="30.0139074773"><ele>81.37</ele><time>2026-04-25T18:31:10Z</time></trkpt><trkpt lat="59.0753561631" lon="30.0140074734"><ele>81.37</ele><time>2026-04-25T18:31:22Z</time></trkpt><trkpt lat="59.0753673948" lon="30.0140991714"><ele>81.37</ele><time>2026-04-25T18:31:36Z</time></trkpt><trkpt lat="59.0754000004" lon="30.0142504647"><ele>81.37</ele><time>2026-04-25T18:31:48Z</time></trkpt><trkpt lat="59.0754001681" lon="30.0143246446"><ele>81.37</ele><time>2026-04-25T18:31:55Z</time></trkpt><trkpt lat="59.0753978211" lon="30.0145171769"><ele>81.37</ele><time>2026-04-25T18:32:08Z</time></trkpt><trkpt lat="59.0753821470" lon="30.0146651175"><ele>80.89</ele><time>2026-04-25T18:32:20Z</time></trkpt><trkpt lat="59.0753763635" lon="30.0148374494"><ele>80.89</ele><time>2026-04-25T18:32:33Z</time></trkpt><trkpt lat="59.0753739327" lon="30.0148076098"><ele>81.85</ele><time>2026-04-25T18:33:11Z</time></trkpt><trkpt lat="59.0753706638" lon="30.0147974677"><ele>80.89</ele><time>2026-04-25T18:33:45Z</time></trkpt><trkpt lat="59.0753674787" lon="30.0147973839"><ele>80.89</ele><time>2026-04-25T18:34:04Z</time></trkpt><trkpt lat="59.0753622819" lon="30.0148019940"><ele>80.89</ele><time>2026-04-25T18:34:31Z</time></trkpt><trkpt lat="59.0753336996" lon="30.0147810392"><ele>80.89</ele><time>2026-04-25T18:34:48Z</time></trkpt><trkpt lat="59.0753196180" lon="30.0147848111"><ele>82.33</ele><time>2026-04-25T18:34:54Z</time></trkpt><trkpt lat="59.0752946399" lon="30.0147776026"><ele>82.33</ele><time>2026-04-25T18:34:57Z</time></trkpt><trkpt lat="59.0752580110" lon="30.0147698075"><ele>80.89</ele><time>2026-04-25T18:35:01Z</time></trkpt><trkpt lat="59.0752524789" lon="30.0147856493"><ele>80.89</ele><time>2026-04-25T18:35:08Z</time></trkpt><trkpt lat="59.0752200410" lon="30.0148216076"><ele>80.89</ele><time>2026-04-25T18:35:12Z</time></trkpt><trkpt lat="59.0751185361" lon="30.0149049237"><ele>80.89</ele><time>2026-04-25T18:35:26Z</time></trkpt><trkpt lat="59.0750139300" lon="30.0149179157"><ele>80.89</ele><time>2026-04-25T18:35:39Z</time></trkpt><trkpt lat="59.0749304462" lon="30.0150199234"><ele>80.89</ele><time>2026-04-25T18:35:53Z</time></trkpt><trkpt lat="59.0748587810" lon="30.0151272118"><ele>80.89</ele><time>2026-04-25T18:36:07Z</time></trkpt><trkpt lat="59.0747858584" lon="30.0151660200"><ele>80.89</ele><time>2026-04-25T18:36:20Z</time></trkpt><trkpt lat="59.0748017840" lon="30.0151236914"><ele>81.85</ele><time>2026-04-25T18:36:36Z</time></trkpt><trkpt lat="59.0748213138" lon="30.0149471685"><ele>82.33</ele><time>2026-04-25T18:36:51Z</time></trkpt><trkpt lat="59.0747989342" lon="30.0148173328"><ele>81.37</ele><time>2026-04-25T18:37:03Z</time></trkpt><trkpt lat="59.0747738723" lon="30.0147532951"><ele>81.37</ele><time>2026-04-25T18:37:14Z</time></trkpt><trkpt lat="59.0747318789" lon="30.0145745929"><ele>81.37</ele><time>2026-04-25T18:37:28Z</time></trkpt><trkpt lat="59.0747149475" lon="30.0144152530"><ele>82.33</ele><time>2026-04-25T18:37:39Z</time></trkpt><trkpt lat="59.0746790729" lon="30.0142492075"><ele>82.33</ele><time>2026-04-25T18:37:54Z</time></trkpt><trkpt lat="59.0746623930" lon="30.0140627939"><ele>82.33</ele><time>2026-04-25T18:38:06Z</time></trkpt><trkpt lat="59.0746582858" lon="30.0140259136"><ele>82.33</ele><time>2026-04-25T18:38:08Z</time></trkpt><trkpt lat="59.0746303741" lon="30.0138389133"><ele>82.33</ele><time>2026-04-25T18:38:19Z</time></trkpt><trkpt lat="59.0745929070" lon="30.0136782322"><ele>82.33</ele><time>2026-04-25T18:38:31Z</time></trkpt><trkpt lat="59.0746017918" lon="30.0135473069"><ele>82.33</ele><time>2026-04-25T18:38:44Z</time></trkpt><trkpt lat="59.0746289492" lon="30.0134487357"><ele>82.33</ele><time>2026-04-25T18:38:58Z</time></trkpt><trkpt lat="59.0745944995" lon="30.0133323949"><ele>82.33</ele><time>2026-04-25T18:39:08Z</time></trkpt><trkpt lat="59.0745850280" lon="30.0132261124"><ele>82.81</ele><time>2026-04-25T18:39:22Z</time></trkpt><trkpt lat="59.0745742992" lon="30.0130427163"><ele>82.81</ele><time>2026-04-25T18:39:33Z</time></trkpt><trkpt lat="59.0745603014" lon="30.0128941890"><ele>82.81</ele><time>2026-04-25T18:39:45Z</time></trkpt><trkpt lat="59.0745593794" lon="30.0127742440"><ele>82.81</ele><time>2026-04-25T18:39:55Z</time></trkpt><trkpt lat="59.0745214932" lon="30.0126612559"><ele>81.85</ele><time>2026-04-25T18:40:07Z</time></trkpt><trkpt lat="59.0744913183" lon="30.0125361141"><ele>81.85</ele><time>2026-04-25T18:40:18Z</time></trkpt><trkpt lat="59.0744703636" lon="30.0124134030"><ele>81.85</ele><time>2026-04-25T18:40:29Z</time></trkpt><trkpt lat="59.0744422842" lon="30.0122955535"><ele>81.85</ele><time>2026-04-25T18:40:40Z</time></trkpt><trkpt lat="59.0744298790" lon="30.0121552404"><ele>81.85</ele><time>2026-04-25T18:40:52Z</time></trkpt><trkpt lat="59.0744434576" lon="30.0120381452"><ele>81.85</ele><time>2026-04-25T18:41:05Z</time></trkpt><trkpt lat="59.0744613111" lon="30.0119689107"><ele>81.85</ele><time>2026-04-25T18:41:10Z</time></trkpt><trkpt lat="59.0744779911" lon="30.0117897894"><ele>81.85</ele><time>2026-04-25T18:41:20Z</time></trkpt><trkpt lat="59.0744959284" lon="30.0115891267"><ele>81.85</ele><time>2026-04-25T18:41:35Z</time></trkpt><trkpt lat="59.0744878817" lon="30.0114245061"><ele>81.85</ele><time>2026-04-25T18:41:47Z</time></trkpt><trkpt lat="59.0744844452" lon="30.0113206543"><ele>81.85</ele><time>2026-04-25T18:41:54Z</time></trkpt><trkpt lat="59.0744613949" lon="30.0111876335"><ele>81.85</ele><time>2026-04-25T18:42:05Z</time></trkpt><trkpt lat="59.0744508337" lon="30.0110437162"><ele>81.85</ele><time>2026-04-25T18:42:17Z</time></trkpt><trkpt lat="59.0744117741" lon="30.0109104440"><ele>81.85</ele><time>2026-04-25T18:42:30Z</time></trkpt><trkpt lat="59.0744075831" lon="30.0108730607"><ele>81.85</ele><time>2026-04-25T18:42:41Z</time></trkpt><trkpt lat="59.0743888915" lon="30.0108611584"><ele>81.85</ele><time>2026-04-25T18:42:53Z</time></trkpt><trkpt lat="59.0743972734" lon="30.0108810235"><ele>81.37</ele><time>2026-04-25T18:43:08Z</time></trkpt><trkpt lat="59.0744027216" lon="30.0108938478"><ele>81.37</ele><time>2026-04-25T18:43:31Z</time></trkpt><trkpt lat="59.0744023025" lon="30.0109092705"><ele>81.85</ele><time>2026-04-25T18:43:51Z</time></trkpt><trkpt lat="59.0744055714" lon="30.0109121203"><ele>80.89</ele><time>2026-04-25T18:44:14Z</time></trkpt><trkpt lat="59.0743986983" lon="30.0109134614"><ele>82.33</ele><time>2026-04-25T18:44:24Z</time></trkpt><trkpt lat="59.0743975248" lon="30.0109205022"><ele>80.89</ele><time>2026-04-25T18:44:33Z</time></trkpt><trkpt lat="59.0743978601" lon="30.0109295547"><ele>82.33</ele><time>2026-04-25T18:45:02Z</time></trkpt><trkpt lat="59.0744002070" lon="30.0109295547"><ele>80.89</ele><time>2026-04-25T18:45:11Z</time></trkpt><trkpt lat="59.0744017996" lon="30.0109315664"><ele>80.89</ele><time>2026-04-25T18:45:35Z</time></trkpt><trkpt lat="59.0743998718" lon="30.0109281298"><ele>80.89</ele><time>2026-04-25T18:45:55Z</time></trkpt><trkpt lat="59.0743985306" lon="30.0109250285"><ele>82.81</ele><time>2026-04-25T18:46:04Z</time></trkpt><trkpt lat="59.0743940882" lon="30.0109215919"><ele>81.37</ele><time>2026-04-25T18:46:17Z</time></trkpt><trkpt lat="59.0743804257" lon="30.0109195802"><ele>82.81</ele><time>2026-04-25T18:46:31Z</time></trkpt><trkpt lat="59.0743451379" lon="30.0109447259"><ele>82.33</ele><time>2026-04-25T18:46:51Z</time></trkpt><trkpt lat="59.0742608998" lon="30.0109247770"><ele>82.33</ele><time>2026-04-25T18:47:03Z</time></trkpt><trkpt lat="59.0742113627" lon="30.0109269563"><ele>82.33</ele><time>2026-04-25T18:47:15Z</time></trkpt><trkpt lat="59.0741738118" lon="30.0109540299"><ele>82.33</ele><time>2026-04-25T18:47:21Z</time></trkpt><trkpt lat="59.0741328243" lon="30.0109787565"><ele>82.33</ele><time>2026-04-25T18:47:26Z</time></trkpt><trkpt lat="59.0741003864" lon="30.0110052433"><ele>82.81</ele><time>2026-04-25T18:47:30Z</time></trkpt><trkpt lat="59.0740549564" lon="30.0110303052"><ele>82.81</ele><time>2026-04-25T18:47:37Z</time></trkpt><trkpt lat="59.0740354266" lon="30.0110477395"><ele>82.81</ele><time>2026-04-25T18:47:40Z</time></trkpt><trkpt lat="59.0739398729" lon="30.0111117773"><ele>82.81</ele><time>2026-04-25T18:47:53Z</time></trkpt><trkpt lat="59.0739102848" lon="30.0111231767"><ele>82.81</ele><time>2026-04-25T18:47:57Z</time></trkpt><trkpt lat="59.0738029126" lon="30.0111580454"><ele>83.29</ele><time>2026-04-25T18:48:11Z</time></trkpt><trkpt lat="59.0737712290" lon="30.0112390984"><ele>83.29</ele><time>2026-04-25T18:48:23Z</time></trkpt><trkpt lat="59.0737766773" lon="30.0112527609"><ele>83.29</ele><time>2026-04-25T18:48:24Z</time></trkpt><trkpt lat="59.0738026612" lon="30.0114599615"><ele>82.33</ele><time>2026-04-25T18:48:36Z</time></trkpt><trkpt lat="59.0738302376" lon="30.0116312038"><ele>82.81</ele><time>2026-04-25T18:48:49Z</time></trkpt><trkpt lat="59.0738304891" lon="30.0116475485"><ele>82.81</ele><time>2026-04-25T18:48:55Z</time></trkpt><trkpt lat="59.0738500189" lon="30.0117639732"><ele>82.81</ele><time>2026-04-25T18:49:03Z</time></trkpt><trkpt lat="59.0738952812" lon="30.0119477045"><ele>82.81</ele><time>2026-04-25T18:49:16Z</time></trkpt><trkpt lat="59.0738936048" lon="30.0119918771"><ele>82.81</ele><time>2026-04-25T18:49:19Z</time></trkpt><trkpt lat="59.0739028249" lon="30.0122278277"><ele>81.37</ele><time>2026-04-25T18:49:35Z</time></trkpt><trkpt lat="59.0739376936" lon="30.0123616867"><ele>81.37</ele><time>2026-04-25T18:49:46Z</time></trkpt><trkpt lat="59.0739487577" lon="30.0124792010"><ele>81.37</ele><time>2026-04-25T18:49:56Z</time></trkpt><trkpt lat="59.0739668626" lon="30.0126678776"><ele>81.37</ele><time>2026-04-25T18:50:09Z</time></trkpt><trkpt lat="59.0739945229" lon="30.0128231104"><ele>82.81</ele><time>2026-04-25T18:50:20Z</time></trkpt><trkpt lat="59.0739980433" lon="30.0129824504"><ele>82.81</ele><time>2026-04-25T18:50:31Z</time></trkpt><trkpt lat="59.0740102809" lon="30.0131408684"><ele>82.81</ele><time>2026-04-25T18:50:43Z</time></trkpt><trkpt lat="59.0740557946" lon="30.0133002084"><ele>82.81</ele><time>2026-04-25T18:50:54Z</time></trkpt><trkpt lat="59.0740601532" lon="30.0133809261"><ele>81.85</ele><time>2026-04-25T18:51:01Z</time></trkpt><trkpt lat="59.0740571357" lon="30.0135535933"><ele>81.37</ele><time>2026-04-25T18:51:11Z</time></trkpt><trkpt lat="59.0740780067" lon="30.0137684215"><ele>81.37</ele><time>2026-04-25T18:51:25Z</time></trkpt><trkpt lat="59.0740845446" lon="30.0139153562"><ele>80.89</ele><time>2026-04-25T18:51:38Z</time></trkpt><trkpt lat="59.0741290525" lon="30.0140784681"><ele>80.89</ele><time>2026-04-25T18:51:49Z</time></trkpt><trkpt lat="59.0741547011" lon="30.0142603554"><ele>80.89</ele><time>2026-04-25T18:52:01Z</time></trkpt><trkpt lat="59.0741407033" lon="30.0144279934"><ele>80.89</ele><time>2026-04-25T18:52:13Z</time></trkpt><trkpt lat="59.0741427150" lon="30.0146455038"><ele>80.41</ele><time>2026-04-25T18:52:25Z</time></trkpt><trkpt lat="59.0741853788" lon="30.0148509443"><ele>80.41</ele><time>2026-04-25T18:52:39Z</time></trkpt><trkpt lat="59.0742157213" lon="30.0150441471"><ele>80.41</ele><time>2026-04-25T18:52:52Z</time></trkpt><trkpt lat="59.0742324013" lon="30.0151252002"><ele>81.85</ele><time>2026-04-25T18:52:58Z</time></trkpt><trkpt lat="59.0742468182" lon="30.0152053311"><ele>81.85</ele><time>2026-04-25T18:53:11Z</time></trkpt><trkpt lat="59.0742296353" lon="30.0152159762"><ele>81.85</ele><time>2026-04-25T18:53:28Z</time></trkpt><trkpt lat="59.0742093511" lon="30.0152082648"><ele>80.41</ele><time>2026-04-25T18:54:04Z</time></trkpt><trkpt lat="59.0741876420" lon="30.0152256992"><ele>80.41</ele><time>2026-04-25T18:54:18Z</time></trkpt><trkpt lat="59.0741650108" lon="30.0152573828"><ele>80.41</ele><time>2026-04-25T18:54:22Z</time></trkpt><trkpt lat="59.0740696248" lon="30.0153267849"><ele>80.41</ele><time>2026-04-25T18:54:35Z</time></trkpt><trkpt lat="59.0740003902" lon="30.0154292118"><ele>81.85</ele><time>2026-04-25T18:54:47Z</time></trkpt><trkpt lat="59.0740142204" lon="30.0154038146"><ele>80.41</ele><time>2026-04-25T18:55:05Z</time></trkpt><trkpt lat="59.0740241110" lon="30.0153752323"><ele>80.41</ele><time>2026-04-25T18:55:07Z</time></trkpt><trkpt lat="59.0740358457" lon="30.0152733084"><ele>80.41</ele><time>2026-04-25T18:55:13Z</time></trkpt><trkpt lat="59.0740402881" lon="30.0152168982"><ele>80.41</ele><time>2026-04-25T18:55:19Z</time></trkpt><trkpt lat="59.0740143880" lon="30.0153656770"><ele>80.41</ele><time>2026-04-25T18:55:31Z</time></trkpt><trkpt lat="59.0739810281" lon="30.0154347438"><ele>80.41</ele><time>2026-04-25T18:55:38Z</time></trkpt><trkpt lat="59.0739043336" lon="30.0154687744"><ele>80.41</ele><time>2026-04-25T18:55:50Z</time></trkpt><trkpt lat="59.0738685429" lon="30.0154747255"><ele>80.41</ele><time>2026-04-25T18:55:54Z</time></trkpt><trkpt lat="59.0738121327" lon="30.0155266933"><ele>80.41</ele><time>2026-04-25T18:56:01Z</time></trkpt><trkpt lat="59.0737138968" lon="30.0155608915"><ele>80.41</ele><time>2026-04-25T18:56:13Z</time></trkpt><trkpt lat="59.0736879967" lon="30.0155426189"><ele>80.41</ele><time>2026-04-25T18:56:19Z</time></trkpt><trkpt lat="59.0736842249" lon="30.0154707860"><ele>80.41</ele><time>2026-04-25T18:56:23Z</time></trkpt><trkpt lat="59.0736736637" lon="30.0152321532"><ele>80.41</ele><time>2026-04-25T18:56:36Z</time></trkpt><trkpt lat="59.0736772679" lon="30.0150057580"><ele>80.41</ele><time>2026-04-25T18:56:49Z</time></trkpt><trkpt lat="59.0736410581" lon="30.0148703903"><ele>80.41</ele><time>2026-04-25T18:57:01Z</time></trkpt><trkpt lat="59.0735911019" lon="30.0147218630"><ele>79.93</ele><time>2026-04-25T18:57:13Z</time></trkpt><trkpt lat="59.0735670459" lon="30.0145797897"><ele>81.37</ele><time>2026-04-25T18:57:22Z</time></trkpt><trkpt lat="59.0735633578" lon="30.0145441666"><ele>81.37</ele><time>2026-04-25T18:57:24Z</time></trkpt><trkpt lat="59.0735501144" lon="30.0143473595"><ele>81.37</ele><time>2026-04-25T18:57:38Z</time></trkpt><trkpt lat="59.0735347755" lon="30.0141409971"><ele>81.37</ele><time>2026-04-25T18:57:53Z</time></trkpt><trkpt lat="59.0735141560" lon="30.0140143465"><ele>81.37</ele><time>2026-04-25T18:58:01Z</time></trkpt><trkpt lat="59.0735015832" lon="30.0139643066"><ele>81.37</ele><time>2026-04-25T18:58:04Z</time></trkpt><trkpt lat="59.0734968893" lon="30.0139444415"><ele>81.37</ele><time>2026-04-25T18:58:16Z</time></trkpt><trkpt lat="59.0734829754" lon="30.0138648134"><ele>81.37</ele><time>2026-04-25T18:58:27Z</time></trkpt><trkpt lat="59.0734744258" lon="30.0136661623"><ele>82.33</ele><time>2026-04-25T18:58:41Z</time></trkpt><trkpt lat="59.0734761022" lon="30.0136476383"><ele>80.89</ele><time>2026-04-25T18:58:43Z</time></trkpt><trkpt lat="59.0734804608" lon="30.0135171320"><ele>80.89</ele><time>2026-04-25T18:58:54Z</time></trkpt><trkpt lat="59.0734499507" lon="30.0133183133"><ele>80.89</ele><time>2026-04-25T18:59:09Z</time></trkpt><trkpt lat="59.0734046046" lon="30.0131769944"><ele>80.41</ele><time>2026-04-25T18:59:21Z</time></trkpt><trkpt lat="59.0734087955" lon="30.0130087696"><ele>80.41</ele><time>2026-04-25T18:59:33Z</time></trkpt><trkpt lat="59.0733920317" lon="30.0128630921"><ele>80.89</ele><time>2026-04-25T18:59:46Z</time></trkpt><trkpt lat="59.0733975638" lon="30.0128475856"><ele>80.89</ele><time>2026-04-25T18:59:47Z</time></trkpt><trkpt lat="59.0733694006" lon="30.0126502756"><ele>81.37</ele><time>2026-04-25T19:00:00Z</time></trkpt><trkpt lat="59.0733581688" lon="30.0125736650"><ele>81.37</ele><time>2026-04-25T19:00:14Z</time></trkpt><trkpt lat="59.0733563248" lon="30.0124288257"><ele>81.37</ele><time>2026-04-25T19:00:26Z</time></trkpt><trkpt lat="59.0733536426" lon="30.0123646203"><ele>81.37</ele><time>2026-04-25T19:00:39Z</time></trkpt><trkpt lat="59.0733442549" lon="30.0121827330"><ele>80.41</ele><time>2026-04-25T19:00:53Z</time></trkpt><trkpt lat="59.0733405668" lon="30.0121746026"><ele>80.41</ele><time>2026-04-25T19:00:54Z</time></trkpt><trkpt lat="59.0733165108" lon="30.0119818188"><ele>80.41</ele><time>2026-04-25T19:01:07Z</time></trkpt><trkpt lat="59.0732901078" lon="30.0118113309"><ele>80.41</ele><time>2026-04-25T19:01:19Z</time></trkpt><trkpt lat="59.0732892696" lon="30.0117669068"><ele>80.41</ele><time>2026-04-25T19:01:22Z</time></trkpt><trkpt lat="59.0732543170" lon="30.0115457084"><ele>80.41</ele><time>2026-04-25T19:01:35Z</time></trkpt><trkpt lat="59.0732491203" lon="30.0115054753"><ele>81.37</ele><time>2026-04-25T19:01:37Z</time></trkpt><trkpt lat="59.0732465219" lon="30.0114563573"><ele>81.37</ele><time>2026-04-25T19:01:40Z</time></trkpt><trkpt lat="59.0732460190" lon="30.0113938283"><ele>81.37</ele><time>2026-04-25T19:01:55Z</time></trkpt><trkpt lat="59.0732532274" lon="30.0113890506"><ele>80.89</ele><time>2026-04-25T19:02:10Z</time></trkpt><trkpt lat="59.0731908660" lon="30.0114065688"><ele>80.89</ele><time>2026-04-25T19:02:25Z</time></trkpt><trkpt lat="59.0731144231" lon="30.0114534236"><ele>80.89</ele><time>2026-04-25T19:02:34Z</time></trkpt><trkpt lat="59.0730078891" lon="30.0115129352"><ele>80.41</ele><time>2026-04-25T19:02:47Z</time></trkpt><trkpt lat="59.0729266685" lon="30.0116240792"><ele>81.37</ele><time>2026-04-25T19:02:59Z</time></trkpt><trkpt lat="59.0728730243" lon="30.0116556790"><ele>81.85</ele><time>2026-04-25T19:03:12Z</time></trkpt><trkpt lat="59.0728144348" lon="30.0117171183"><ele>81.85</ele><time>2026-04-25T19:03:21Z</time></trkpt><trkpt lat="59.0727035422" lon="30.0117985904"><ele>81.85</ele><time>2026-04-25T19:03:34Z</time></trkpt><trkpt lat="59.0727036260" lon="30.0118685793"><ele>82.33</ele><time>2026-04-25T19:03:45Z</time></trkpt><trkpt lat="59.0727270115" lon="30.0120686553"><ele>81.37</ele><time>2026-04-25T19:03:57Z</time></trkpt><trkpt lat="59.0727296099" lon="30.0121323578"><ele>81.37</ele><time>2026-04-25T19:04:01Z</time></trkpt><trkpt lat="59.0727975033" lon="30.0123615190"><ele>81.37</ele><time>2026-04-25T19:04:16Z</time></trkpt><trkpt lat="59.0728285164" lon="30.0124286581"><ele>80.89</ele><time>2026-04-25T19:04:36Z</time></trkpt><trkpt lat="59.0728283487" lon="30.0124960486"><ele>80.89</ele><time>2026-04-25T19:04:40Z</time></trkpt><trkpt lat="59.0728109144" lon="30.0125444960"><ele>82.33</ele><time>2026-04-25T19:04:51Z</time></trkpt><trkpt lat="59.0728063881" lon="30.0125708990"><ele>80.89</ele><time>2026-04-25T19:04:54Z</time></trkpt><trkpt lat="59.0728047956" lon="30.0128941052"><ele>81.85</ele><time>2026-04-25T19:05:11Z</time></trkpt><trkpt lat="59.0728169493" lon="30.0129532814"><ele>80.41</ele><time>2026-04-25T19:05:14Z</time></trkpt><trkpt lat="59.0728203859" lon="30.0129889883"><ele>80.41</ele><time>2026-04-25T19:05:16Z</time></trkpt><trkpt lat="59.0728384070" lon="30.0132979453"><ele>80.41</ele><time>2026-04-25T19:05:33Z</time></trkpt><trkpt lat="59.0728388261" lon="30.0135325547"><ele>80.41</ele><time>2026-04-25T19:05:46Z</time></trkpt><trkpt lat="59.0728655644" lon="30.0137871969"><ele>80.41</ele><time>2026-04-25T19:05:59Z</time></trkpt><trkpt lat="59.0728718508" lon="30.0138055533"><ele>80.41</ele><time>2026-04-25T19:06:00Z</time></trkpt><trkpt lat="59.0729085635" lon="30.0140009355"><ele>80.41</ele><time>2026-04-25T19:06:11Z</time></trkpt><trkpt lat="59.0729153529" lon="30.0142546557"><ele>80.41</ele><time>2026-04-25T19:06:26Z</time></trkpt><trkpt lat="59.0729310270" lon="30.0145910215"><ele>80.41</ele><time>2026-04-25T19:06:43Z</time></trkpt><trkpt lat="59.0729340445" lon="30.0146484375"><ele>80.41</ele><time>2026-04-25T19:06:46Z</time></trkpt><trkpt lat="59.0729712602" lon="30.0149731524"><ele>79.93</ele><time>2026-04-25T19:07:01Z</time></trkpt><trkpt lat="59.0729825757" lon="30.0151407905"><ele>80.89</ele><time>2026-04-25T19:07:13Z</time></trkpt><trkpt lat="59.0730027761" lon="30.0151858013"><ele>79.93</ele><time>2026-04-25T19:07:34Z</time></trkpt><trkpt lat="59.0730228927" lon="30.0154462270"><ele>79.93</ele><time>2026-04-25T19:07:49Z</time></trkpt><trkpt lat="59.0730767883" lon="30.0157088321"><ele>79.93</ele><time>2026-04-25T19:08:04Z</time></trkpt><trkpt lat="59.0731228050" lon="30.0158814993"><ele>79.93</ele><time>2026-04-25T19:08:16Z</time></trkpt><trkpt lat="59.0731076337" lon="30.0159385800"><ele>79.93</ele><time>2026-04-25T19:08:33Z</time></trkpt><trkpt lat="59.0730970725" lon="30.0159633905"><ele>79.93</ele><time>2026-04-25T19:08:59Z</time></trkpt><trkpt lat="59.0730984136" lon="30.0159635581"><ele>80.89</ele><time>2026-04-25T19:09:02Z</time></trkpt><trkpt lat="59.0730742738" lon="30.0159447826"><ele>79.93</ele><time>2026-04-25T19:09:27Z</time></trkpt><trkpt lat="59.0730087273" lon="30.0158234127"><ele>79.93</ele><time>2026-04-25T19:09:39Z</time></trkpt><trkpt lat="59.0730031114" lon="30.0158160366"><ele>80.89</ele><time>2026-04-25T19:09:42Z</time></trkpt><trkpt lat="59.0729874372" lon="30.0158162881"><ele>80.89</ele><time>2026-04-25T19:10:02Z</time></trkpt><trkpt lat="59.0729663987" lon="30.0158212334"><ele>80.89</ele><time>2026-04-25T19:10:32Z</time></trkpt><trkpt lat="59.0729287639" lon="30.0157818384"><ele>80.89</ele><time>2026-04-25T19:10:45Z</time></trkpt><trkpt lat="59.0728814062" lon="30.0157492328"><ele>81.85</ele><time>2026-04-25T19:11:01Z</time></trkpt><trkpt lat="59.0728664026" lon="30.0157540105"><ele>81.85</ele><time>2026-04-25T19:11:09Z</time></trkpt><trkpt lat="59.0728348028" lon="30.0157616381"><ele>80.41</ele><time>2026-04-25T19:11:12Z</time></trkpt><trkpt lat="59.0727808233" lon="30.0157208182"><ele>80.41</ele><time>2026-04-25T19:11:19Z</time></trkpt><trkpt lat="59.0726764686" lon="30.0157198962"><ele>80.41</ele><time>2026-04-25T19:11:31Z</time></trkpt><trkpt lat="59.0726569388" lon="30.0157205667"><ele>81.85</ele><time>2026-04-25T19:11:33Z</time></trkpt><trkpt lat="59.0725537576" lon="30.0157112628"><ele>80.89</ele><time>2026-04-25T19:11:46Z</time></trkpt><trkpt lat="59.0724954195" lon="30.0157083292"><ele>80.89</ele><time>2026-04-25T19:12:01Z</time></trkpt><trkpt lat="59.0724772308" lon="30.0157082453"><ele>80.89</ele><time>2026-04-25T19:12:03Z</time></trkpt><trkpt lat="59.0723966807" lon="30.0157003663"><ele>81.85</ele><time>2026-04-25T19:12:12Z</time></trkpt><trkpt lat="59.0723737981" lon="30.0156784058"><ele>82.33</ele><time>2026-04-25T19:12:23Z</time></trkpt><trkpt lat="59.0723744687" lon="30.0156749692"><ele>80.89</ele><time>2026-04-25T19:12:27Z</time></trkpt><trkpt lat="59.0723800845" lon="30.0156734604"><ele>80.41</ele><time>2026-04-25T19:12:51Z</time></trkpt><trkpt lat="59.0723810904" lon="30.0156570319"><ele>80.41</ele><time>2026-04-25T19:13:24Z</time></trkpt><trkpt lat="59.0723783243" lon="30.0156451296"><ele>80.41</ele><time>2026-04-25T19:13:56Z</time></trkpt><trkpt lat="59.0723819286" lon="30.0156445429"><ele>80.41</ele><time>2026-04-25T19:14:12Z</time></trkpt><trkpt lat="59.0723939147" lon="30.0156051479"><ele>80.41</ele><time>2026-04-25T19:14:26Z</time></trkpt><trkpt lat="59.0723936632" lon="30.0155415293"><ele>80.41</ele><time>2026-04-25T19:14:43Z</time></trkpt><trkpt lat="59.0724026319" lon="30.0154490769"><ele>80.41</ele><time>2026-04-25T19:14:56Z</time></trkpt><trkpt lat="59.0723908134" lon="30.0153591391"><ele>80.41</ele><time>2026-04-25T19:15:08Z</time></trkpt><trkpt lat="59.0723841917" lon="30.0150931813"><ele>80.41</ele><time>2026-04-25T19:15:23Z</time></trkpt><trkpt lat="59.0723846946" lon="30.0150226895"><ele>81.85</ele><time>2026-04-25T19:15:27Z</time></trkpt><trkpt lat="59.0723606385" lon="30.0147917680"><ele>81.85</ele><time>2026-04-25T19:15:41Z</time></trkpt><trkpt lat="59.0723551903" lon="30.0145705696"><ele>81.85</ele><time>2026-04-25T19:15:54Z</time></trkpt><trkpt lat="59.0723437071" lon="30.0144212041"><ele>81.37</ele><time>2026-04-25T19:16:08Z</time></trkpt><trkpt lat="59.0723478142" lon="30.0144164264"><ele>82.33</ele><time>2026-04-25T19:16:29Z</time></trkpt><trkpt lat="59.0723452996" lon="30.0144100562"><ele>82.33</ele><time>2026-04-25T19:16:47Z</time></trkpt><trkpt lat="59.0723367501" lon="30.0143970642"><ele>82.33</ele><time>2026-04-25T19:16:56Z</time></trkpt><trkpt lat="59.0723339003" lon="30.0143295061"><ele>80.89</ele><time>2026-04-25T19:17:00Z</time></trkpt><trkpt lat="59.0723491553" lon="30.0141923781"><ele>82.33</ele><time>2026-04-25T19:17:09Z</time></trkpt><trkpt lat="59.0723490715" lon="30.0140756182"><ele>82.33</ele><time>2026-04-25T19:17:19Z</time></trkpt><trkpt lat="59.0723298769" lon="30.0140234828"><ele>82.33</ele><time>2026-04-25T19:17:23Z</time></trkpt><trkpt lat="59.0722757298" lon="30.0138961617"><ele>82.33</ele><time>2026-04-25T19:17:34Z</time></trkpt><trkpt lat="59.0722422022" lon="30.0138282683"><ele>82.33</ele><time>2026-04-25T19:17:42Z</time></trkpt><trkpt lat="59.0722256061" lon="30.0137677509"><ele>82.33</ele><time>2026-04-25T19:17:46Z</time></trkpt><trkpt lat="59.0722050704" lon="30.0137063116"><ele>82.33</ele><time>2026-04-25T19:18:00Z</time></trkpt><trkpt lat="59.0722008795" lon="30.0136503205"><ele>82.33</ele><time>2026-04-25T19:18:28Z</time></trkpt><trkpt lat="59.0721469000" lon="30.0134961773"><ele>80.89</ele><time>2026-04-25T19:18:39Z</time></trkpt><trkpt lat="59.0721101873" lon="30.0133007113"><ele>80.89</ele><time>2026-04-25T19:18:55Z</time></trkpt><trkpt lat="59.0721119475" lon="30.0131035689"><ele>80.89</ele><time>2026-04-25T19:19:09Z</time></trkpt><trkpt lat="59.0721052419" lon="30.0129333325"><ele>80.89</ele><time>2026-04-25T19:19:21Z</time></trkpt><trkpt lat="59.0721267834" lon="30.0126927719"><ele>80.89</ele><time>2026-04-25T19:19:34Z</time></trkpt><trkpt lat="59.0721080080" lon="30.0124368723"><ele>80.89</ele><time>2026-04-25T19:19:47Z</time></trkpt><trkpt lat="59.0720961895" lon="30.0122125726"><ele>80.89</ele><time>2026-04-25T19:19:59Z</time></trkpt><trkpt lat="59.0720805153" lon="30.0120106526"><ele>82.33</ele><time>2026-04-25T19:20:10Z</time></trkpt><trkpt lat="59.0720741451" lon="30.0119162723"><ele>82.33</ele><time>2026-04-25T19:20:15Z</time></trkpt><trkpt lat="59.0720675234" lon="30.0119063817"><ele>82.33</ele><time>2026-04-25T19:20:28Z</time></trkpt><trkpt lat="59.0720675234" lon="30.0118994247"><ele>81.85</ele><time>2026-04-25T19:20:42Z</time></trkpt><trkpt lat="59.0720617399" lon="30.0118671544"><ele>81.85</ele><time>2026-04-25T19:20:54Z</time></trkpt><trkpt lat="59.0720589738" lon="30.0118575990"><ele>81.37</ele><time>2026-04-25T19:21:04Z</time></trkpt><trkpt lat="59.0720602311" lon="30.0118588563"><ele>82.33</ele><time>2026-04-25T19:21:26Z</time></trkpt><trkpt lat="59.0720561240" lon="30.0118552521"><ele>82.33</ele><time>2026-04-25T19:21:34Z</time></trkpt><trkpt lat="59.0719806869" lon="30.0118903723"><ele>82.33</ele><time>2026-04-25T19:21:44Z</time></trkpt><trkpt lat="59.0718345903" lon="30.0119724311"><ele>82.33</ele><time>2026-04-25T19:21:59Z</time></trkpt><trkpt lat="59.0717206802" lon="30.0120939687"><ele>82.33</ele><time>2026-04-25T19:22:11Z</time></trkpt><trkpt lat="59.0716758370" lon="30.0120229740"><ele>82.33</ele><time>2026-04-25T19:22:25Z</time></trkpt><trkpt lat="59.0716713108" lon="30.0120013487"><ele>82.33</ele><time>2026-04-25T19:22:26Z</time></trkpt><trkpt lat="59.0716273058" lon="30.0117876101"><ele>82.33</ele><time>2026-04-25T19:22:38Z</time></trkpt><trkpt lat="59.0716084465" lon="30.0116741192"><ele>82.81</ele><time>2026-04-25T19:22:55Z</time></trkpt><trkpt lat="59.0715528745" lon="30.0113654137"><ele>82.81</ele><time>2026-04-25T19:23:12Z</time></trkpt><trkpt lat="59.0715394635" lon="30.0112947542"><ele>81.37</ele><time>2026-04-25T19:23:17Z</time></trkpt><trkpt lat="59.0715252142" lon="30.0109769963"><ele>81.37</ele><time>2026-04-25T19:23:37Z</time></trkpt><trkpt lat="59.0715101268" lon="30.0108630862"><ele>81.37</ele><time>2026-04-25T19:23:48Z</time></trkpt><trkpt lat="59.0714919381" lon="30.0104832184"><ele>81.37</ele><time>2026-04-25T19:24:06Z</time></trkpt><trkpt lat="59.0714854840" lon="30.0104440749"><ele>81.37</ele><time>2026-04-25T19:24:08Z</time></trkpt><trkpt lat="59.0714712348" lon="30.0103450846"><ele>81.37</ele><time>2026-04-25T19:24:13Z</time></trkpt><trkpt lat="59.0714406408" lon="30.0101304241"><ele>81.37</ele><time>2026-04-25T19:24:20Z</time></trkpt><trkpt lat="59.0713826381" lon="30.0096565112"><ele>80.89</ele><time>2026-04-25T19:24:38Z</time></trkpt><trkpt lat="59.0713636111" lon="30.0093929004"><ele>80.89</ele><time>2026-04-25T19:24:50Z</time></trkpt><trkpt lat="59.0713630244" lon="30.0092732906"><ele>82.33</ele><time>2026-04-25T19:24:56Z</time></trkpt><trkpt lat="59.0713131521" lon="30.0089301355"><ele>82.33</ele><time>2026-04-25T19:25:12Z</time></trkpt><trkpt lat="59.0712758526" lon="30.0086915027"><ele>82.33</ele><time>2026-04-25T19:25:26Z</time></trkpt><trkpt lat="59.0712706558" lon="30.0086867251"><ele>80.89</ele><time>2026-04-25T19:25:47Z</time></trkpt><trkpt lat="59.0712626092" lon="30.0086542871"><ele>80.89</ele><time>2026-04-25T19:25:53Z</time></trkpt><trkpt lat="59.0712508745" lon="30.0085360184"><ele>80.89</ele><time>2026-04-25T19:26:09Z</time></trkpt><trkpt lat="59.0712502040" lon="30.0085097831"><ele>79.93</ele><time>2026-04-25T19:26:29Z</time></trkpt><trkpt lat="59.0712486953" lon="30.0084962882"><ele>81.37</ele><time>2026-04-25T19:26:40Z</time></trkpt><trkpt lat="59.0712532215" lon="30.0085039996"><ele>80.89</ele><time>2026-04-25T19:27:14Z</time></trkpt><trkpt lat="59.0712636989" lon="30.0085045863"><ele>81.85</ele><time>2026-04-25T19:27:31Z</time></trkpt><trkpt lat="59.0712718293" lon="30.0084802788"><ele>82.33</ele><time>2026-04-25T19:27:58Z</time></trkpt><trkpt lat="59.0712678060" lon="30.0084702205"><ele>80.89</ele><time>2026-04-25T19:28:15Z</time></trkpt><trkpt lat="59.0712618548" lon="30.0084668677"><ele>82.33</ele><time>2026-04-25T19:28:33Z</time></trkpt><trkpt lat="59.0712418221" lon="30.0084644370"><ele>82.33</ele><time>2026-04-25T19:29:01Z</time></trkpt><trkpt lat="59.0712394752" lon="30.0084608328"><ele>82.33</ele><time>2026-04-25T19:29:20Z</time></trkpt><trkpt lat="59.0712380502" lon="30.0084541272"><ele>82.33</ele><time>2026-04-25T19:29:49Z</time></trkpt><trkpt lat="59.0712326858" lon="30.0084610004"><ele>82.33</ele><time>2026-04-25T19:30:22Z</time></trkpt><trkpt lat="59.0712309256" lon="30.0084629282"><ele>82.33</ele><time>2026-04-25T19:30:44Z</time></trkpt><trkpt lat="59.0712223761" lon="30.0084545463"><ele>82.33</ele><time>2026-04-25T19:31:07Z</time></trkpt><trkpt lat="59.0712226275" lon="30.0084656943"><ele>82.33</ele><time>2026-04-25T19:31:39Z</time></trkpt><trkpt lat="59.0712185204" lon="30.0084819552"><ele>82.33</ele><time>2026-04-25T19:32:00Z</time></trkpt><trkpt lat="59.0712108091" lon="30.0085501000"><ele>82.33</ele><time>2026-04-25T19:32:34Z</time></trkpt><trkpt lat="59.0712157544" lon="30.0085561350"><ele>82.33</ele><time>2026-04-25T19:32:59Z</time></trkpt><trkpt lat="59.0712142456" lon="30.0085703004"><ele>82.33</ele><time>2026-04-25T19:33:25Z</time></trkpt><trkpt lat="59.0712061990" lon="30.0085700490"><ele>82.33</ele><time>2026-04-25T19:33:54Z</time></trkpt><trkpt lat="59.0712093003" lon="30.0085568056"><ele>82.33</ele><time>2026-04-25T19:34:19Z</time></trkpt><trkpt lat="59.0712289978" lon="30.0085202605"><ele>82.81</ele><time>2026-04-25T19:34:42Z</time></trkpt><trkpt lat="59.0712307580" lon="30.0085092802"><ele>82.81</ele><time>2026-04-25T19:35:02Z</time></trkpt><trkpt lat="59.0712395590" lon="30.0085139740"><ele>82.81</ele><time>2026-04-25T19:35:31Z</time></trkpt><trkpt lat="59.0712731704" lon="30.0084889121"><ele>82.81</ele><time>2026-04-25T19:35:48Z</time></trkpt><trkpt lat="59.0713571571" lon="30.0084204320"><ele>82.81</ele><time>2026-04-25T19:36:01Z</time></trkpt><trkpt lat="59.0714048501" lon="30.0084088650"><ele>82.81</ele><time>2026-04-25T19:36:13Z</time></trkpt><trkpt lat="59.0714071132" lon="30.0083829649"><ele>82.81</ele><time>2026-04-25T19:36:15Z</time></trkpt><trkpt lat="59.0714612603" lon="30.0082849804"><ele>82.81</ele><time>2026-04-25T19:36:25Z</time></trkpt><trkpt lat="59.0715267230" lon="30.0083167478"><ele>82.81</ele><time>2026-04-25T19:36:40Z</time></trkpt><trkpt lat="59.0716322511" lon="30.0083347689"><ele>82.81</ele><time>2026-04-25T19:36:54Z</time></trkpt><trkpt lat="59.0716821235" lon="30.0083555561"><ele>82.81</ele><time>2026-04-25T19:37:06Z</time></trkpt><trkpt lat="59.0717522800" lon="30.0083940290"><ele>82.81</ele><time>2026-04-25T19:37:19Z</time></trkpt><trkpt lat="59.0718874801" lon="30.0083708111"><ele>82.81</ele><time>2026-04-25T19:37:32Z</time></trkpt><trkpt lat="59.0719738975" lon="30.0083159097"><ele>82.81</ele><time>2026-04-25T19:37:44Z</time></trkpt><trkpt lat="59.0720909089" lon="30.0082212780"><ele>82.81</ele><time>2026-04-25T19:38:00Z</time></trkpt><trkpt lat="59.0722235944" lon="30.0081590842"><ele>82.81</ele><time>2026-04-25T19:38:14Z</time></trkpt><trkpt lat="59.0723500773" lon="30.0080750138"><ele>81.37</ele><time>2026-04-25T19:38:27Z</time></trkpt><trkpt lat="59.0723893046" lon="30.0080386363"><ele>81.37</ele><time>2026-04-25T19:38:31Z</time></trkpt><trkpt lat="59.0725254267" lon="30.0079439208"><ele>81.37</ele><time>2026-04-25T19:38:45Z</time></trkpt><trkpt lat="59.0726535860" lon="30.0078504626"><ele>81.37</ele><time>2026-04-25T19:38:59Z</time></trkpt><trkpt lat="59.0727193002" lon="30.0078165159"><ele>81.37</ele><time>2026-04-25T19:39:11Z</time></trkpt><trkpt lat="59.0727460384" lon="30.0078225508"><ele>81.37</ele><time>2026-04-25T19:39:16Z</time></trkpt><trkpt lat="59.0728005208" lon="30.0077986624"><ele>81.37</ele><time>2026-04-25T19:39:21Z</time></trkpt><trkpt lat="59.0729513951" lon="30.0077082217"><ele>81.37</ele><time>2026-04-25T19:39:37Z</time></trkpt><trkpt lat="59.0730452724" lon="30.0076664798"><ele>81.37</ele><time>2026-04-25T19:39:51Z</time></trkpt><trkpt lat="59.0731113218" lon="30.0076671503"><ele>81.37</ele><time>2026-04-25T19:40:03Z</time></trkpt><trkpt lat="59.0731541533" lon="30.0076481234"><ele>81.37</ele><time>2026-04-25T19:40:14Z</time></trkpt><trkpt lat="59.0731951408" lon="30.0076299347"><ele>81.37</ele><time>2026-04-25T19:40:18Z</time></trkpt><trkpt lat="59.0732394811" lon="30.0075972453"><ele>81.37</ele><time>2026-04-25T19:40:23Z</time></trkpt><trkpt lat="59.0732730087" lon="30.0075544138"><ele>80.89</ele><time>2026-04-25T19:40:27Z</time></trkpt><trkpt lat="59.0733041894" lon="30.0075170305"><ele>80.89</ele><time>2026-04-25T19:40:31Z</time></trkpt><trkpt lat="59.0734243859" lon="30.0074160285"><ele>80.89</ele><time>2026-04-25T19:40:45Z</time></trkpt><trkpt lat="59.0734303370" lon="30.0074063893"><ele>80.89</ele><time>2026-04-25T19:40:46Z</time></trkpt><trkpt lat="59.0735191852" lon="30.0073006935"><ele>82.33</ele><time>2026-04-25T19:40:57Z</time></trkpt><trkpt lat="59.0736196004" lon="30.0071938243"><ele>82.33</ele><time>2026-04-25T19:41:10Z</time></trkpt><trkpt lat="59.0737284813" lon="30.0070452131"><ele>82.33</ele><time>2026-04-25T19:41:26Z</time></trkpt><trkpt lat="59.0737347677" lon="30.0070720352"><ele>80.89</ele><time>2026-04-25T19:41:37Z</time></trkpt><trkpt lat="59.0737412218" lon="30.0070660841"><ele>82.33</ele><time>2026-04-25T19:41:59Z</time></trkpt><trkpt lat="59.0737737436" lon="30.0070860330"><ele>82.33</ele><time>2026-04-25T19:42:22Z</time></trkpt><trkpt lat="59.0738571435" lon="30.0071696006"><ele>82.33</ele><time>2026-04-25T19:42:36Z</time></trkpt><trkpt lat="59.0738933533" lon="30.0071763899"><ele>82.33</ele><time>2026-04-25T19:42:51Z</time></trkpt><trkpt lat="59.0739164874" lon="30.0071917288"><ele>82.33</ele><time>2026-04-25T19:42:58Z</time></trkpt><trkpt lat="59.0740363486" lon="30.0072382484"><ele>82.33</ele><time>2026-04-25T19:43:14Z</time></trkpt><trkpt lat="59.0740837064" lon="30.0072125997"><ele>82.33</ele><time>2026-04-25T19:43:43Z</time></trkpt><trkpt lat="59.0741896536" lon="30.0072492287"><ele>82.33</ele><time>2026-04-25T19:43:57Z</time></trkpt><trkpt lat="59.0743144602" lon="30.0072937366"><ele>82.33</ele><time>2026-04-25T19:44:12Z</time></trkpt><trkpt lat="59.0743800066" lon="30.0073867757"><ele>80.89</ele><time>2026-04-25T19:44:23Z</time></trkpt><trkpt lat="59.0744022187" lon="30.0074323732"><ele>80.89</ele><time>2026-04-25T19:44:28Z</time></trkpt><trkpt lat="59.0744544379" lon="30.0074804854"><ele>80.89</ele><time>2026-04-25T19:44:34Z</time></trkpt><trkpt lat="59.0745457169" lon="30.0076125842"><ele>80.89</ele><time>2026-04-25T19:44:47Z</time></trkpt><trkpt lat="59.0746121854" lon="30.0076779630"><ele>80.89</ele><time>2026-04-25T19:44:59Z</time></trkpt><trkpt lat="59.0747092478" lon="30.0077346247"><ele>80.89</ele><time>2026-04-25T19:45:11Z</time></trkpt><trkpt lat="59.0747541748" lon="30.0077505503"><ele>82.33</ele><time>2026-04-25T19:45:19Z</time></trkpt><trkpt lat="59.0748478845" lon="30.0076860934"><ele>82.33</ele><time>2026-04-25T19:45:32Z</time></trkpt><trkpt lat="59.0748694260" lon="30.0076406635"><ele>82.33</ele><time>2026-04-25T19:45:40Z</time></trkpt><trkpt lat="59.0749534965" lon="30.0075627957"><ele>82.33</ele><time>2026-04-25T19:45:52Z</time></trkpt><trkpt lat="59.0750217251" lon="30.0075739436"><ele>82.33</ele><time>2026-04-25T19:46:01Z</time></trkpt><trkpt lat="59.0751061309" lon="30.0075552519"><ele>82.33</ele><time>2026-04-25T19:46:15Z</time></trkpt><trkpt lat="59.0751578473" lon="30.0075323693"><ele>80.89</ele><time>2026-04-25T19:46:29Z</time></trkpt><trkpt lat="59.0752257407" lon="30.0074883644"><ele>80.89</ele><time>2026-04-25T19:46:41Z</time></trkpt><trkpt lat="59.0752853360" lon="30.0073989294"><ele>80.89</ele><time>2026-04-25T19:46:52Z</time></trkpt><trkpt lat="59.0753193665" lon="30.0072938204"><ele>80.89</ele><time>2026-04-25T19:47:10Z</time></trkpt><trkpt lat="59.0753687359" lon="30.0071321335"><ele>80.89</ele><time>2026-04-25T19:47:23Z</time></trkpt><trkpt lat="59.0753937978" lon="30.0070592947"><ele>80.89</ele><time>2026-04-25T19:47:33Z</time></trkpt><trkpt lat="59.0754113998" lon="30.0070415251"><ele>80.89</ele><time>2026-04-25T19:47:39Z</time></trkpt><trkpt lat="59.0754432511" lon="30.0069482345"><ele>80.89</ele><time>2026-04-25T19:47:48Z</time></trkpt><trkpt lat="59.0754841547" lon="30.0068789162"><ele>80.89</ele><time>2026-04-25T19:47:59Z</time></trkpt><trkpt lat="59.0755258128" lon="30.0068663433"><ele>82.33</ele><time>2026-04-25T19:48:11Z</time></trkpt><trkpt lat="59.0756241325" lon="30.0067842007"><ele>82.33</ele><time>2026-04-25T19:48:26Z</time></trkpt><trkpt lat="59.0756867453" lon="30.0067054108"><ele>82.33</ele><time>2026-04-25T19:48:38Z</time></trkpt><trkpt lat="59.0757623501" lon="30.0066697039"><ele>82.33</ele><time>2026-04-25T19:48:50Z</time></trkpt><trkpt lat="59.0758090373" lon="30.0065906625"><ele>81.37</ele><time>2026-04-25T19:48:59Z</time></trkpt><trkpt lat="59.0758756734" lon="30.0064362679"><ele>81.37</ele><time>2026-04-25T19:49:13Z</time></trkpt><trkpt lat="59.0759175830" lon="30.0063753314"><ele>81.37</ele><time>2026-04-25T19:49:28Z</time></trkpt><trkpt lat="59.0759172477" lon="30.0063889101"><ele>81.37</ele><time>2026-04-25T19:49:46Z</time></trkpt><trkpt lat="59.0759692993" lon="30.0063941069"><ele>81.37</ele><time>2026-04-25T19:50:01Z</time></trkpt><trkpt lat="59.0760101192" lon="30.0063957833"><ele>81.37</ele><time>2026-04-25T19:50:06Z</time></trkpt><trkpt lat="59.0760465804" lon="30.0063972920"><ele>82.81</ele><time>2026-04-25T19:50:13Z</time></trkpt><trkpt lat="59.0761163179" lon="30.0064072665"><ele>81.37</ele><time>2026-04-25T19:50:27Z</time></trkpt><trkpt lat="59.0761176590" lon="30.0064087752"><ele>81.37</ele><time>2026-04-25T19:50:28Z</time></trkpt><trkpt lat="59.0762038250" lon="30.0064730644"><ele>81.37</ele><time>2026-04-25T19:50:40Z</time></trkpt><trkpt lat="59.0763160586" lon="30.0065616611"><ele>81.37</ele><time>2026-04-25T19:50:56Z</time></trkpt><trkpt lat="59.0764083434" lon="30.0065463223"><ele>82.33</ele><time>2026-04-25T19:51:10Z</time></trkpt><trkpt lat="59.0765182301" lon="30.0065429695"><ele>82.33</ele><time>2026-04-25T19:51:26Z</time></trkpt><trkpt lat="59.0766245127" lon="30.0065423828"><ele>82.33</ele><time>2026-04-25T19:51:39Z</time></trkpt><trkpt lat="59.0766965970" lon="30.0064815301"><ele>82.33</ele><time>2026-04-25T19:51:53Z</time></trkpt><trkpt lat="59.0767897200" lon="30.0064308196"><ele>80.89</ele><time>2026-04-25T19:52:07Z</time></trkpt><trkpt lat="59.0768508241" lon="30.0064219348"><ele>80.89</ele><time>2026-04-25T19:52:22Z</time></trkpt><trkpt lat="59.0769141074" lon="30.0063408818"><ele>80.89</ele><time>2026-04-25T19:52:34Z</time></trkpt><trkpt lat="59.0769618005" lon="30.0062989723"><ele>81.85</ele><time>2026-04-25T19:52:45Z</time></trkpt><trkpt lat="59.0769942384" lon="30.0063561369"><ele>81.85</ele><time>2026-04-25T19:52:56Z</time></trkpt><trkpt lat="59.0770335495" lon="30.0063672848"><ele>81.85</ele><time>2026-04-25T19:53:14Z</time></trkpt><trkpt lat="59.0770581923" lon="30.0063824560"><ele>80.89</ele><time>2026-04-25T19:53:51Z</time></trkpt><trkpt lat="59.0770629700" lon="30.0063873176"><ele>82.33</ele><time>2026-04-25T19:54:04Z</time></trkpt><trkpt lat="59.0770682506" lon="30.0063868985"><ele>80.89</ele><time>2026-04-25T19:54:20Z</time></trkpt><trkpt lat="59.0770679154" lon="30.0063838810"><ele>81.85</ele><time>2026-04-25T19:54:43Z</time></trkpt><trkpt lat="59.0770742856" lon="30.0063719787"><ele>81.85</ele><time>2026-04-25T19:55:03Z</time></trkpt><trkpt lat="59.0770779736" lon="30.0062812865"><ele>81.85</ele><time>2026-04-25T19:55:17Z</time></trkpt><trkpt lat="59.0770809911" lon="30.0061257184"><ele>81.85</ele><time>2026-04-25T19:55:29Z</time></trkpt><trkpt lat="59.0770971682" lon="30.0060584955"><ele>81.85</ele><time>2026-04-25T19:55:39Z</time></trkpt><trkpt lat="59.0771113336" lon="30.0059856568"><ele>81.85</ele><time>2026-04-25T19:55:49Z</time></trkpt><trkpt lat="59.0771174524" lon="30.0059093814"><ele>81.85</ele><time>2026-04-25T19:56:03Z</time></trkpt><trkpt lat="59.0770973358" lon="30.0058381353"><ele>81.85</ele><time>2026-04-25T19:56:21Z</time></trkpt><trkpt lat="59.0770735312" lon="30.0058010034"><ele>81.85</ele><time>2026-04-25T19:56:34Z</time></trkpt><trkpt lat="59.0770646464" lon="30.0057616923"><ele>81.85</ele><time>2026-04-25T19:56:47Z</time></trkpt><trkpt lat="59.0770555101" lon="30.0057600997"><ele>81.85</ele><time>2026-04-25T19:56:58Z</time></trkpt><trkpt lat="59.0770445298" lon="30.0057535619"><ele>81.85</ele><time>2026-04-25T19:57:08Z</time></trkpt><trkpt lat="59.0770403389" lon="30.0056857523"><ele>81.85</ele><time>2026-04-25T19:57:22Z</time></trkpt><trkpt lat="59.0770218149" lon="30.0055908691"><ele>81.85</ele><time>2026-04-25T19:57:34Z</time></trkpt><trkpt lat="59.0770045482" lon="30.0055333693"><ele>81.85</ele><time>2026-04-25T19:57:44Z</time></trkpt><trkpt lat="59.0770085715" lon="30.0055057928"><ele>81.85</ele><time>2026-04-25T19:57:59Z</time></trkpt><trkpt lat="59.0769905504" lon="30.0054728519"><ele>81.85</ele><time>2026-04-25T19:58:11Z</time></trkpt><trkpt lat="59.0769757982" lon="30.0054549985"><ele>81.85</ele><time>2026-04-25T19:58:26Z</time></trkpt><trkpt lat="59.0769555140" lon="30.0054684933"><ele>81.85</ele><time>2026-04-25T19:58:36Z</time></trkpt><trkpt lat="59.0769407619" lon="30.0054696668"><ele>81.85</ele><time>2026-04-25T19:58:48Z</time></trkpt><trkpt lat="59.0769188013" lon="30.0054528192"><ele>81.85</ele><time>2026-04-25T19:59:01Z</time></trkpt><trkpt lat="59.0769053902" lon="30.0054632965"><ele>81.85</ele><time>2026-04-25T19:59:17Z</time></trkpt><trkpt lat="59.0768475551" lon="30.0054575969"><ele>81.85</ele><time>2026-04-25T19:59:29Z</time></trkpt><trkpt lat="59.0768325515" lon="30.0054627098"><ele>81.85</ele><time>2026-04-25T19:59:44Z</time></trkpt><trkpt lat="59.0768260974" lon="30.0054633804"><ele>81.85</ele><time>2026-04-25T19:59:59Z</time></trkpt><trkpt lat="59.0767880436" lon="30.0054651406"><ele>81.85</ele><time>2026-04-25T20:00:14Z</time></trkpt><trkpt lat="59.0767690167" lon="30.0054782163"><ele>81.85</ele><time>2026-04-25T20:00:27Z</time></trkpt><trkpt lat="59.0767297056" lon="30.0055353809"><ele>81.85</ele><time>2026-04-25T20:00:38Z</time></trkpt><trkpt lat="59.0766789112" lon="30.0055418350"><ele>81.85</ele><time>2026-04-25T20:00:51Z</time></trkpt><trkpt lat="59.0766318049" lon="30.0055238139"><ele>81.85</ele><time>2026-04-25T20:01:03Z</time></trkpt><trkpt lat="59.0766244289" lon="30.0055177789"><ele>81.85</ele><time>2026-04-25T20:01:16Z</time></trkpt><trkpt lat="59.0765793342" lon="30.0055226404"><ele>82.33</ele><time>2026-04-25T20:01:32Z</time></trkpt><trkpt lat="59.0765556134" lon="30.0055171922"><ele>82.33</ele><time>2026-04-25T20:01:51Z</time></trkpt><trkpt lat="59.0765023045" lon="30.0054955669"><ele>82.33</ele><time>2026-04-25T20:02:05Z</time></trkpt><trkpt lat="59.0764577128" lon="30.0054710079"><ele>82.33</ele><time>2026-04-25T20:02:16Z</time></trkpt><trkpt lat="59.0764228441" lon="30.0054580998"><ele>82.33</ele><time>2026-04-25T20:02:28Z</time></trkpt><trkpt lat="59.0763977822" lon="30.0054388214"><ele>82.33</ele><time>2026-04-25T20:02:45Z</time></trkpt><trkpt lat="59.0763624106" lon="30.0054246560"><ele>82.33</ele><time>2026-04-25T20:02:59Z</time></trkpt><trkpt lat="59.0763230994" lon="30.0054505561"><ele>82.81</ele><time>2026-04-25T20:03:13Z</time></trkpt><trkpt lat="59.0763197467" lon="30.0054521486"><ele>81.37</ele><time>2026-04-25T20:03:16Z</time></trkpt><trkpt lat="59.0762271266" lon="30.0054420065"><ele>83.29</ele><time>2026-04-25T20:03:29Z</time></trkpt><trkpt lat="59.0761850495" lon="30.0055268314"><ele>82.33</ele><time>2026-04-25T20:03:41Z</time></trkpt><trkpt lat="59.0761158988" lon="30.0055321958"><ele>82.33</ele><time>2026-04-25T20:03:54Z</time></trkpt><trkpt lat="59.0760848019" lon="30.0055089779"><ele>82.33</ele><time>2026-04-25T20:04:06Z</time></trkpt><trkpt lat="59.0760406293" lon="30.0054865144"><ele>82.33</ele><time>2026-04-25T20:04:21Z</time></trkpt><trkpt lat="59.0760381985" lon="30.0054887775"><ele>82.33</ele><time>2026-04-25T20:04:23Z</time></trkpt><trkpt lat="59.0759649407" lon="30.0055788830"><ele>82.33</ele><time>2026-04-25T20:04:36Z</time></trkpt><trkpt lat="59.0758750029" lon="30.0055964012"><ele>82.33</ele><time>2026-04-25T20:04:50Z</time></trkpt><trkpt lat="59.0758464206" lon="30.0055989157"><ele>82.33</ele><time>2026-04-25T20:05:03Z</time></trkpt><trkpt lat="59.0757787786" lon="30.0055608619"><ele>82.33</ele><time>2026-04-25T20:05:15Z</time></trkpt><trkpt lat="59.0757180937" lon="30.0055416673"><ele>82.33</ele><time>2026-04-25T20:05:28Z</time></trkpt><trkpt lat="59.0756631922" lon="30.0055780448"><ele>82.33</ele><time>2026-04-25T20:05:42Z</time></trkpt><trkpt lat="59.0756267309" lon="30.0056243967"><ele>82.33</ele><time>2026-04-25T20:05:54Z</time></trkpt><trkpt lat="59.0755789541" lon="30.0056523923"><ele>82.33</ele><time>2026-04-25T20:06:05Z</time></trkpt><trkpt lat="59.0755449235" lon="30.0056682341"><ele>82.33</ele><time>2026-04-25T20:06:18Z</time></trkpt><trkpt lat="59.0755258128" lon="30.0056863390"><ele>82.33</ele><time>2026-04-25T20:06:31Z</time></trkpt><trkpt lat="59.0755067859" lon="30.0056962296"><ele>82.33</ele><time>2026-04-25T20:06:40Z</time></trkpt><trkpt lat="59.0754649602" lon="30.0057031028"><ele>82.33</ele><time>2026-04-25T20:06:50Z</time></trkpt><trkpt lat="59.0754231345" lon="30.0057237223"><ele>83.77</ele><time>2026-04-25T20:06:56Z</time></trkpt><trkpt lat="59.0754096396" lon="30.0057363790"><ele>82.33</ele><time>2026-04-25T20:06:59Z</time></trkpt><trkpt lat="59.0753981564" lon="30.0057504606"><ele>82.33</ele><time>2026-04-25T20:07:04Z</time></trkpt><trkpt lat="59.0753378067" lon="30.0059087109"><ele>82.33</ele><time>2026-04-25T20:07:16Z</time></trkpt><trkpt lat="59.0752587654" lon="30.0060083717"><ele>81.85</ele><time>2026-04-25T20:07:28Z</time></trkpt><trkpt lat="59.0751607809" lon="30.0062035862"><ele>81.85</ele><time>2026-04-25T20:07:44Z</time></trkpt><trkpt lat="59.0751214698" lon="30.0062970445"><ele>83.29</ele><time>2026-04-25T20:07:54Z</time></trkpt><trkpt lat="59.0750307776" lon="30.0063226931"><ele>83.29</ele><time>2026-04-25T20:08:07Z</time></trkpt><trkpt lat="59.0749306139" lon="30.0063615851"><ele>83.29</ele><time>2026-04-25T20:08:21Z</time></trkpt><trkpt lat="59.0748652350" lon="30.0062985532"><ele>82.33</ele><time>2026-04-25T20:08:34Z</time></trkpt><trkpt lat="59.0748060588" lon="30.0063073542"><ele>82.33</ele><time>2026-04-25T20:08:46Z</time></trkpt><trkpt lat="59.0747694299" lon="30.0062926020"><ele>82.33</ele><time>2026-04-25T20:08:52Z</time></trkpt><trkpt lat="59.0746960882" lon="30.0061884988"><ele>81.85</ele><time>2026-04-25T20:09:07Z</time></trkpt><trkpt lat="59.0746869519" lon="30.0061698072"><ele>81.85</ele><time>2026-04-25T20:09:21Z</time></trkpt><trkpt lat="59.0746934060" lon="30.0061527081"><ele>81.85</ele><time>2026-04-25T20:09:41Z</time></trkpt><trkpt lat="59.0746913105" lon="30.0061506126"><ele>82.81</ele><time>2026-04-25T20:09:48Z</time></trkpt><trkpt lat="59.0746462997" lon="30.0061154924"><ele>81.85</ele><time>2026-04-25T20:10:01Z</time></trkpt><trkpt lat="59.0745962597" lon="30.0060895085"><ele>83.29</ele><time>2026-04-25T20:10:09Z</time></trkpt><trkpt lat="59.0745381732" lon="30.0060692243"><ele>81.85</ele><time>2026-04-25T20:10:22Z</time></trkpt><trkpt lat="59.0744137857" lon="30.0060741697"><ele>83.29</ele><time>2026-04-25T20:10:39Z</time></trkpt><trkpt lat="59.0744043980" lon="30.0060740020"><ele>83.29</ele><time>2026-04-25T20:10:40Z</time></trkpt><trkpt lat="59.0743029770" lon="30.0061010756"><ele>83.29</ele><time>2026-04-25T20:10:54Z</time></trkpt><trkpt lat="59.0742140450" lon="30.0061965454"><ele>83.29</ele><time>2026-04-25T20:11:08Z</time></trkpt><trkpt lat="59.0741526894" lon="30.0062965415"><ele>83.29</ele><time>2026-04-25T20:11:20Z</time></trkpt><trkpt lat="59.0741001349" lon="30.0063019060"><ele>83.29</ele><time>2026-04-25T20:11:33Z</time></trkpt><trkpt lat="59.0739960317" lon="30.0062794425"><ele>83.29</ele><time>2026-04-25T20:11:46Z</time></trkpt><trkpt lat="59.0739210974" lon="30.0062419754"><ele>83.29</ele><time>2026-04-25T20:11:58Z</time></trkpt><trkpt lat="59.0738656931" lon="30.0061876606"><ele>83.77</ele><time>2026-04-25T20:12:08Z</time></trkpt><trkpt lat="59.0737798624" lon="30.0062334258"><ele>83.77</ele><time>2026-04-25T20:12:22Z</time></trkpt><trkpt lat="59.0737335943" lon="30.0062796939"><ele>83.77</ele><time>2026-04-25T20:12:34Z</time></trkpt><trkpt lat="59.0736519545" lon="30.0063134730"><ele>83.77</ele><time>2026-04-25T20:12:47Z</time></trkpt><trkpt lat="59.0735874139" lon="30.0062977150"><ele>83.77</ele><time>2026-04-25T20:13:01Z</time></trkpt><trkpt lat="59.0735632740" lon="30.0063481741"><ele>83.77</ele><time>2026-04-25T20:13:14Z</time></trkpt><trkpt lat="59.0734819695" lon="30.0064294785"><ele>83.77</ele><time>2026-04-25T20:13:26Z</time></trkpt><trkpt lat="59.0734317619" lon="30.0065428857"><ele>83.77</ele><time>2026-04-25T20:13:37Z</time></trkpt><trkpt lat="59.0733896848" lon="30.0066544488"><ele>83.77</ele><time>2026-04-25T20:13:48Z</time></trkpt><trkpt lat="59.0733235516" lon="30.0066999625"><ele>83.77</ele><time>2026-04-25T20:13:59Z</time></trkpt><trkpt lat="59.0732515510" lon="30.0067019742"><ele>83.77</ele><time>2026-04-25T20:14:11Z</time></trkpt><trkpt lat="59.0731642116" lon="30.0066659320"><ele>83.77</ele><time>2026-04-25T20:14:26Z</time></trkpt><trkpt lat="59.0731146745" lon="30.0067035668"><ele>83.77</ele><time>2026-04-25T20:14:36Z</time></trkpt><trkpt lat="59.0730703343" lon="30.0066883955"><ele>83.77</ele><time>2026-04-25T20:14:51Z</time></trkpt><trkpt lat="59.0730344597" lon="30.0066955201"><ele>82.33</ele><time>2026-04-25T20:14:56Z</time></trkpt><trkpt lat="59.0729834978" lon="30.0066658482"><ele>82.33</ele><time>2026-04-25T20:15:13Z</time></trkpt><trkpt lat="59.0729547478" lon="30.0067069195"><ele>83.77</ele><time>2026-04-25T20:15:20Z</time></trkpt><trkpt lat="59.0728888661" lon="30.0067035668"><ele>83.77</ele><time>2026-04-25T20:15:33Z</time></trkpt><trkpt lat="59.0728463698" lon="30.0067704543"><ele>83.77</ele><time>2026-04-25T20:15:44Z</time></trkpt><trkpt lat="59.0727819968" lon="30.0068095978"><ele>83.77</ele><time>2026-04-25T20:15:56Z</time></trkpt><trkpt lat="59.0727112535" lon="30.0069308840"><ele>83.77</ele><time>2026-04-25T20:16:09Z</time></trkpt><trkpt lat="59.0726299491" lon="30.0070110988"><ele>83.77</ele><time>2026-04-25T20:16:22Z</time></trkpt><trkpt lat="59.0726048872" lon="30.0070577860"><ele>82.81</ele><time>2026-04-25T20:16:36Z</time></trkpt><trkpt lat="59.0725778136" lon="30.0070255157"><ele>83.77</ele><time>2026-04-25T20:16:53Z</time></trkpt><trkpt lat="59.0725291148" lon="30.0069583766"><ele>83.77</ele><time>2026-04-25T20:17:05Z</time></trkpt><trkpt lat="59.0724677593" lon="30.0069644954"><ele>83.77</ele><time>2026-04-25T20:17:16Z</time></trkpt><trkpt lat="59.0723516699" lon="30.0069799181"><ele>83.77</ele><time>2026-04-25T20:17:32Z</time></trkpt><trkpt lat="59.0722198226" lon="30.0070343167"><ele>83.77</ele><time>2026-04-25T20:17:46Z</time></trkpt><trkpt lat="59.0721244365" lon="30.0070286170"><ele>83.77</ele><time>2026-04-25T20:17:59Z</time></trkpt><trkpt lat="59.0720884781" lon="30.0070494041"><ele>84.25</ele><time>2026-04-25T20:18:10Z</time></trkpt><trkpt lat="59.0720799286" lon="30.0070561934"><ele>82.81</ele><time>2026-04-25T20:18:14Z</time></trkpt><trkpt lat="59.0719855484" lon="30.0071269367"><ele>82.81</ele><time>2026-04-25T20:18:29Z</time></trkpt><trkpt lat="59.0719691198" lon="30.0071510766"><ele>82.81</ele><time>2026-04-25T20:18:32Z</time></trkpt><trkpt lat="59.0718643460" lon="30.0071731210"><ele>82.81</ele><time>2026-04-25T20:18:46Z</time></trkpt><trkpt lat="59.0717755817" lon="30.0072704349"><ele>82.81</ele><time>2026-04-25T20:18:58Z</time></trkpt><trkpt lat="59.0716636833" lon="30.0073226541"><ele>82.81</ele><time>2026-04-25T20:19:10Z</time></trkpt><trkpt lat="59.0715827979" lon="30.0072468817"><ele>83.77</ele><time>2026-04-25T20:19:25Z</time></trkpt><trkpt lat="59.0714449994" lon="30.0071752165"><ele>83.77</ele><time>2026-04-25T20:19:40Z</time></trkpt><trkpt lat="59.0713339392" lon="30.0071894657"><ele>83.77</ele><time>2026-04-25T20:19:54Z</time></trkpt><trkpt lat="59.0712584183" lon="30.0071668345"><ele>83.77</ele><time>2026-04-25T20:20:07Z</time></trkpt><trkpt lat="59.0711994097" lon="30.0071727857"><ele>83.77</ele><time>2026-04-25T20:20:18Z</time></trkpt><trkpt lat="59.0711631998" lon="30.0071679242"><ele>83.77</ele><time>2026-04-25T20:20:32Z</time></trkpt><trkpt lat="59.0711549018" lon="30.0071665831"><ele>83.77</ele><time>2026-04-25T20:20:45Z</time></trkpt><trkpt lat="59.0711534768" lon="30.0071797427"><ele>83.77</ele><time>2026-04-25T20:21:03Z</time></trkpt><trkpt lat="59.0711405687" lon="30.0072018709"><ele>83.77</ele><time>2026-04-25T20:21:17Z</time></trkpt><trkpt lat="59.0711250622" lon="30.0072279386"><ele>83.77</ele><time>2026-04-25T20:21:35Z</time></trkpt><trkpt lat="59.0711286664" lon="30.0072208978"><ele>83.77</ele><time>2026-04-25T20:21:53Z</time></trkpt><trkpt lat="59.0711208712" lon="30.0072650705"><ele>83.77</ele><time>2026-04-25T20:22:10Z</time></trkpt><trkpt lat="59.0711199492" lon="30.0072661601"><ele>83.77</ele><time>2026-04-25T20:22:24Z</time></trkpt><trkpt lat="59.0711192787" lon="30.0072724465"><ele>82.81</ele><time>2026-04-25T20:22:45Z</time></trkpt><trkpt lat="59.0711222962" lon="30.0072923116"><ele>82.81</ele><time>2026-04-25T20:23:00Z</time></trkpt><trkpt lat="59.0711233858" lon="30.0073910505"><ele>82.81</ele><time>2026-04-25T20:23:07Z</time></trkpt><trkpt lat="59.0711246431" lon="30.0075820740"><ele>82.81</ele><time>2026-04-25T20:23:18Z</time></trkpt><trkpt lat="59.0711362101" lon="30.0076857582"><ele>82.81</ele><time>2026-04-25T20:23:23Z</time></trkpt><trkpt lat="59.0711734258" lon="30.0079570804"><ele>82.81</ele><time>2026-04-25T20:23:34Z</time></trkpt><trkpt lat="59.0711873397" lon="30.0080335233"><ele>83.77</ele><time>2026-04-25T20:23:47Z</time></trkpt><trkpt lat="59.0711890999" lon="30.0080303382"><ele>82.81</ele><time>2026-04-25T20:23:52Z</time></trkpt><trkpt lat="59.0711999964" lon="30.0080690626"><ele>83.29</ele><time>2026-04-25T20:24:21Z</time></trkpt><trkpt lat="59.0712263994" lon="30.0081613474"><ele>83.29</ele><time>2026-04-25T20:24:32Z</time></trkpt><trkpt lat="59.0712322667" lon="30.0083526224"><ele>82.81</ele><time>2026-04-25T20:24:44Z</time></trkpt><trkpt lat="59.0712560713" lon="30.0085313246"><ele>82.81</ele><time>2026-04-25T20:24:55Z</time></trkpt><trkpt lat="59.0712593403" lon="30.0086132158"><ele>82.81</ele><time>2026-04-25T20:24:59Z</time></trkpt><trkpt lat="59.0712625254" lon="30.0086825341"><ele>82.81</ele><time>2026-04-25T20:25:02Z</time></trkpt><trkpt lat="59.0713140741" lon="30.0091267750"><ele>82.81</ele><time>2026-04-25T20:25:21Z</time></trkpt><trkpt lat="59.0713357832" lon="30.0093005318"><ele>82.81</ele><time>2026-04-25T20:25:28Z</time></trkpt><trkpt lat="59.0713477693" lon="30.0097976625"><ele>82.81</ele><time>2026-04-25T20:25:45Z</time></trkpt><trkpt lat="59.0714139864" lon="30.0101920310"><ele>82.81</ele><time>2026-04-25T20:26:03Z</time></trkpt><trkpt lat="59.0714505315" lon="30.0104213599"><ele>82.81</ele><time>2026-04-25T20:26:14Z</time></trkpt><trkpt lat="59.0714521240" lon="30.0105241220"><ele>82.81</ele><time>2026-04-25T20:26:18Z</time></trkpt><trkpt lat="59.0714578237" lon="30.0109716319"><ele>82.81</ele><time>2026-04-25T20:26:36Z</time></trkpt><trkpt lat="59.0715015773" lon="30.0114010368"><ele>82.81</ele><time>2026-04-25T20:26:52Z</time></trkpt><trkpt lat="59.0715669561" lon="30.0118918810"><ele>82.81</ele><time>2026-04-25T20:27:09Z</time></trkpt><trkpt lat="59.0716183372" lon="30.0122278277"><ele>82.33</ele><time>2026-04-25T20:27:24Z</time></trkpt><trkpt lat="59.0716787707" lon="30.0126343500"><ele>82.33</ele><time>2026-04-25T20:27:41Z</time></trkpt><trkpt lat="59.0717222728" lon="30.0130465720"><ele>82.33</ele><time>2026-04-25T20:27:57Z</time></trkpt><trkpt lat="59.0717650205" lon="30.0131884776"><ele>81.85</ele><time>2026-04-25T20:28:03Z</time></trkpt><trkpt lat="59.0717993863" lon="30.0133160502"><ele>81.85</ele><time>2026-04-25T20:28:19Z</time></trkpt><trkpt lat="59.0718111210" lon="30.0134742167"><ele>81.85</ele><time>2026-04-25T20:28:28Z</time></trkpt><trkpt lat="59.0718386136" lon="30.0136405136"><ele>81.85</ele><time>2026-04-25T20:28:36Z</time></trkpt><trkpt lat="59.0718619991" lon="30.0141327828"><ele>81.85</ele><time>2026-04-25T20:28:56Z</time></trkpt><trkpt lat="59.0718895756" lon="30.0146600045"><ele>81.85</ele><time>2026-04-25T20:29:17Z</time></trkpt><trkpt lat="59.0719107818" lon="30.0150671136"><ele>81.85</ele><time>2026-04-25T20:29:34Z</time></trkpt><trkpt lat="59.0719117038" lon="30.0151338335"><ele>82.81</ele><time>2026-04-25T20:29:37Z</time></trkpt><trkpt lat="59.0719624981" lon="30.0156093389"><ele>81.85</ele><time>2026-04-25T20:29:57Z</time></trkpt><trkpt lat="59.0720033180" lon="30.0158133544"><ele>81.85</ele><time>2026-04-25T20:30:06Z</time></trkpt><trkpt lat="59.0720613208" lon="30.0163024385"><ele>80.89</ele><time>2026-04-25T20:30:26Z</time></trkpt><trkpt lat="59.0720806830" lon="30.0164683163"><ele>80.89</ele><time>2026-04-25T20:30:33Z</time></trkpt><trkpt lat="59.0721180663" lon="30.0169154909"><ele>80.89</ele><time>2026-04-25T20:30:51Z</time></trkpt><trkpt lat="59.0721306391" lon="30.0169820432"><ele>80.89</ele><time>2026-04-25T20:30:54Z</time></trkpt><trkpt lat="59.0721174795" lon="30.0171785988"><ele>80.89</ele><time>2026-04-25T20:31:02Z</time></trkpt><trkpt lat="59.0721111093" lon="30.0176607259"><ele>80.89</ele><time>2026-04-25T20:31:21Z</time></trkpt><trkpt lat="59.0721276216" lon="30.0181021169"><ele>80.41</ele><time>2026-04-25T20:31:38Z</time></trkpt><trkpt lat="59.0721593890" lon="30.0183505565"><ele>80.41</ele><time>2026-04-25T20:31:48Z</time></trkpt><trkpt lat="59.0722105186" lon="30.0187977310"><ele>80.41</ele><time>2026-04-25T20:32:07Z</time></trkpt><trkpt lat="59.0723233391" lon="30.0192982145"><ele>79.45</ele><time>2026-04-25T20:32:28Z</time></trkpt><trkpt lat="59.0724183060" lon="30.0196476560"><ele>80.41</ele><time>2026-04-25T20:32:45Z</time></trkpt><trkpt lat="59.0725043043" lon="30.0200519990"><ele>79.45</ele><time>2026-04-25T20:33:03Z</time></trkpt><trkpt lat="59.0725511592" lon="30.0204348844"><ele>78.48</ele><time>2026-04-25T20:33:20Z</time></trkpt><trkpt lat="59.0725937393" lon="30.0208127405"><ele>78.48</ele><time>2026-04-25T20:33:37Z</time></trkpt><trkpt lat="59.0725984331" lon="30.0209885091"><ele>78.48</ele><time>2026-04-25T20:33:43Z</time></trkpt><trkpt lat="59.0726053063" lon="30.0214290619"><ele>79.93</ele><time>2026-04-25T20:34:02Z</time></trkpt><trkpt lat="59.0726091620" lon="30.0217761565"><ele>79.93</ele><time>2026-04-25T20:34:17Z</time></trkpt><trkpt lat="59.0725896321" lon="30.0221481454"><ele>79.93</ele><time>2026-04-25T20:34:33Z</time></trkpt><trkpt lat="59.0725750476" lon="30.0225122552"><ele>79.93</ele><time>2026-04-25T20:34:48Z</time></trkpt><trkpt lat="59.0725648217" lon="30.0228748564"><ele>79.93</ele><time>2026-04-25T20:35:03Z</time></trkpt><trkpt lat="59.0725449566" lon="30.0233605877"><ele>79.93</ele><time>2026-04-25T20:35:23Z</time></trkpt><trkpt lat="59.0725916438" lon="30.0237340014"><ele>79.93</ele><time>2026-04-25T20:35:38Z</time></trkpt><trkpt lat="59.0726557653" lon="30.0241369195"><ele>79.93</ele><time>2026-04-25T20:35:56Z</time></trkpt><trkpt lat="59.0726668295" lon="30.0242950860"><ele>78.48</ele><time>2026-04-25T20:36:03Z</time></trkpt><trkpt lat="59.0726904664" lon="30.0246457849"><ele>78.48</ele><time>2026-04-25T20:36:21Z</time></trkpt><trkpt lat="59.0726886224" lon="30.0247576833"><ele>78.48</ele><time>2026-04-25T20:36:37Z</time></trkpt><trkpt lat="59.0727216471" lon="30.0251767784"><ele>78.00</ele><time>2026-04-25T20:36:55Z</time></trkpt><trkpt lat="59.0727226529" lon="30.0252553169"><ele>78.00</ele><time>2026-04-25T20:36:58Z</time></trkpt><trkpt lat="59.0727848466" lon="30.0256454106"><ele>78.00</ele><time>2026-04-25T20:37:16Z</time></trkpt><trkpt lat="59.0728509799" lon="30.0260378513"><ele>79.45</ele><time>2026-04-25T20:37:36Z</time></trkpt><trkpt lat="59.0728995949" lon="30.0265201461"><ele>79.45</ele><time>2026-04-25T20:37:57Z</time></trkpt><trkpt lat="59.0729418397" lon="30.0271616131"><ele>79.45</ele><time>2026-04-25T20:38:20Z</time></trkpt><trkpt lat="59.0729483776" lon="30.0272269081"><ele>78.00</ele><time>2026-04-25T20:38:23Z</time></trkpt><trkpt lat="59.0729888622" lon="30.0276931934"><ele>79.45</ele><time>2026-04-25T20:38:43Z</time></trkpt><trkpt lat="59.0727274306" lon="30.0278257113"><ele>79.45</ele><time>2026-04-25T20:39:07Z</time></trkpt><trkpt lat="59.0726499818" lon="30.0278369430"><ele>79.45</ele><time>2026-04-25T20:39:13Z</time></trkpt><trkpt lat="59.0725960024" lon="30.0278501026"><ele>78.00</ele><time>2026-04-25T20:39:17Z</time></trkpt><trkpt lat="59.0725013707" lon="30.0277895015"><ele>78.00</ele><time>2026-04-25T20:39:33Z</time></trkpt><trkpt lat="59.0723290388" lon="30.0279055070"><ele>78.00</ele><time>2026-04-25T20:39:50Z</time></trkpt><trkpt lat="59.0722557809" lon="30.0279333349"><ele>78.97</ele><time>2026-04-25T20:40:03Z</time></trkpt><trkpt lat="59.0721547790" lon="30.0279088598"><ele>78.97</ele><time>2026-04-25T20:40:17Z</time></trkpt><trkpt lat="59.0720690321" lon="30.0280438084"><ele>78.97</ele><time>2026-04-25T20:40:31Z</time></trkpt><trkpt lat="59.0719986241" lon="30.0280979555"><ele>78.97</ele><time>2026-04-25T20:40:44Z</time></trkpt><trkpt lat="59.0719679464" lon="30.0281074271"><ele>78.97</ele><time>2026-04-25T20:40:47Z</time></trkpt><trkpt lat="59.0717544593" lon="30.0281396974"><ele>77.52</ele><time>2026-04-25T20:41:07Z</time></trkpt><trkpt lat="59.0715136472" lon="30.0281898212"><ele>78.97</ele><time>2026-04-25T20:41:28Z</time></trkpt><trkpt lat="59.0712883417" lon="30.0282492489"><ele>78.48</ele><time>2026-04-25T20:41:48Z</time></trkpt><trkpt lat="59.0712758526" lon="30.0282528531"><ele>78.48</ele><time>2026-04-25T20:41:49Z</time></trkpt><trkpt lat="59.0710615274" lon="30.0283629913"><ele>78.48</ele><time>2026-04-25T20:42:11Z</time></trkpt><trkpt lat="59.0708035324" lon="30.0284557790"><ele>78.48</ele><time>2026-04-25T20:42:33Z</time></trkpt><trkpt lat="59.0705705993" lon="30.0285506621"><ele>79.45</ele><time>2026-04-25T20:42:55Z</time></trkpt><trkpt lat="59.0702679288" lon="30.0286466349"><ele>78.48</ele><time>2026-04-25T20:43:17Z</time></trkpt><trkpt lat="59.0702554397" lon="30.0286411028"><ele>78.48</ele><time>2026-04-25T20:43:18Z</time></trkpt><trkpt lat="59.0699890628" lon="30.0287220720"><ele>78.48</ele><time>2026-04-25T20:43:42Z</time></trkpt><trkpt lat="59.0698160604" lon="30.0286317151"><ele>78.48</ele><time>2026-04-25T20:44:01Z</time></trkpt><trkpt lat="59.0696097817" lon="30.0288664922"><ele>79.45</ele><time>2026-04-25T20:44:20Z</time></trkpt><trkpt lat="59.0693450812" lon="30.0289411750"><ele>79.45</ele><time>2026-04-25T20:44:39Z</time></trkpt><trkpt lat="59.0692439117" lon="30.0289680809"><ele>78.48</ele><time>2026-04-25T20:44:49Z</time></trkpt><trkpt lat="59.0690332744" lon="30.0290079787"><ele>79.45</ele><time>2026-04-25T20:45:10Z</time></trkpt><trkpt lat="59.0688197035" lon="30.0290933065"><ele>78.48</ele><time>2026-04-25T20:45:27Z</time></trkpt><trkpt lat="59.0686161071" lon="30.0291662291"><ele>78.48</ele><time>2026-04-25T20:45:43Z</time></trkpt><trkpt lat="59.0684068110" lon="30.0292439293"><ele>79.45</ele><time>2026-04-25T20:46:03Z</time></trkpt><trkpt lat="59.0683975071" lon="30.0292492937"><ele>78.48</ele><time>2026-04-25T20:46:05Z</time></trkpt><trkpt lat="59.0683439467" lon="30.0292908680"><ele>78.48</ele><time>2026-04-25T20:46:23Z</time></trkpt><trkpt lat="59.0681815054" lon="30.0293072965"><ele>78.48</ele><time>2026-04-25T20:46:39Z</time></trkpt><trkpt lat="59.0679934155" lon="30.0293417461"><ele>78.48</ele><time>2026-04-25T20:46:57Z</time></trkpt><trkpt lat="59.0678665973" lon="30.0293735974"><ele>78.48</ele><time>2026-04-25T20:47:13Z</time></trkpt><trkpt lat="59.0677096043" lon="30.0294303428"><ele>78.48</ele><time>2026-04-25T20:47:31Z</time></trkpt><trkpt lat="59.0675712191" lon="30.0294961408"><ele>78.48</ele><time>2026-04-25T20:47:45Z</time></trkpt><trkpt lat="59.0674823709" lon="30.0295269862"><ele>78.48</ele><time>2026-04-25T20:47:52Z</time></trkpt><trkpt lat="59.0673089493" lon="30.0295625255"><ele>78.48</ele><time>2026-04-25T20:48:04Z</time></trkpt><trkpt lat="59.0671766829" lon="30.0296334364"><ele>78.48</ele><time>2026-04-25T20:48:19Z</time></trkpt><trkpt lat="59.0670731664" lon="30.0296625216"><ele>78.48</ele><time>2026-04-25T20:48:34Z</time></trkpt><trkpt lat="59.0668943804" lon="30.0296704844"><ele>79.45</ele><time>2026-04-25T20:48:52Z</time></trkpt><trkpt lat="59.0667588450" lon="30.0297964644"><ele>79.45</ele><time>2026-04-25T20:49:07Z</time></trkpt><trkpt lat="59.0666720923" lon="30.0298258848"><ele>78.00</ele><time>2026-04-25T20:49:21Z</time></trkpt><trkpt lat="59.0665627923" lon="30.0298335124"><ele>78.00</ele><time>2026-04-25T20:49:37Z</time></trkpt><trkpt lat="59.0663991775" lon="30.0299040042"><ele>78.00</ele><time>2026-04-25T20:49:56Z</time></trkpt><trkpt lat="59.0662983432" lon="30.0300423056"><ele>78.00</ele><time>2026-04-25T20:50:12Z</time></trkpt><trkpt lat="59.0662149433" lon="30.0300042517"><ele>78.97</ele><time>2026-04-25T20:50:30Z</time></trkpt><trkpt lat="59.0660833474" lon="30.0300384499"><ele>78.97</ele><time>2026-04-25T20:50:47Z</time></trkpt><trkpt lat="59.0660825092" lon="30.0300459098"><ele>77.52</ele><time>2026-04-25T20:50:50Z</time></trkpt><trkpt lat="59.0660038870" lon="30.0300731510"><ele>77.52</ele><time>2026-04-25T20:51:03Z</time></trkpt><trkpt lat="59.0659691021" lon="30.0300641824"><ele>77.52</ele><time>2026-04-25T20:51:16Z</time></trkpt><trkpt lat="59.0658642445" lon="30.0301400386"><ele>77.52</ele><time>2026-04-25T20:51:35Z</time></trkpt><trkpt lat="59.0657488257" lon="30.0303272065"><ele>77.52</ele><time>2026-04-25T20:51:57Z</time></trkpt><trkpt lat="59.0655780863" lon="30.0302306470"><ele>78.97</ele><time>2026-04-25T20:52:15Z</time></trkpt><trkpt lat="59.0653962828" lon="30.0303138793"><ele>78.97</ele><time>2026-04-25T20:52:33Z</time></trkpt><trkpt lat="59.0651951171" lon="30.0303462334"><ele>78.97</ele><time>2026-04-25T20:52:52Z</time></trkpt><trkpt lat="59.0649776906" lon="30.0304106064"><ele>78.97</ele><time>2026-04-25T20:53:09Z</time></trkpt><trkpt lat="59.0648030117" lon="30.0304453075"><ele>78.97</ele><time>2026-04-25T20:53:25Z</time></trkpt><trkpt lat="59.0647240542" lon="30.0304529350"><ele>77.52</ele><time>2026-04-25T20:53:32Z</time></trkpt><trkpt lat="59.0645654686" lon="30.0305485725"><ele>77.52</ele><time>2026-04-25T20:53:47Z</time></trkpt><trkpt lat="59.0645534825" lon="30.0305536855"><ele>77.52</ele><time>2026-04-25T20:53:48Z</time></trkpt><trkpt lat="59.0644716751" lon="30.0305623189"><ele>77.52</ele><time>2026-04-25T20:53:56Z</time></trkpt><trkpt lat="59.0643191244" lon="30.0306021329"><ele>77.04</ele><time>2026-04-25T20:54:13Z</time></trkpt><trkpt lat="59.0641994309" lon="30.0307028834"><ele>77.04</ele><time>2026-04-25T20:54:30Z</time></trkpt><trkpt lat="59.0640921425" lon="30.0307053141"><ele>77.04</ele><time>2026-04-25T20:54:43Z</time></trkpt><trkpt lat="59.0639706887" lon="30.0307276938"><ele>77.04</ele><time>2026-04-25T20:54:59Z</time></trkpt><trkpt lat="59.0638862830" lon="30.0307710283"><ele>77.04</ele><time>2026-04-25T20:55:15Z</time></trkpt><trkpt lat="59.0638532583" lon="30.0306415278"><ele>77.04</ele><time>2026-04-25T20:55:33Z</time></trkpt><trkpt lat="59.0638183895" lon="30.0305834413"><ele>77.04</ele><time>2026-04-25T20:55:49Z</time></trkpt><trkpt lat="59.0637770668" lon="30.0306216627"><ele>76.56</ele><time>2026-04-25T20:56:06Z</time></trkpt><trkpt lat="59.0637682658" lon="30.0306271948"><ele>78.00</ele><time>2026-04-25T20:56:10Z</time></trkpt><trkpt lat="59.0637478977" lon="30.0306261051"><ele>76.56</ele><time>2026-04-25T20:56:13Z</time></trkpt><trkpt lat="59.0636941697" lon="30.0306258537"><ele>78.00</ele><time>2026-04-25T20:56:29Z</time></trkpt><trkpt lat="59.0636328980" lon="30.0305774063"><ele>78.00</ele><time>2026-04-25T20:56:43Z</time></trkpt><trkpt lat="59.0635523479" lon="30.0306514185"><ele>78.00</ele><time>2026-04-25T20:56:58Z</time></trkpt><trkpt lat="59.0634846222" lon="30.0307943299"><ele>78.97</ele><time>2026-04-25T20:57:10Z</time></trkpt><trkpt lat="59.0632641781" lon="30.0310690049"><ele>78.97</ele><time>2026-04-25T20:57:31Z</time></trkpt><trkpt lat="59.0632837918" lon="30.0311350543"><ele>77.52</ele><time>2026-04-25T20:57:44Z</time></trkpt><trkpt lat="59.0632856358" lon="30.0311229005"><ele>77.52</ele><time>2026-04-25T20:58:01Z</time></trkpt><trkpt lat="59.0632833727" lon="30.0311271753"><ele>77.04</ele><time>2026-04-25T20:58:15Z</time></trkpt><trkpt lat="59.0632821992" lon="30.0311232358"><ele>77.04</ele><time>2026-04-25T20:58:34Z</time></trkpt><trkpt lat="59.0632826183" lon="30.0311244931"><ele>78.48</ele><time>2026-04-25T20:58:42Z</time></trkpt><trkpt lat="59.0632832889" lon="30.0311213080"><ele>77.04</ele><time>2026-04-25T20:58:49Z</time></trkpt><trkpt lat="59.0632797685" lon="30.0311183743"><ele>77.04</ele><time>2026-04-25T20:59:09Z</time></trkpt><trkpt lat="59.0632839594" lon="30.0311170332"><ele>77.04</ele><time>2026-04-25T20:59:28Z</time></trkpt><trkpt lat="59.0632780083" lon="30.0311196316"><ele>76.56</ele><time>2026-04-25T20:59:39Z</time></trkpt><trkpt lat="59.0632728115" lon="30.0311187934"><ele>77.52</ele><time>2026-04-25T20:59:58Z</time></trkpt><trkpt lat="59.0632573888" lon="30.0311286002"><ele>77.52</ele><time>2026-04-25T21:00:37Z</time></trkpt><trkpt lat="59.0632537007" lon="30.0311362278"><ele>77.52</ele><time>2026-04-25T21:01:00Z</time></trkpt><trkpt lat="59.0632624179" lon="30.0311429333"><ele>77.52</ele><time>2026-04-25T21:01:35Z</time></trkpt><trkpt lat="59.0632633399" lon="30.0311388262"><ele>76.56</ele><time>2026-04-25T21:02:17Z</time></trkpt><trkpt lat="59.0632599033" lon="30.0311395805"><ele>76.56</ele><time>2026-04-25T21:02:53Z</time></trkpt><trkpt lat="59.0632664412" lon="30.0311491359"><ele>76.56</ele><time>2026-04-25T21:03:27Z</time></trkpt><trkpt lat="59.0632673632" lon="30.0311594456"><ele>77.52</ele><time>2026-04-25T21:03:56Z</time></trkpt><trkpt lat="59.0632680338" lon="30.0311524887"><ele>77.52</ele><time>2026-04-25T21:04:35Z</time></trkpt><trkpt lat="59.0632595681" lon="30.0311227329"><ele>75.12</ele><time>2026-04-25T21:05:03Z</time></trkpt><trkpt lat="59.0632588137" lon="30.0311180390"><ele>77.52</ele><time>2026-04-25T21:05:07Z</time></trkpt><trkpt lat="59.0632600710" lon="30.0311197992"><ele>77.52</ele><time>2026-04-25T21:05:30Z</time></trkpt><trkpt lat="59.0632531140" lon="30.0311047118"><ele>77.52</ele><time>2026-04-25T21:05:51Z</time></trkpt><trkpt lat="59.0632628370" lon="30.0310793985"><ele>77.52</ele><time>2026-04-25T21:06:17Z</time></trkpt><trkpt lat="59.0632702131" lon="30.0310743693"><ele>75.12</ele><time>2026-04-25T21:06:24Z</time></trkpt><trkpt lat="59.0632656030" lon="30.0310788117"><ele>74.64</ele><time>2026-04-25T21:06:39Z</time></trkpt><trkpt lat="59.0632626694" lon="30.0310824160"><ele>74.64</ele><time>2026-04-25T21:07:15Z</time></trkpt><trkpt lat="59.0632597357" lon="30.0310961623"><ele>74.64</ele><time>2026-04-25T21:07:50Z</time></trkpt><trkpt lat="59.0632707998" lon="30.0310874451"><ele>74.64</ele><time>2026-04-25T21:08:17Z</time></trkpt><trkpt lat="59.0632763319" lon="30.0310948212"><ele>74.64</ele><time>2026-04-25T21:08:53Z</time></trkpt><trkpt lat="59.0632643458" lon="30.0311058853"><ele>76.08</ele><time>2026-04-25T21:09:31Z</time></trkpt><trkpt lat="59.0632614959" lon="30.0311082322"><ele>74.64</ele><time>2026-04-25T21:10:07Z</time></trkpt><trkpt lat="59.0632521920" lon="30.0311094895"><ele>74.64</ele><time>2026-04-25T21:10:45Z</time></trkpt><trkpt lat="59.0632550418" lon="30.0310951564"><ele>74.64</ele><time>2026-04-25T21:11:23Z</time></trkpt><trkpt lat="59.0632698778" lon="30.0311004370"><ele>76.08</ele><time>2026-04-25T21:12:06Z</time></trkpt><trkpt lat="59.0632701293" lon="30.0311001856"><ele>76.08</ele><time>2026-04-25T21:12:07Z</time></trkpt><trkpt lat="59.0632765833" lon="30.0310933124"><ele>76.08</ele><time>2026-04-25T21:12:37Z</time></trkpt><trkpt lat="59.0632782597" lon="30.0310985930"><ele>78.00</ele><time>2026-04-25T21:13:00Z</time></trkpt><trkpt lat="59.0632784273" lon="30.0310997665"><ele>75.12</ele><time>2026-04-25T21:13:04Z</time></trkpt><trkpt lat="59.0632719733" lon="30.0311143510"><ele>75.12</ele><time>2026-04-25T21:13:32Z</time></trkpt><trkpt lat="59.0632697940" lon="30.0311055500"><ele>76.08</ele><time>2026-04-25T21:14:11Z</time></trkpt><trkpt lat="59.0632661898" lon="30.0311041251"><ele>76.56</ele><time>2026-04-25T21:14:37Z</time></trkpt><trkpt lat="59.0632677823" lon="30.0311142672"><ele>75.12</ele><time>2026-04-25T21:14:53Z</time></trkpt><trkpt lat="59.0632796846" lon="30.0311406702"><ele>75.12</ele><time>2026-04-25T21:15:34Z</time></trkpt><trkpt lat="59.0632805228" lon="30.0311430171"><ele>75.12</ele><time>2026-04-25T21:16:02Z</time></trkpt><trkpt lat="59.0632869769" lon="30.0311344676"><ele>76.56</ele><time>2026-04-25T21:16:44Z</time></trkpt><trkpt lat="59.0632830374" lon="30.0311370660"><ele>75.12</ele><time>2026-04-25T21:17:15Z</time></trkpt><trkpt lat="59.0632832889" lon="30.0311389100"><ele>76.56</ele><time>2026-04-25T21:17:46Z</time></trkpt><trkpt lat="59.0632882342" lon="30.0311264209"><ele>76.56</ele><time>2026-04-25T21:18:12Z</time></trkpt><trkpt lat="59.0632921737" lon="30.0311192963"><ele>77.04</ele><time>2026-04-25T21:18:39Z</time></trkpt><trkpt lat="59.0632959455" lon="30.0311330426"><ele>77.04</ele><time>2026-04-25T21:19:12Z</time></trkpt><trkpt lat="59.0633010585" lon="30.0311385747"><ele>77.04</ele><time>2026-04-25T21:19:43Z</time></trkpt><trkpt lat="59.0633070935" lon="30.0311385747"><ele>75.60</ele><time>2026-04-25T21:20:07Z</time></trkpt><trkpt lat="59.0633073449" lon="30.0311384909"><ele>75.60</ele><time>2026-04-25T21:20:08Z</time></trkpt></trkseg></trk></gpx>